<?xml version="1.0" encoding="UTF-8" standalone="no" ?>
<gpx xmlns="http://www.topografix.com/GPX/1/1" xmlns:xsi="http://www.w3.org/2001/XMLSchema-instance" xsi:schemaLocation="http://www.topografix.com/GPX/1/1 http://www.topografix.com/GPX/1/1/gpx.xsd" version="1.1" creator="VisuGPX - https://www.visugpx.com">
  <metadata>
    <name>Un Tour en Terre du Jura 2022 - 200 km - Etape 2 2 sur TraceDeTrail.fr</name>
  </metadata>
  <trk>
    <name><![CDATA[Un Tour en Terre du Jura 2022 - 200 km - Etape 2 sur TraceDeTrail.fr]]></name>
    <extensions>
      <line xmlns="http://www.topografix.com/GPX/gpx_style/0/2">
        <color>0000FF</color>
        <width>4</width>
      </line>
    </extensions>
    <trkseg>
      <trkpt lat="46.53492" lon="5.9218">
        <ele>880</ele>
        <time>2000-01-01T01:56:12.000Z</time>
      </trkpt>
      <trkpt lat="46.53472" lon="5.92213">
        <ele>884</ele>
        <time>2000-01-01T01:56:22.000Z</time>
      </trkpt>
      <trkpt lat="46.53454" lon="5.92242">
        <ele>889</ele>
        <time>2000-01-01T01:56:32.000Z</time>
      </trkpt>
      <trkpt lat="46.5343" lon="5.92279">
        <ele>895</ele>
        <time>2000-01-01T01:56:42.000Z</time>
      </trkpt>
      <trkpt lat="46.53399" lon="5.92269">
        <ele>901</ele>
        <time>2000-01-01T01:56:52.000Z</time>
      </trkpt>
      <trkpt lat="46.53368" lon="5.9226">
        <ele>906</ele>
        <time>2000-01-01T01:57:02.000Z</time>
      </trkpt>
      <trkpt lat="46.53333" lon="5.92249">
        <ele>915</ele>
        <time>2000-01-01T01:57:12.000Z</time>
      </trkpt>
      <trkpt lat="46.53309" lon="5.92261">
        <ele>918</ele>
        <time>2000-01-01T01:57:22.000Z</time>
      </trkpt>
      <trkpt lat="46.5328" lon="5.92275">
        <ele>921</ele>
        <time>2000-01-01T01:57:32.000Z</time>
      </trkpt>
      <trkpt lat="46.53264" lon="5.92246">
        <ele>933</ele>
        <time>2000-01-01T01:57:42.000Z</time>
      </trkpt>
      <trkpt lat="46.53244" lon="5.9221">
        <ele>934</ele>
        <time>2000-01-01T01:57:52.000Z</time>
      </trkpt>
      <trkpt lat="46.5321" lon="5.92202">
        <ele>938</ele>
        <time>2000-01-01T01:58:02.000Z</time>
      </trkpt>
      <trkpt lat="46.53176" lon="5.92193">
        <ele>938</ele>
        <time>2000-01-01T01:58:12.000Z</time>
      </trkpt>
      <trkpt lat="46.53141" lon="5.92185">
        <ele>938</ele>
        <time>2000-01-01T01:58:22.000Z</time>
      </trkpt>
      <trkpt lat="46.53106" lon="5.92176">
        <ele>941</ele>
        <time>2000-01-01T01:58:32.000Z</time>
      </trkpt>
      <trkpt lat="46.53071" lon="5.92188">
        <ele>949</ele>
        <time>2000-01-01T01:58:42.000Z</time>
      </trkpt>
      <trkpt lat="46.53036" lon="5.922">
        <ele>979</ele>
        <time>2000-01-01T01:58:52.000Z</time>
      </trkpt>
      <trkpt lat="46.53001" lon="5.92212">
        <ele>991</ele>
        <time>2000-01-01T01:59:02.000Z</time>
      </trkpt>
      <trkpt lat="46.52978" lon="5.92219">
        <ele>997</ele>
        <time>2000-01-01T01:59:12.000Z</time>
      </trkpt>
      <trkpt lat="46.52955" lon="5.92227">
        <ele>1004</ele>
        <time>2000-01-01T01:59:22.000Z</time>
      </trkpt>
      <trkpt lat="46.52922" lon="5.92213">
        <ele>1011</ele>
        <time>2000-01-01T01:59:32.000Z</time>
      </trkpt>
      <trkpt lat="46.52889" lon="5.92199">
        <ele>1011</ele>
        <time>2000-01-01T01:59:42.000Z</time>
      </trkpt>
      <trkpt lat="46.52863" lon="5.92187">
        <ele>1011</ele>
        <time>2000-01-01T01:59:52.000Z</time>
      </trkpt>
      <trkpt lat="46.52828" lon="5.92172">
        <ele>1012</ele>
        <time>2000-01-01T02:00:02.000Z</time>
      </trkpt>
      <trkpt lat="46.52801" lon="5.92189">
        <ele>1019</ele>
        <time>2000-01-01T02:00:12.000Z</time>
      </trkpt>
      <trkpt lat="46.52779" lon="5.92203">
        <ele>1029</ele>
        <time>2000-01-01T02:00:22.000Z</time>
      </trkpt>
      <trkpt lat="46.52754" lon="5.92219">
        <ele>1033</ele>
        <time>2000-01-01T02:00:32.000Z</time>
      </trkpt>
      <trkpt lat="46.52769" lon="5.92225">
        <ele>1005.1</ele>
        <time>2000-01-01T02:00:42.000Z</time>
      </trkpt>
      <trkpt lat="46.52709" lon="5.92284">
        <ele>1040</ele>
        <time>2000-01-01T02:00:52.000Z</time>
      </trkpt>
      <trkpt lat="46.52689" lon="5.92309">
        <ele>1038</ele>
        <time>2000-01-01T02:01:02.000Z</time>
      </trkpt>
      <trkpt lat="46.52692" lon="5.9236">
        <ele>1041</ele>
        <time>2000-01-01T02:01:12.000Z</time>
      </trkpt>
      <trkpt lat="46.52666" lon="5.92324">
        <ele>1041</ele>
        <time>2000-01-01T02:01:22.000Z</time>
      </trkpt>
      <trkpt lat="46.52646" lon="5.92294">
        <ele>1042</ele>
        <time>2000-01-01T02:01:32.000Z</time>
      </trkpt>
      <trkpt lat="46.52625" lon="5.92257">
        <ele>1047</ele>
        <time>2000-01-01T02:01:42.000Z</time>
      </trkpt>
      <trkpt lat="46.52615" lon="5.92224">
        <ele>1041</ele>
        <time>2000-01-01T02:01:52.000Z</time>
      </trkpt>
      <trkpt lat="46.52604" lon="5.92186">
        <ele>1041</ele>
        <time>2000-01-01T02:02:02.000Z</time>
      </trkpt>
      <trkpt lat="46.52585" lon="5.92144">
        <ele>1042</ele>
        <time>2000-01-01T02:02:12.000Z</time>
      </trkpt>
      <trkpt lat="46.52565" lon="5.92103">
        <ele>1042</ele>
        <time>2000-01-01T02:02:22.000Z</time>
      </trkpt>
      <trkpt lat="46.52545" lon="5.9206">
        <ele>1039</ele>
        <time>2000-01-01T02:02:32.000Z</time>
      </trkpt>
      <trkpt lat="46.52529" lon="5.92021">
        <ele>1039</ele>
        <time>2000-01-01T02:02:42.000Z</time>
      </trkpt>
      <trkpt lat="46.52514" lon="5.91981">
        <ele>1034</ele>
        <time>2000-01-01T02:02:52.000Z</time>
      </trkpt>
      <trkpt lat="46.52497" lon="5.9194">
        <ele>1032</ele>
        <time>2000-01-01T02:03:02.000Z</time>
      </trkpt>
      <trkpt lat="46.52474" lon="5.91902">
        <ele>1033</ele>
        <time>2000-01-01T02:03:12.000Z</time>
      </trkpt>
      <trkpt lat="46.5245" lon="5.91865">
        <ele>1034</ele>
        <time>2000-01-01T02:03:22.000Z</time>
      </trkpt>
      <trkpt lat="46.52426" lon="5.91827">
        <ele>1036</ele>
        <time>2000-01-01T02:03:32.000Z</time>
      </trkpt>
      <trkpt lat="46.524" lon="5.91785">
        <ele>1035</ele>
        <time>2000-01-01T02:03:42.000Z</time>
      </trkpt>
      <trkpt lat="46.52387" lon="5.91752">
        <ele>1035</ele>
        <time>2000-01-01T02:03:52.000Z</time>
      </trkpt>
      <trkpt lat="46.5237" lon="5.91708">
        <ele>1029</ele>
        <time>2000-01-01T02:04:02.000Z</time>
      </trkpt>
      <trkpt lat="46.52339" lon="5.91684">
        <ele>1029</ele>
        <time>2000-01-01T02:04:12.000Z</time>
      </trkpt>
      <trkpt lat="46.52307" lon="5.9166">
        <ele>1024</ele>
        <time>2000-01-01T02:04:22.000Z</time>
      </trkpt>
      <trkpt lat="46.52276" lon="5.91636">
        <ele>1024</ele>
        <time>2000-01-01T02:04:32.000Z</time>
      </trkpt>
      <trkpt lat="46.52255" lon="5.91621">
        <ele>1025</ele>
        <time>2000-01-01T02:04:42.000Z</time>
      </trkpt>
      <trkpt lat="46.52235" lon="5.91605">
        <ele>1020</ele>
        <time>2000-01-01T02:04:52.000Z</time>
      </trkpt>
      <trkpt lat="46.52215" lon="5.91568">
        <ele>1015</ele>
        <time>2000-01-01T02:05:02.000Z</time>
      </trkpt>
      <trkpt lat="46.52195" lon="5.9153">
        <ele>1015</ele>
        <time>2000-01-01T02:05:12.000Z</time>
      </trkpt>
      <trkpt lat="46.5217" lon="5.91481">
        <ele>1015</ele>
        <time>2000-01-01T02:05:22.000Z</time>
      </trkpt>
      <trkpt lat="46.52142" lon="5.91453">
        <ele>1012</ele>
        <time>2000-01-01T02:05:32.000Z</time>
      </trkpt>
      <trkpt lat="46.52115" lon="5.91426">
        <ele>1009</ele>
        <time>2000-01-01T02:05:42.000Z</time>
      </trkpt>
      <trkpt lat="46.52096" lon="5.91407">
        <ele>1008</ele>
        <time>2000-01-01T02:05:52.000Z</time>
      </trkpt>
      <trkpt lat="46.52075" lon="5.91386">
        <ele>1008</ele>
        <time>2000-01-01T02:06:02.000Z</time>
      </trkpt>
      <trkpt lat="46.52056" lon="5.91357">
        <ele>1007</ele>
        <time>2000-01-01T02:06:12.000Z</time>
      </trkpt>
      <trkpt lat="46.5206" lon="5.91301">
        <ele>1010</ele>
        <time>2000-01-01T02:06:22.000Z</time>
      </trkpt>
      <trkpt lat="46.52031" lon="5.913">
        <ele>1013</ele>
        <time>2000-01-01T02:06:32.000Z</time>
      </trkpt>
      <trkpt lat="46.51999" lon="5.91306">
        <ele>1013</ele>
        <time>2000-01-01T02:06:42.000Z</time>
      </trkpt>
      <trkpt lat="46.51974" lon="5.91304">
        <ele>1013</ele>
        <time>2000-01-01T02:06:52.000Z</time>
      </trkpt>
      <trkpt lat="46.51945" lon="5.913">
        <ele>1013</ele>
        <time>2000-01-01T02:07:02.000Z</time>
      </trkpt>
      <trkpt lat="46.51926" lon="5.91263">
        <ele>1013</ele>
        <time>2000-01-01T02:07:12.000Z</time>
      </trkpt>
      <trkpt lat="46.51906" lon="5.91225">
        <ele>1011</ele>
        <time>2000-01-01T02:07:22.000Z</time>
      </trkpt>
      <trkpt lat="46.5188" lon="5.91176">
        <ele>1011</ele>
        <time>2000-01-01T02:07:32.000Z</time>
      </trkpt>
      <trkpt lat="46.51867" lon="5.91134">
        <ele>1010</ele>
        <time>2000-01-01T02:07:42.000Z</time>
      </trkpt>
      <trkpt lat="46.51853" lon="5.91092">
        <ele>1009</ele>
        <time>2000-01-01T02:07:52.000Z</time>
      </trkpt>
      <trkpt lat="46.51836" lon="5.91039">
        <ele>1005</ele>
        <time>2000-01-01T02:08:02.000Z</time>
      </trkpt>
      <trkpt lat="46.51822" lon="5.90993">
        <ele>1002</ele>
        <time>2000-01-01T02:08:12.000Z</time>
      </trkpt>
      <trkpt lat="46.51807" lon="5.90947">
        <ele>994</ele>
        <time>2000-01-01T02:08:22.000Z</time>
      </trkpt>
      <trkpt lat="46.51796" lon="5.90911">
        <ele>994</ele>
        <time>2000-01-01T02:08:32.000Z</time>
      </trkpt>
      <trkpt lat="46.51785" lon="5.9088">
        <ele>981</ele>
        <time>2000-01-01T02:08:42.000Z</time>
      </trkpt>
      <trkpt lat="46.51773" lon="5.90848">
        <ele>983</ele>
        <time>2000-01-01T02:08:52.000Z</time>
      </trkpt>
      <trkpt lat="46.51742" lon="5.90856">
        <ele>985</ele>
        <time>2000-01-01T02:09:02.000Z</time>
      </trkpt>
      <trkpt lat="46.51707" lon="5.90868">
        <ele>987</ele>
        <time>2000-01-01T02:09:12.000Z</time>
      </trkpt>
      <trkpt lat="46.5167" lon="5.90884">
        <ele>990</ele>
        <time>2000-01-01T02:09:22.000Z</time>
      </trkpt>
      <trkpt lat="46.51641" lon="5.90919">
        <ele>991</ele>
        <time>2000-01-01T02:09:32.000Z</time>
      </trkpt>
      <trkpt lat="46.51625" lon="5.9089">
        <ele>992</ele>
        <time>2000-01-01T02:09:42.000Z</time>
      </trkpt>
      <trkpt lat="46.51606" lon="5.90854">
        <ele>991</ele>
        <time>2000-01-01T02:09:52.000Z</time>
      </trkpt>
      <trkpt lat="46.51578" lon="5.90844">
        <ele>991</ele>
        <time>2000-01-01T02:10:02.000Z</time>
      </trkpt>
      <trkpt lat="46.51538" lon="5.90828">
        <ele>990</ele>
        <time>2000-01-01T02:10:12.000Z</time>
      </trkpt>
      <trkpt lat="46.51515" lon="5.90798">
        <ele>989</ele>
        <time>2000-01-01T02:10:22.000Z</time>
      </trkpt>
      <trkpt lat="46.51495" lon="5.90772">
        <ele>989</ele>
        <time>2000-01-01T02:10:32.000Z</time>
      </trkpt>
      <trkpt lat="46.5147" lon="5.90738">
        <ele>987</ele>
        <time>2000-01-01T02:10:42.000Z</time>
      </trkpt>
      <trkpt lat="46.51441" lon="5.90712">
        <ele>986</ele>
        <time>2000-01-01T02:10:52.000Z</time>
      </trkpt>
      <trkpt lat="46.51412" lon="5.90685">
        <ele>986</ele>
        <time>2000-01-01T02:11:02.000Z</time>
      </trkpt>
      <trkpt lat="46.51389" lon="5.90664">
        <ele>988</ele>
        <time>2000-01-01T02:11:12.000Z</time>
      </trkpt>
      <trkpt lat="46.51357" lon="5.90635">
        <ele>990</ele>
        <time>2000-01-01T02:11:22.000Z</time>
      </trkpt>
      <trkpt lat="46.51335" lon="5.90599">
        <ele>990</ele>
        <time>2000-01-01T02:11:32.000Z</time>
      </trkpt>
      <trkpt lat="46.51313" lon="5.90563">
        <ele>990</ele>
        <time>2000-01-01T02:11:42.000Z</time>
      </trkpt>
      <trkpt lat="46.51296" lon="5.90537">
        <ele>992</ele>
        <time>2000-01-01T02:11:52.000Z</time>
      </trkpt>
      <trkpt lat="46.51278" lon="5.90506">
        <ele>989</ele>
        <time>2000-01-01T02:12:02.000Z</time>
      </trkpt>
      <trkpt lat="46.5126" lon="5.90468">
        <ele>987</ele>
        <time>2000-01-01T02:12:12.000Z</time>
      </trkpt>
      <trkpt lat="46.51243" lon="5.90429">
        <ele>987</ele>
        <time>2000-01-01T02:12:22.000Z</time>
      </trkpt>
      <trkpt lat="46.51222" lon="5.90382">
        <ele>986</ele>
        <time>2000-01-01T02:12:32.000Z</time>
      </trkpt>
      <trkpt lat="46.51188" lon="5.90415">
        <ele>973</ele>
        <time>2000-01-01T02:12:42.000Z</time>
      </trkpt>
      <trkpt lat="46.51167" lon="5.90443">
        <ele>970</ele>
        <time>2000-01-01T02:12:52.000Z</time>
      </trkpt>
      <trkpt lat="46.51129" lon="5.90466">
        <ele>969</ele>
        <time>2000-01-01T02:13:02.000Z</time>
      </trkpt>
      <trkpt lat="46.51095" lon="5.90468">
        <ele>969</ele>
        <time>2000-01-01T02:13:12.000Z</time>
      </trkpt>
      <trkpt lat="46.51079" lon="5.90431">
        <ele>970</ele>
        <time>2000-01-01T02:13:22.000Z</time>
      </trkpt>
      <trkpt lat="46.51066" lon="5.904">
        <ele>972</ele>
        <time>2000-01-01T02:13:32.000Z</time>
      </trkpt>
      <trkpt lat="46.5105" lon="5.90365">
        <ele>973</ele>
        <time>2000-01-01T02:13:42.000Z</time>
      </trkpt>
      <trkpt lat="46.5102" lon="5.90355">
        <ele>972</ele>
        <time>2000-01-01T02:13:52.000Z</time>
      </trkpt>
      <trkpt lat="46.50989" lon="5.90345">
        <ele>971</ele>
        <time>2000-01-01T02:14:02.000Z</time>
      </trkpt>
      <trkpt lat="46.50956" lon="5.90335">
        <ele>968</ele>
        <time>2000-01-01T02:14:12.000Z</time>
      </trkpt>
      <trkpt lat="46.50929" lon="5.9033">
        <ele>969</ele>
        <time>2000-01-01T02:14:22.000Z</time>
      </trkpt>
      <trkpt lat="46.50891" lon="5.90322">
        <ele>966</ele>
        <time>2000-01-01T02:14:32.000Z</time>
      </trkpt>
      <trkpt lat="46.50865" lon="5.90286">
        <ele>963</ele>
        <time>2000-01-01T02:14:42.000Z</time>
      </trkpt>
      <trkpt lat="46.50839" lon="5.90251">
        <ele>956</ele>
        <time>2000-01-01T02:14:52.000Z</time>
      </trkpt>
      <trkpt lat="46.50813" lon="5.90215">
        <ele>958</ele>
        <time>2000-01-01T02:15:02.000Z</time>
      </trkpt>
      <trkpt lat="46.50796" lon="5.90192">
        <ele>950</ele>
        <time>2000-01-01T02:15:12.000Z</time>
      </trkpt>
      <trkpt lat="46.50779" lon="5.90167">
        <ele>951</ele>
        <time>2000-01-01T02:15:22.000Z</time>
      </trkpt>
      <trkpt lat="46.50754" lon="5.90162">
        <ele>953</ele>
        <time>2000-01-01T02:15:32.000Z</time>
      </trkpt>
      <trkpt lat="46.50725" lon="5.90155">
        <ele>968</ele>
        <time>2000-01-01T02:15:42.000Z</time>
      </trkpt>
      <trkpt lat="46.507" lon="5.90142">
        <ele>968</ele>
        <time>2000-01-01T02:15:52.000Z</time>
      </trkpt>
      <trkpt lat="46.50663" lon="5.90125">
        <ele>969</ele>
        <time>2000-01-01T02:16:02.000Z</time>
      </trkpt>
      <trkpt lat="46.50641" lon="5.90112">
        <ele>990</ele>
        <time>2000-01-01T02:16:12.000Z</time>
      </trkpt>
      <trkpt lat="46.50619" lon="5.90099">
        <ele>990</ele>
        <time>2000-01-01T02:16:22.000Z</time>
      </trkpt>
      <trkpt lat="46.50589" lon="5.90065">
        <ele>978</ele>
        <time>2000-01-01T02:16:32.000Z</time>
      </trkpt>
      <trkpt lat="46.50557" lon="5.90047">
        <ele>975</ele>
        <time>2000-01-01T02:16:42.000Z</time>
      </trkpt>
      <trkpt lat="46.50536" lon="5.9005">
        <ele>984</ele>
        <time>2000-01-01T02:16:52.000Z</time>
      </trkpt>
      <trkpt lat="46.50522" lon="5.90063">
        <ele>984.6</ele>
        <time>2000-01-01T02:17:02.000Z</time>
      </trkpt>
      <trkpt lat="46.50508" lon="5.90069">
        <ele>985</ele>
        <time>2000-01-01T02:17:12.000Z</time>
      </trkpt>
      <trkpt lat="46.50492" lon="5.90062">
        <ele>996.7</ele>
        <time>2000-01-01T02:17:22.000Z</time>
      </trkpt>
      <trkpt lat="46.50482" lon="5.9005">
        <ele>986</ele>
        <time>2000-01-01T02:17:32.000Z</time>
      </trkpt>
      <trkpt lat="46.50473" lon="5.90063">
        <ele>1004.1</ele>
        <time>2000-01-01T02:17:42.000Z</time>
      </trkpt>
      <trkpt lat="46.50462" lon="5.90071">
        <ele>1015</ele>
        <time>2000-01-01T02:17:52.000Z</time>
      </trkpt>
      <trkpt lat="46.50456" lon="5.90078">
        <ele>1015.8</ele>
        <time>2000-01-01T02:18:02.000Z</time>
      </trkpt>
      <trkpt lat="46.50446" lon="5.90121">
        <ele>1017</ele>
        <time>2000-01-01T02:18:12.000Z</time>
      </trkpt>
      <trkpt lat="46.50436" lon="5.90167">
        <ele>1017</ele>
        <time>2000-01-01T02:18:22.000Z</time>
      </trkpt>
      <trkpt lat="46.50437" lon="5.90204">
        <ele>1018</ele>
        <time>2000-01-01T02:18:32.000Z</time>
      </trkpt>
      <trkpt lat="46.50474" lon="5.90226">
        <ele>1018</ele>
        <time>2000-01-01T02:18:42.000Z</time>
      </trkpt>
      <trkpt lat="46.50496" lon="5.9025">
        <ele>1018</ele>
        <time>2000-01-01T02:18:52.000Z</time>
      </trkpt>
      <trkpt lat="46.5052" lon="5.90267">
        <ele>1018</ele>
        <time>2000-01-01T02:19:02.000Z</time>
      </trkpt>
      <trkpt lat="46.50539" lon="5.90288">
        <ele>1016</ele>
        <time>2000-01-01T02:19:12.000Z</time>
      </trkpt>
      <trkpt lat="46.50557" lon="5.90309">
        <ele>1016</ele>
        <time>2000-01-01T02:19:22.000Z</time>
      </trkpt>
      <trkpt lat="46.50578" lon="5.90336">
        <ele>1016</ele>
        <time>2000-01-01T02:19:32.000Z</time>
      </trkpt>
      <trkpt lat="46.5061" lon="5.90378">
        <ele>1011</ele>
        <time>2000-01-01T02:19:42.000Z</time>
      </trkpt>
      <trkpt lat="46.50593" lon="5.90401">
        <ele>1000</ele>
        <time>2000-01-01T02:19:52.000Z</time>
      </trkpt>
      <trkpt lat="46.50586" lon="5.90423">
        <ele>989.4</ele>
        <time>2000-01-01T02:20:02.000Z</time>
      </trkpt>
      <trkpt lat="46.506" lon="5.90452">
        <ele>990</ele>
        <time>2000-01-01T02:20:12.000Z</time>
      </trkpt>
      <trkpt lat="46.50611" lon="5.90472">
        <ele>985</ele>
        <time>2000-01-01T02:20:22.000Z</time>
      </trkpt>
      <trkpt lat="46.50599" lon="5.90489">
        <ele>988</ele>
        <time>2000-01-01T02:20:32.000Z</time>
      </trkpt>
      <trkpt lat="46.50575" lon="5.90481">
        <ele>988</ele>
        <time>2000-01-01T02:20:42.000Z</time>
      </trkpt>
      <trkpt lat="46.50547" lon="5.90471">
        <ele>987</ele>
        <time>2000-01-01T02:20:52.000Z</time>
      </trkpt>
      <trkpt lat="46.50501" lon="5.90461">
        <ele>980</ele>
        <time>2000-01-01T02:21:02.000Z</time>
      </trkpt>
      <trkpt lat="46.50474" lon="5.90464">
        <ele>971</ele>
        <time>2000-01-01T02:21:12.000Z</time>
      </trkpt>
      <trkpt lat="46.5043" lon="5.90471">
        <ele>967</ele>
        <time>2000-01-01T02:21:22.000Z</time>
      </trkpt>
      <trkpt lat="46.50459" lon="5.90506">
        <ele>966</ele>
        <time>2000-01-01T02:21:32.000Z</time>
      </trkpt>
      <trkpt lat="46.50478" lon="5.90526">
        <ele>966</ele>
        <time>2000-01-01T02:21:42.000Z</time>
      </trkpt>
      <trkpt lat="46.50498" lon="5.90547">
        <ele>967</ele>
        <time>2000-01-01T02:21:52.000Z</time>
      </trkpt>
      <trkpt lat="46.50513" lon="5.90573">
        <ele>969</ele>
        <time>2000-01-01T02:22:02.000Z</time>
      </trkpt>
      <trkpt lat="46.50527" lon="5.906">
        <ele>969</ele>
        <time>2000-01-01T02:22:12.000Z</time>
      </trkpt>
      <trkpt lat="46.5054" lon="5.9065">
        <ele>969</ele>
        <time>2000-01-01T02:22:22.000Z</time>
      </trkpt>
      <trkpt lat="46.50551" lon="5.90691">
        <ele>967</ele>
        <time>2000-01-01T02:22:32.000Z</time>
      </trkpt>
      <trkpt lat="46.50566" lon="5.90722">
        <ele>967</ele>
        <time>2000-01-01T02:22:42.000Z</time>
      </trkpt>
      <trkpt lat="46.50587" lon="5.90764">
        <ele>967</ele>
        <time>2000-01-01T02:22:52.000Z</time>
      </trkpt>
      <trkpt lat="46.50589" lon="5.90815">
        <ele>961</ele>
        <time>2000-01-01T02:23:02.000Z</time>
      </trkpt>
      <trkpt lat="46.50591" lon="5.90866">
        <ele>962</ele>
        <time>2000-01-01T02:23:12.000Z</time>
      </trkpt>
      <trkpt lat="46.50593" lon="5.90918">
        <ele>964</ele>
        <time>2000-01-01T02:23:22.000Z</time>
      </trkpt>
      <trkpt lat="46.50583" lon="5.90976">
        <ele>963</ele>
        <time>2000-01-01T02:23:32.000Z</time>
      </trkpt>
      <trkpt lat="46.50578" lon="5.91015">
        <ele>963</ele>
        <time>2000-01-01T02:23:42.000Z</time>
      </trkpt>
      <trkpt lat="46.50572" lon="5.91051">
        <ele>961</ele>
        <time>2000-01-01T02:23:52.000Z</time>
      </trkpt>
      <trkpt lat="46.5056" lon="5.9109">
        <ele>960</ele>
        <time>2000-01-01T02:24:02.000Z</time>
      </trkpt>
      <trkpt lat="46.50569" lon="5.91129">
        <ele>957</ele>
        <time>2000-01-01T02:24:12.000Z</time>
      </trkpt>
      <trkpt lat="46.50595" lon="5.91175">
        <ele>957</ele>
        <time>2000-01-01T02:24:22.000Z</time>
      </trkpt>
      <trkpt lat="46.50574" lon="5.91193">
        <ele>956</ele>
        <time>2000-01-01T02:24:32.000Z</time>
      </trkpt>
      <trkpt lat="46.50549" lon="5.91214">
        <ele>955</ele>
        <time>2000-01-01T02:24:42.000Z</time>
      </trkpt>
      <trkpt lat="46.50515" lon="5.91239">
        <ele>954</ele>
        <time>2000-01-01T02:24:52.000Z</time>
      </trkpt>
      <trkpt lat="46.50481" lon="5.91265">
        <ele>953</ele>
        <time>2000-01-01T02:25:02.000Z</time>
      </trkpt>
      <trkpt lat="46.50447" lon="5.9129">
        <ele>952</ele>
        <time>2000-01-01T02:25:12.000Z</time>
      </trkpt>
      <trkpt lat="46.50422" lon="5.91308">
        <ele>947</ele>
        <time>2000-01-01T02:25:22.000Z</time>
      </trkpt>
      <trkpt lat="46.50386" lon="5.91335">
        <ele>941</ele>
        <time>2000-01-01T02:25:32.000Z</time>
      </trkpt>
      <trkpt lat="46.50356" lon="5.91321">
        <ele>940</ele>
        <time>2000-01-01T02:25:42.000Z</time>
      </trkpt>
      <trkpt lat="46.50327" lon="5.91306">
        <ele>939</ele>
        <time>2000-01-01T02:25:52.000Z</time>
      </trkpt>
      <trkpt lat="46.5029" lon="5.91306">
        <ele>937</ele>
        <time>2000-01-01T02:26:02.000Z</time>
      </trkpt>
      <trkpt lat="46.50268" lon="5.91291">
        <ele>938</ele>
        <time>2000-01-01T02:26:12.000Z</time>
      </trkpt>
      <trkpt lat="46.50231" lon="5.91268">
        <ele>940</ele>
        <time>2000-01-01T02:26:22.000Z</time>
      </trkpt>
      <trkpt lat="46.50212" lon="5.91244">
        <ele>940</ele>
        <time>2000-01-01T02:26:32.000Z</time>
      </trkpt>
      <trkpt lat="46.50197" lon="5.91219">
        <ele>942</ele>
        <time>2000-01-01T02:26:42.000Z</time>
      </trkpt>
      <trkpt lat="46.50188" lon="5.9119">
        <ele>944</ele>
        <time>2000-01-01T02:26:52.000Z</time>
      </trkpt>
      <trkpt lat="46.50168" lon="5.91169">
        <ele>944</ele>
        <time>2000-01-01T02:27:02.000Z</time>
      </trkpt>
      <trkpt lat="46.50147" lon="5.91147">
        <ele>930</ele>
        <time>2000-01-01T02:27:12.000Z</time>
      </trkpt>
      <trkpt lat="46.50125" lon="5.91092">
        <ele>925</ele>
        <time>2000-01-01T02:27:22.000Z</time>
      </trkpt>
      <trkpt lat="46.50096" lon="5.91073">
        <ele>920</ele>
        <time>2000-01-01T02:27:32.000Z</time>
      </trkpt>
      <trkpt lat="46.50074" lon="5.91106">
        <ele>920</ele>
        <time>2000-01-01T02:27:42.000Z</time>
      </trkpt>
      <trkpt lat="46.50051" lon="5.91138">
        <ele>920</ele>
        <time>2000-01-01T02:27:52.000Z</time>
      </trkpt>
      <trkpt lat="46.50025" lon="5.91176">
        <ele>931</ele>
        <time>2000-01-01T02:28:02.000Z</time>
      </trkpt>
      <trkpt lat="46.49994" lon="5.91202">
        <ele>932</ele>
        <time>2000-01-01T02:28:12.000Z</time>
      </trkpt>
      <trkpt lat="46.49963" lon="5.91229">
        <ele>932</ele>
        <time>2000-01-01T02:28:22.000Z</time>
      </trkpt>
      <trkpt lat="46.49933" lon="5.91255">
        <ele>935</ele>
        <time>2000-01-01T02:28:32.000Z</time>
      </trkpt>
      <trkpt lat="46.49912" lon="5.91273">
        <ele>935</ele>
        <time>2000-01-01T02:28:42.000Z</time>
      </trkpt>
      <trkpt lat="46.49889" lon="5.91292">
        <ele>935</ele>
        <time>2000-01-01T02:28:52.000Z</time>
      </trkpt>
      <trkpt lat="46.49864" lon="5.91272">
        <ele>942</ele>
        <time>2000-01-01T02:29:02.000Z</time>
      </trkpt>
      <trkpt lat="46.49824" lon="5.9124">
        <ele>941</ele>
        <time>2000-01-01T02:29:12.000Z</time>
      </trkpt>
      <trkpt lat="46.49819" lon="5.91206">
        <ele>941</ele>
        <time>2000-01-01T02:29:22.000Z</time>
      </trkpt>
      <trkpt lat="46.49813" lon="5.91167">
        <ele>940</ele>
        <time>2000-01-01T02:29:32.000Z</time>
      </trkpt>
      <trkpt lat="46.49782" lon="5.91144">
        <ele>936</ele>
        <time>2000-01-01T02:29:42.000Z</time>
      </trkpt>
      <trkpt lat="46.49752" lon="5.91121">
        <ele>936</ele>
        <time>2000-01-01T02:29:52.000Z</time>
      </trkpt>
      <trkpt lat="46.49728" lon="5.91103">
        <ele>936</ele>
        <time>2000-01-01T02:30:02.000Z</time>
      </trkpt>
      <trkpt lat="46.49694" lon="5.91077">
        <ele>933</ele>
        <time>2000-01-01T02:30:12.000Z</time>
      </trkpt>
      <trkpt lat="46.4967" lon="5.91089">
        <ele>932</ele>
        <time>2000-01-01T02:30:22.000Z</time>
      </trkpt>
      <trkpt lat="46.49638" lon="5.91103">
        <ele>932</ele>
        <time>2000-01-01T02:30:32.000Z</time>
      </trkpt>
      <trkpt lat="46.49627" lon="5.91068">
        <ele>926</ele>
        <time>2000-01-01T02:30:42.000Z</time>
      </trkpt>
      <trkpt lat="46.49612" lon="5.91021">
        <ele>926</ele>
        <time>2000-01-01T02:30:52.000Z</time>
      </trkpt>
      <trkpt lat="46.49585" lon="5.9101">
        <ele>926</ele>
        <time>2000-01-01T02:31:02.000Z</time>
      </trkpt>
      <trkpt lat="46.49544" lon="5.90991">
        <ele>926</ele>
        <time>2000-01-01T02:31:12.000Z</time>
      </trkpt>
      <trkpt lat="46.49533" lon="5.90943">
        <ele>926</ele>
        <time>2000-01-01T02:31:22.000Z</time>
      </trkpt>
      <trkpt lat="46.49521" lon="5.90894">
        <ele>930</ele>
        <time>2000-01-01T02:31:32.000Z</time>
      </trkpt>
      <trkpt lat="46.4951" lon="5.90845">
        <ele>930</ele>
        <time>2000-01-01T02:31:42.000Z</time>
      </trkpt>
      <trkpt lat="46.49496" lon="5.90785">
        <ele>930</ele>
        <time>2000-01-01T02:31:52.000Z</time>
      </trkpt>
      <trkpt lat="46.49516" lon="5.90762">
        <ele>929</ele>
        <time>2000-01-01T02:32:02.000Z</time>
      </trkpt>
      <trkpt lat="46.49538" lon="5.90734">
        <ele>929</ele>
        <time>2000-01-01T02:32:12.000Z</time>
      </trkpt>
      <trkpt lat="46.49526" lon="5.90696">
        <ele>929</ele>
        <time>2000-01-01T02:32:22.000Z</time>
      </trkpt>
      <trkpt lat="46.49508" lon="5.90635">
        <ele>932</ele>
        <time>2000-01-01T02:32:32.000Z</time>
      </trkpt>
      <trkpt lat="46.49464" lon="5.90648">
        <ele>931</ele>
        <time>2000-01-01T02:32:42.000Z</time>
      </trkpt>
      <trkpt lat="46.4944" lon="5.90695">
        <ele>930</ele>
        <time>2000-01-01T02:32:52.000Z</time>
      </trkpt>
      <trkpt lat="46.49416" lon="5.90743">
        <ele>922</ele>
        <time>2000-01-01T02:33:02.000Z</time>
      </trkpt>
      <trkpt lat="46.49392" lon="5.9079">
        <ele>922</ele>
        <time>2000-01-01T02:33:12.000Z</time>
      </trkpt>
      <trkpt lat="46.49368" lon="5.90838">
        <ele>922</ele>
        <time>2000-01-01T02:33:22.000Z</time>
      </trkpt>
      <trkpt lat="46.49345" lon="5.90885">
        <ele>917</ele>
        <time>2000-01-01T02:33:32.000Z</time>
      </trkpt>
      <trkpt lat="46.49321" lon="5.90932">
        <ele>915</ele>
        <time>2000-01-01T02:33:42.000Z</time>
      </trkpt>
      <trkpt lat="46.49304" lon="5.90965">
        <ele>907</ele>
        <time>2000-01-01T02:33:52.000Z</time>
      </trkpt>
      <trkpt lat="46.49278" lon="5.91017">
        <ele>905</ele>
        <time>2000-01-01T02:34:02.000Z</time>
      </trkpt>
      <trkpt lat="46.4925" lon="5.90997">
        <ele>899</ele>
        <time>2000-01-01T02:34:12.000Z</time>
      </trkpt>
      <trkpt lat="46.49222" lon="5.90978">
        <ele>889</ele>
        <time>2000-01-01T02:34:22.000Z</time>
      </trkpt>
      <trkpt lat="46.49192" lon="5.90957">
        <ele>886</ele>
        <time>2000-01-01T02:34:32.000Z</time>
      </trkpt>
      <trkpt lat="46.49164" lon="5.90973">
        <ele>881</ele>
        <time>2000-01-01T02:34:42.000Z</time>
      </trkpt>
      <trkpt lat="46.4914" lon="5.90987">
        <ele>881</ele>
        <time>2000-01-01T02:34:52.000Z</time>
      </trkpt>
      <trkpt lat="46.49109" lon="5.91004">
        <ele>881</ele>
        <time>2000-01-01T02:35:02.000Z</time>
      </trkpt>
      <trkpt lat="46.49077" lon="5.91012">
        <ele>873</ele>
        <time>2000-01-01T02:35:12.000Z</time>
      </trkpt>
      <trkpt lat="46.49045" lon="5.9102">
        <ele>875</ele>
        <time>2000-01-01T02:35:22.000Z</time>
      </trkpt>
      <trkpt lat="46.49003" lon="5.9103">
        <ele>874</ele>
        <time>2000-01-01T02:35:32.000Z</time>
      </trkpt>
      <trkpt lat="46.48973" lon="5.91005">
        <ele>873</ele>
        <time>2000-01-01T02:35:42.000Z</time>
      </trkpt>
      <trkpt lat="46.48942" lon="5.9098">
        <ele>864</ele>
        <time>2000-01-01T02:35:52.000Z</time>
      </trkpt>
      <trkpt lat="46.48912" lon="5.90954">
        <ele>854</ele>
        <time>2000-01-01T02:36:02.000Z</time>
      </trkpt>
      <trkpt lat="46.48879" lon="5.90927">
        <ele>848</ele>
        <time>2000-01-01T02:36:12.000Z</time>
      </trkpt>
      <trkpt lat="46.48846" lon="5.90923">
        <ele>845</ele>
        <time>2000-01-01T02:36:22.000Z</time>
      </trkpt>
      <trkpt lat="46.48814" lon="5.90919">
        <ele>840</ele>
        <time>2000-01-01T02:36:32.000Z</time>
      </trkpt>
      <trkpt lat="46.4877" lon="5.90914">
        <ele>840</ele>
        <time>2000-01-01T02:36:42.000Z</time>
      </trkpt>
      <trkpt lat="46.48734" lon="5.90894">
        <ele>841</ele>
        <time>2000-01-01T02:36:52.000Z</time>
      </trkpt>
      <trkpt lat="46.48698" lon="5.90874">
        <ele>841</ele>
        <time>2000-01-01T02:37:02.000Z</time>
      </trkpt>
      <trkpt lat="46.48663" lon="5.90853">
        <ele>841</ele>
        <time>2000-01-01T02:37:12.000Z</time>
      </trkpt>
      <trkpt lat="46.48627" lon="5.90833">
        <ele>846</ele>
        <time>2000-01-01T02:37:22.000Z</time>
      </trkpt>
      <trkpt lat="46.48602" lon="5.90819">
        <ele>851</ele>
        <time>2000-01-01T02:37:32.000Z</time>
      </trkpt>
      <trkpt lat="46.48566" lon="5.90798">
        <ele>856</ele>
        <time>2000-01-01T02:37:42.000Z</time>
      </trkpt>
      <trkpt lat="46.48535" lon="5.90759">
        <ele>861</ele>
        <time>2000-01-01T02:37:52.000Z</time>
      </trkpt>
      <trkpt lat="46.48504" lon="5.9072">
        <ele>867</ele>
        <time>2000-01-01T02:38:02.000Z</time>
      </trkpt>
      <trkpt lat="46.48473" lon="5.9068">
        <ele>865</ele>
        <time>2000-01-01T02:38:12.000Z</time>
      </trkpt>
      <trkpt lat="46.48442" lon="5.90641">
        <ele>864</ele>
        <time>2000-01-01T02:38:22.000Z</time>
      </trkpt>
      <trkpt lat="46.48412" lon="5.90602">
        <ele>862</ele>
        <time>2000-01-01T02:38:32.000Z</time>
      </trkpt>
      <trkpt lat="46.48381" lon="5.90563">
        <ele>860</ele>
        <time>2000-01-01T02:38:42.000Z</time>
      </trkpt>
      <trkpt lat="46.4835" lon="5.90523">
        <ele>858</ele>
        <time>2000-01-01T02:38:52.000Z</time>
      </trkpt>
      <trkpt lat="46.48329" lon="5.90497">
        <ele>856</ele>
        <time>2000-01-01T02:39:02.000Z</time>
      </trkpt>
      <trkpt lat="46.483" lon="5.90459">
        <ele>858</ele>
        <time>2000-01-01T02:39:12.000Z</time>
      </trkpt>
      <trkpt lat="46.48273" lon="5.90417">
        <ele>858</ele>
        <time>2000-01-01T02:39:22.000Z</time>
      </trkpt>
      <trkpt lat="46.48246" lon="5.90376">
        <ele>858</ele>
        <time>2000-01-01T02:39:32.000Z</time>
      </trkpt>
      <trkpt lat="46.48219" lon="5.90334">
        <ele>851</ele>
        <time>2000-01-01T02:39:42.000Z</time>
      </trkpt>
      <trkpt lat="46.48192" lon="5.90292">
        <ele>852</ele>
        <time>2000-01-01T02:39:52.000Z</time>
      </trkpt>
      <trkpt lat="46.48165" lon="5.9025">
        <ele>848</ele>
        <time>2000-01-01T02:40:02.000Z</time>
      </trkpt>
      <trkpt lat="46.48145" lon="5.90221">
        <ele>847</ele>
        <time>2000-01-01T02:40:12.000Z</time>
      </trkpt>
      <trkpt lat="46.48117" lon="5.90176">
        <ele>846</ele>
        <time>2000-01-01T02:40:22.000Z</time>
      </trkpt>
      <trkpt lat="46.48087" lon="5.90141">
        <ele>846</ele>
        <time>2000-01-01T02:40:32.000Z</time>
      </trkpt>
      <trkpt lat="46.48057" lon="5.90107">
        <ele>845</ele>
        <time>2000-01-01T02:40:42.000Z</time>
      </trkpt>
      <trkpt lat="46.48027" lon="5.90072">
        <ele>831</ele>
        <time>2000-01-01T02:40:52.000Z</time>
      </trkpt>
      <trkpt lat="46.47996" lon="5.90037">
        <ele>830</ele>
        <time>2000-01-01T02:41:02.000Z</time>
      </trkpt>
      <trkpt lat="46.47975" lon="5.90012">
        <ele>830</ele>
        <time>2000-01-01T02:41:12.000Z</time>
      </trkpt>
      <trkpt lat="46.47942" lon="5.89974">
        <ele>837</ele>
        <time>2000-01-01T02:41:22.000Z</time>
      </trkpt>
      <trkpt lat="46.47916" lon="5.89937">
        <ele>833</ele>
        <time>2000-01-01T02:41:32.000Z</time>
      </trkpt>
      <trkpt lat="46.47891" lon="5.89899">
        <ele>829</ele>
        <time>2000-01-01T02:41:42.000Z</time>
      </trkpt>
      <trkpt lat="46.47865" lon="5.89862">
        <ele>821</ele>
        <time>2000-01-01T02:41:52.000Z</time>
      </trkpt>
      <trkpt lat="46.47846" lon="5.89835">
        <ele>820</ele>
        <time>2000-01-01T02:42:02.000Z</time>
      </trkpt>
      <trkpt lat="46.47814" lon="5.89799">
        <ele>819</ele>
        <time>2000-01-01T02:42:12.000Z</time>
      </trkpt>
      <trkpt lat="46.47792" lon="5.89783">
        <ele>803</ele>
        <time>2000-01-01T02:42:22.000Z</time>
      </trkpt>
      <trkpt lat="46.47769" lon="5.89761">
        <ele>804</ele>
        <time>2000-01-01T02:42:32.000Z</time>
      </trkpt>
      <trkpt lat="46.47749" lon="5.89737">
        <ele>799</ele>
        <time>2000-01-01T02:42:42.000Z</time>
      </trkpt>
      <trkpt lat="46.47715" lon="5.89723">
        <ele>794</ele>
        <time>2000-01-01T02:42:52.000Z</time>
      </trkpt>
      <trkpt lat="46.47675" lon="5.89705">
        <ele>775</ele>
        <time>2000-01-01T02:43:02.000Z</time>
      </trkpt>
      <trkpt lat="46.47644" lon="5.89684">
        <ele>769</ele>
        <time>2000-01-01T02:43:12.000Z</time>
      </trkpt>
      <trkpt lat="46.47605" lon="5.89657">
        <ele>761</ele>
        <time>2000-01-01T02:43:22.000Z</time>
      </trkpt>
      <trkpt lat="46.47576" lon="5.89668">
        <ele>746</ele>
        <time>2000-01-01T02:43:32.000Z</time>
      </trkpt>
      <trkpt lat="46.47549" lon="5.89616">
        <ele>748</ele>
        <time>2000-01-01T02:43:42.000Z</time>
      </trkpt>
      <trkpt lat="46.47517" lon="5.89592">
        <ele>745</ele>
        <time>2000-01-01T02:43:52.000Z</time>
      </trkpt>
      <trkpt lat="46.47498" lon="5.89624">
        <ele>742</ele>
        <time>2000-01-01T02:44:02.000Z</time>
      </trkpt>
      <trkpt lat="46.47482" lon="5.89649">
        <ele>735</ele>
        <time>2000-01-01T02:44:12.000Z</time>
      </trkpt>
      <trkpt lat="46.47466" lon="5.89674">
        <ele>734</ele>
        <time>2000-01-01T02:44:22.000Z</time>
      </trkpt>
      <trkpt lat="46.47484" lon="5.89717">
        <ele>733</ele>
        <time>2000-01-01T02:44:32.000Z</time>
      </trkpt>
      <trkpt lat="46.47501" lon="5.8976">
        <ele>730</ele>
        <time>2000-01-01T02:44:42.000Z</time>
      </trkpt>
      <trkpt lat="46.47515" lon="5.89794">
        <ele>729</ele>
        <time>2000-01-01T02:44:52.000Z</time>
      </trkpt>
      <trkpt lat="46.47534" lon="5.89841">
        <ele>725</ele>
        <time>2000-01-01T02:45:02.000Z</time>
      </trkpt>
      <trkpt lat="46.47539" lon="5.89882">
        <ele>717</ele>
        <time>2000-01-01T02:45:12.000Z</time>
      </trkpt>
      <trkpt lat="46.47546" lon="5.89944">
        <ele>715</ele>
        <time>2000-01-01T02:45:22.000Z</time>
      </trkpt>
      <trkpt lat="46.47513" lon="5.8996">
        <ele>710</ele>
        <time>2000-01-01T02:45:32.000Z</time>
      </trkpt>
      <trkpt lat="46.47478" lon="5.89957">
        <ele>710</ele>
        <time>2000-01-01T02:45:42.000Z</time>
      </trkpt>
      <trkpt lat="46.47443" lon="5.89943">
        <ele>707</ele>
        <time>2000-01-01T02:45:52.000Z</time>
      </trkpt>
      <trkpt lat="46.47408" lon="5.89936">
        <ele>704</ele>
        <time>2000-01-01T02:46:02.000Z</time>
      </trkpt>
      <trkpt lat="46.47367" lon="5.89913">
        <ele>704</ele>
        <time>2000-01-01T02:46:12.000Z</time>
      </trkpt>
      <trkpt lat="46.4733" lon="5.89923">
        <ele>704</ele>
        <time>2000-01-01T02:46:22.000Z</time>
      </trkpt>
      <trkpt lat="46.47329" lon="5.8996">
        <ele>704</ele>
        <time>2000-01-01T02:46:32.000Z</time>
      </trkpt>
      <trkpt lat="46.47328" lon="5.90004">
        <ele>696</ele>
        <time>2000-01-01T02:46:42.000Z</time>
      </trkpt>
      <trkpt lat="46.4734" lon="5.90048">
        <ele>691</ele>
        <time>2000-01-01T02:46:52.000Z</time>
      </trkpt>
      <trkpt lat="46.47353" lon="5.90091">
        <ele>686</ele>
        <time>2000-01-01T02:47:02.000Z</time>
      </trkpt>
      <trkpt lat="46.47369" lon="5.90146">
        <ele>686</ele>
        <time>2000-01-01T02:47:12.000Z</time>
      </trkpt>
      <trkpt lat="46.47386" lon="5.90172">
        <ele>686</ele>
        <time>2000-01-01T02:47:22.000Z</time>
      </trkpt>
      <trkpt lat="46.47404" lon="5.90202">
        <ele>677</ele>
        <time>2000-01-01T02:47:32.000Z</time>
      </trkpt>
      <trkpt lat="46.47413" lon="5.90249">
        <ele>671</ele>
        <time>2000-01-01T02:47:42.000Z</time>
      </trkpt>
      <trkpt lat="46.47422" lon="5.90296">
        <ele>669</ele>
        <time>2000-01-01T02:47:52.000Z</time>
      </trkpt>
      <trkpt lat="46.47429" lon="5.90331">
        <ele>667</ele>
        <time>2000-01-01T02:48:02.000Z</time>
      </trkpt>
      <trkpt lat="46.47437" lon="5.90373">
        <ele>667</ele>
        <time>2000-01-01T02:48:12.000Z</time>
      </trkpt>
      <trkpt lat="46.47456" lon="5.90412">
        <ele>668</ele>
        <time>2000-01-01T02:48:22.000Z</time>
      </trkpt>
      <trkpt lat="46.47475" lon="5.9045">
        <ele>667</ele>
        <time>2000-01-01T02:48:32.000Z</time>
      </trkpt>
      <trkpt lat="46.47502" lon="5.90502">
        <ele>666</ele>
        <time>2000-01-01T02:48:42.000Z</time>
      </trkpt>
      <trkpt lat="46.47508" lon="5.9055">
        <ele>664</ele>
        <time>2000-01-01T02:48:52.000Z</time>
      </trkpt>
      <trkpt lat="46.47514" lon="5.90597">
        <ele>659</ele>
        <time>2000-01-01T02:49:02.000Z</time>
      </trkpt>
      <trkpt lat="46.47518" lon="5.90632">
        <ele>664</ele>
        <time>2000-01-01T02:49:12.000Z</time>
      </trkpt>
      <trkpt lat="46.47523" lon="5.9067">
        <ele>669</ele>
        <time>2000-01-01T02:49:22.000Z</time>
      </trkpt>
      <trkpt lat="46.47539" lon="5.90714">
        <ele>669</ele>
        <time>2000-01-01T02:49:32.000Z</time>
      </trkpt>
      <trkpt lat="46.47555" lon="5.90759">
        <ele>669</ele>
        <time>2000-01-01T02:49:42.000Z</time>
      </trkpt>
      <trkpt lat="46.47571" lon="5.90804">
        <ele>664</ele>
        <time>2000-01-01T02:49:52.000Z</time>
      </trkpt>
      <trkpt lat="46.47588" lon="5.9085">
        <ele>660</ele>
        <time>2000-01-01T02:50:02.000Z</time>
      </trkpt>
      <trkpt lat="46.47588" lon="5.9085">
        <ele>648.2</ele>
        <time>2000-01-01T02:50:12.000Z</time>
      </trkpt>
      <trkpt lat="46.47592" lon="5.90887">
        <ele>655</ele>
        <time>2000-01-01T02:50:22.000Z</time>
      </trkpt>
      <trkpt lat="46.47603" lon="5.9092">
        <ele>651</ele>
        <time>2000-01-01T02:50:32.000Z</time>
      </trkpt>
      <trkpt lat="46.47617" lon="5.90961">
        <ele>644</ele>
        <time>2000-01-01T02:50:42.000Z</time>
      </trkpt>
      <trkpt lat="46.47611" lon="5.91024">
        <ele>644</ele>
        <time>2000-01-01T02:50:52.000Z</time>
      </trkpt>
      <trkpt lat="46.4762" lon="5.91059">
        <ele>644</ele>
        <time>2000-01-01T02:51:02.000Z</time>
      </trkpt>
      <trkpt lat="46.47632" lon="5.91102">
        <ele>640</ele>
        <time>2000-01-01T02:51:12.000Z</time>
      </trkpt>
      <trkpt lat="46.47646" lon="5.91129">
        <ele>640</ele>
        <time>2000-01-01T02:51:22.000Z</time>
      </trkpt>
      <trkpt lat="46.47661" lon="5.91157">
        <ele>641</ele>
        <time>2000-01-01T02:51:32.000Z</time>
      </trkpt>
      <trkpt lat="46.47687" lon="5.91206">
        <ele>638</ele>
        <time>2000-01-01T02:51:42.000Z</time>
      </trkpt>
      <trkpt lat="46.477" lon="5.91258">
        <ele>636</ele>
        <time>2000-01-01T02:51:52.000Z</time>
      </trkpt>
      <trkpt lat="46.47677" lon="5.91283">
        <ele>634</ele>
        <time>2000-01-01T02:52:02.000Z</time>
      </trkpt>
      <trkpt lat="46.4765" lon="5.91281">
        <ele>629</ele>
        <time>2000-01-01T02:52:12.000Z</time>
      </trkpt>
      <trkpt lat="46.47617" lon="5.9125">
        <ele>624</ele>
        <time>2000-01-01T02:52:22.000Z</time>
      </trkpt>
      <trkpt lat="46.47599" lon="5.91192">
        <ele>615</ele>
        <time>2000-01-01T02:52:32.000Z</time>
      </trkpt>
      <trkpt lat="46.47559" lon="5.91195">
        <ele>611</ele>
        <time>2000-01-01T02:52:42.000Z</time>
      </trkpt>
      <trkpt lat="46.47557" lon="5.9116">
        <ele>608</ele>
        <time>2000-01-01T02:52:52.000Z</time>
      </trkpt>
      <trkpt lat="46.47554" lon="5.91121">
        <ele>607</ele>
        <time>2000-01-01T02:53:02.000Z</time>
      </trkpt>
      <trkpt lat="46.47549" lon="5.91079">
        <ele>590</ele>
        <time>2000-01-01T02:53:12.000Z</time>
      </trkpt>
      <trkpt lat="46.47545" lon="5.91045">
        <ele>590</ele>
        <time>2000-01-01T02:53:22.000Z</time>
      </trkpt>
      <trkpt lat="46.47541" lon="5.9101">
        <ele>591</ele>
        <time>2000-01-01T02:53:32.000Z</time>
      </trkpt>
      <trkpt lat="46.47532" lon="5.90977">
        <ele>593</ele>
        <time>2000-01-01T02:53:42.000Z</time>
      </trkpt>
      <trkpt lat="46.47521" lon="5.90942">
        <ele>589</ele>
        <time>2000-01-01T02:53:52.000Z</time>
      </trkpt>
      <trkpt lat="46.47504" lon="5.90917">
        <ele>586</ele>
        <time>2000-01-01T02:54:02.000Z</time>
      </trkpt>
      <trkpt lat="46.47485" lon="5.90892">
        <ele>589</ele>
        <time>2000-01-01T02:54:12.000Z</time>
      </trkpt>
      <trkpt lat="46.4746" lon="5.90853">
        <ele>580</ele>
        <time>2000-01-01T02:54:22.000Z</time>
      </trkpt>
      <trkpt lat="46.47434" lon="5.90833">
        <ele>583</ele>
        <time>2000-01-01T02:54:32.000Z</time>
      </trkpt>
      <trkpt lat="46.47412" lon="5.90816">
        <ele>582</ele>
        <time>2000-01-01T02:54:42.000Z</time>
      </trkpt>
      <trkpt lat="46.47387" lon="5.90797">
        <ele>581</ele>
        <time>2000-01-01T02:54:52.000Z</time>
      </trkpt>
      <trkpt lat="46.47363" lon="5.9078">
        <ele>564</ele>
        <time>2000-01-01T02:55:02.000Z</time>
      </trkpt>
      <trkpt lat="46.47331" lon="5.90756">
        <ele>552</ele>
        <time>2000-01-01T02:55:12.000Z</time>
      </trkpt>
      <trkpt lat="46.473" lon="5.90707">
        <ele>546</ele>
        <time>2000-01-01T02:55:22.000Z</time>
      </trkpt>
      <trkpt lat="46.47281" lon="5.90686">
        <ele>531</ele>
        <time>2000-01-01T02:55:32.000Z</time>
      </trkpt>
      <trkpt lat="46.47269" lon="5.90654">
        <ele>528</ele>
        <time>2000-01-01T02:55:42.000Z</time>
      </trkpt>
      <trkpt lat="46.47255" lon="5.90615">
        <ele>526</ele>
        <time>2000-01-01T02:55:52.000Z</time>
      </trkpt>
      <trkpt lat="46.47235" lon="5.9058">
        <ele>525</ele>
        <time>2000-01-01T02:56:02.000Z</time>
      </trkpt>
      <trkpt lat="46.47219" lon="5.90561">
        <ele>524</ele>
        <time>2000-01-01T02:56:12.000Z</time>
      </trkpt>
      <trkpt lat="46.472" lon="5.90548">
        <ele>521</ele>
        <time>2000-01-01T02:56:22.000Z</time>
      </trkpt>
      <trkpt lat="46.47178" lon="5.90516">
        <ele>519</ele>
        <time>2000-01-01T02:56:32.000Z</time>
      </trkpt>
      <trkpt lat="46.47155" lon="5.90509">
        <ele>517</ele>
        <time>2000-01-01T02:56:42.000Z</time>
      </trkpt>
      <trkpt lat="46.47131" lon="5.90502">
        <ele>517</ele>
        <time>2000-01-01T02:56:52.000Z</time>
      </trkpt>
      <trkpt lat="46.47107" lon="5.90494">
        <ele>517</ele>
        <time>2000-01-01T02:57:02.000Z</time>
      </trkpt>
      <trkpt lat="46.47081" lon="5.90486">
        <ele>519</ele>
        <time>2000-01-01T02:57:12.000Z</time>
      </trkpt>
      <trkpt lat="46.47059" lon="5.90473">
        <ele>521</ele>
        <time>2000-01-01T02:57:22.000Z</time>
      </trkpt>
      <trkpt lat="46.47036" lon="5.9046">
        <ele>524</ele>
        <time>2000-01-01T02:57:32.000Z</time>
      </trkpt>
      <trkpt lat="46.47025" lon="5.90426">
        <ele>527</ele>
        <time>2000-01-01T02:57:42.000Z</time>
      </trkpt>
      <trkpt lat="46.47014" lon="5.90394">
        <ele>530</ele>
        <time>2000-01-01T02:57:52.000Z</time>
      </trkpt>
      <trkpt lat="46.47001" lon="5.90359">
        <ele>538</ele>
        <time>2000-01-01T02:58:02.000Z</time>
      </trkpt>
      <trkpt lat="46.46985" lon="5.90332">
        <ele>542</ele>
        <time>2000-01-01T02:58:12.000Z</time>
      </trkpt>
      <trkpt lat="46.46968" lon="5.90303">
        <ele>542</ele>
        <time>2000-01-01T02:58:22.000Z</time>
      </trkpt>
      <trkpt lat="46.46953" lon="5.90277">
        <ele>543</ele>
        <time>2000-01-01T02:58:32.000Z</time>
      </trkpt>
      <trkpt lat="46.46937" lon="5.90249">
        <ele>545</ele>
        <time>2000-01-01T02:58:42.000Z</time>
      </trkpt>
      <trkpt lat="46.46919" lon="5.90227">
        <ele>551</ele>
        <time>2000-01-01T02:58:52.000Z</time>
      </trkpt>
      <trkpt lat="46.46901" lon="5.90205">
        <ele>555</ele>
        <time>2000-01-01T02:59:02.000Z</time>
      </trkpt>
      <trkpt lat="46.46887" lon="5.90148">
        <ele>577</ele>
        <time>2000-01-01T02:59:12.000Z</time>
      </trkpt>
      <trkpt lat="46.46861" lon="5.90101">
        <ele>577</ele>
        <time>2000-01-01T02:59:22.000Z</time>
      </trkpt>
      <trkpt lat="46.46838" lon="5.90051">
        <ele>583</ele>
        <time>2000-01-01T02:59:32.000Z</time>
      </trkpt>
      <trkpt lat="46.46821" lon="5.90023">
        <ele>595</ele>
        <time>2000-01-01T02:59:42.000Z</time>
      </trkpt>
      <trkpt lat="46.46801" lon="5.89986">
        <ele>591</ele>
        <time>2000-01-01T02:59:52.000Z</time>
      </trkpt>
      <trkpt lat="46.46787" lon="5.89957">
        <ele>592</ele>
        <time>2000-01-01T03:00:02.000Z</time>
      </trkpt>
      <trkpt lat="46.4677" lon="5.89925">
        <ele>586</ele>
        <time>2000-01-01T03:00:12.000Z</time>
      </trkpt>
      <trkpt lat="46.46757" lon="5.89892">
        <ele>588</ele>
        <time>2000-01-01T03:00:22.000Z</time>
      </trkpt>
      <trkpt lat="46.46738" lon="5.89847">
        <ele>591</ele>
        <time>2000-01-01T03:00:32.000Z</time>
      </trkpt>
      <trkpt lat="46.46722" lon="5.89819">
        <ele>593</ele>
        <time>2000-01-01T03:00:42.000Z</time>
      </trkpt>
      <trkpt lat="46.46702" lon="5.89782">
        <ele>590</ele>
        <time>2000-01-01T03:00:52.000Z</time>
      </trkpt>
      <trkpt lat="46.46684" lon="5.89755">
        <ele>595</ele>
        <time>2000-01-01T03:01:02.000Z</time>
      </trkpt>
      <trkpt lat="46.46664" lon="5.89723">
        <ele>600</ele>
        <time>2000-01-01T03:01:12.000Z</time>
      </trkpt>
      <trkpt lat="46.46649" lon="5.89688">
        <ele>599</ele>
        <time>2000-01-01T03:01:22.000Z</time>
      </trkpt>
      <trkpt lat="46.46628" lon="5.89637">
        <ele>602</ele>
        <time>2000-01-01T03:01:32.000Z</time>
      </trkpt>
      <trkpt lat="46.46612" lon="5.89605">
        <ele>602</ele>
        <time>2000-01-01T03:01:42.000Z</time>
      </trkpt>
      <trkpt lat="46.4659" lon="5.89561">
        <ele>602</ele>
        <time>2000-01-01T03:01:52.000Z</time>
      </trkpt>
      <trkpt lat="46.46563" lon="5.89511">
        <ele>611</ele>
        <time>2000-01-01T03:02:02.000Z</time>
      </trkpt>
      <trkpt lat="46.46524" lon="5.89473">
        <ele>618</ele>
        <time>2000-01-01T03:02:12.000Z</time>
      </trkpt>
      <trkpt lat="46.4651" lon="5.89443">
        <ele>619</ele>
        <time>2000-01-01T03:02:22.000Z</time>
      </trkpt>
      <trkpt lat="46.46492" lon="5.89408">
        <ele>617</ele>
        <time>2000-01-01T03:02:32.000Z</time>
      </trkpt>
      <trkpt lat="46.46478" lon="5.89377">
        <ele>615</ele>
        <time>2000-01-01T03:02:42.000Z</time>
      </trkpt>
      <trkpt lat="46.46462" lon="5.89341">
        <ele>615</ele>
        <time>2000-01-01T03:02:52.000Z</time>
      </trkpt>
      <trkpt lat="46.4645" lon="5.8931">
        <ele>604</ele>
        <time>2000-01-01T03:03:02.000Z</time>
      </trkpt>
      <trkpt lat="46.46438" lon="5.89277">
        <ele>604</ele>
        <time>2000-01-01T03:03:12.000Z</time>
      </trkpt>
      <trkpt lat="46.46412" lon="5.89278">
        <ele>604</ele>
        <time>2000-01-01T03:03:22.000Z</time>
      </trkpt>
      <trkpt lat="46.46385" lon="5.89288">
        <ele>596</ele>
        <time>2000-01-01T03:03:32.000Z</time>
      </trkpt>
      <trkpt lat="46.46341" lon="5.89304">
        <ele>594</ele>
        <time>2000-01-01T03:03:42.000Z</time>
      </trkpt>
      <trkpt lat="46.46308" lon="5.89293">
        <ele>594</ele>
        <time>2000-01-01T03:03:52.000Z</time>
      </trkpt>
      <trkpt lat="46.46276" lon="5.89282">
        <ele>594</ele>
        <time>2000-01-01T03:04:02.000Z</time>
      </trkpt>
      <trkpt lat="46.46253" lon="5.89274">
        <ele>594</ele>
        <time>2000-01-01T03:04:12.000Z</time>
      </trkpt>
      <trkpt lat="46.46228" lon="5.89266">
        <ele>588</ele>
        <time>2000-01-01T03:04:22.000Z</time>
      </trkpt>
      <trkpt lat="46.46199" lon="5.89243">
        <ele>583</ele>
        <time>2000-01-01T03:04:32.000Z</time>
      </trkpt>
      <trkpt lat="46.4617" lon="5.89219">
        <ele>575</ele>
        <time>2000-01-01T03:04:42.000Z</time>
      </trkpt>
      <trkpt lat="46.46149" lon="5.89202">
        <ele>571</ele>
        <time>2000-01-01T03:04:52.000Z</time>
      </trkpt>
      <trkpt lat="46.46127" lon="5.89185">
        <ele>568</ele>
        <time>2000-01-01T03:05:02.000Z</time>
      </trkpt>
      <trkpt lat="46.46094" lon="5.89177">
        <ele>565</ele>
        <time>2000-01-01T03:05:12.000Z</time>
      </trkpt>
      <trkpt lat="46.4606" lon="5.89169">
        <ele>562</ele>
        <time>2000-01-01T03:05:22.000Z</time>
      </trkpt>
      <trkpt lat="46.46034" lon="5.89163">
        <ele>562</ele>
        <time>2000-01-01T03:05:32.000Z</time>
      </trkpt>
      <trkpt lat="46.46" lon="5.89155">
        <ele>555</ele>
        <time>2000-01-01T03:05:42.000Z</time>
      </trkpt>
      <trkpt lat="46.45967" lon="5.89164">
        <ele>548</ele>
        <time>2000-01-01T03:05:52.000Z</time>
      </trkpt>
      <trkpt lat="46.45934" lon="5.89173">
        <ele>535</ele>
        <time>2000-01-01T03:06:02.000Z</time>
      </trkpt>
      <trkpt lat="46.45908" lon="5.8918">
        <ele>531</ele>
        <time>2000-01-01T03:06:12.000Z</time>
      </trkpt>
      <trkpt lat="46.45876" lon="5.89189">
        <ele>530</ele>
        <time>2000-01-01T03:06:22.000Z</time>
      </trkpt>
      <trkpt lat="46.45843" lon="5.89189">
        <ele>531</ele>
        <time>2000-01-01T03:06:32.000Z</time>
      </trkpt>
      <trkpt lat="46.45811" lon="5.89189">
        <ele>532</ele>
        <time>2000-01-01T03:06:42.000Z</time>
      </trkpt>
      <trkpt lat="46.45787" lon="5.89189">
        <ele>533</ele>
        <time>2000-01-01T03:06:52.000Z</time>
      </trkpt>
      <trkpt lat="46.45764" lon="5.89189">
        <ele>517</ele>
        <time>2000-01-01T03:07:02.000Z</time>
      </trkpt>
      <trkpt lat="46.45732" lon="5.89211">
        <ele>512</ele>
        <time>2000-01-01T03:07:12.000Z</time>
      </trkpt>
      <trkpt lat="46.45701" lon="5.89232">
        <ele>508</ele>
        <time>2000-01-01T03:07:22.000Z</time>
      </trkpt>
      <trkpt lat="46.45676" lon="5.89249">
        <ele>502</ele>
        <time>2000-01-01T03:07:32.000Z</time>
      </trkpt>
      <trkpt lat="46.4564" lon="5.89275">
        <ele>499</ele>
        <time>2000-01-01T03:07:42.000Z</time>
      </trkpt>
      <trkpt lat="46.45619" lon="5.89305">
        <ele>496</ele>
        <time>2000-01-01T03:07:52.000Z</time>
      </trkpt>
      <trkpt lat="46.45602" lon="5.8933">
        <ele>492</ele>
        <time>2000-01-01T03:08:02.000Z</time>
      </trkpt>
      <trkpt lat="46.45584" lon="5.89356">
        <ele>488</ele>
        <time>2000-01-01T03:08:12.000Z</time>
      </trkpt>
      <trkpt lat="46.4556" lon="5.8933">
        <ele>488</ele>
        <time>2000-01-01T03:08:22.000Z</time>
      </trkpt>
      <trkpt lat="46.4554" lon="5.89308">
        <ele>488</ele>
        <time>2000-01-01T03:08:32.000Z</time>
      </trkpt>
      <trkpt lat="46.45518" lon="5.89283">
        <ele>488</ele>
        <time>2000-01-01T03:08:42.000Z</time>
      </trkpt>
      <trkpt lat="46.45519" lon="5.8923">
        <ele>485</ele>
        <time>2000-01-01T03:08:52.000Z</time>
      </trkpt>
      <trkpt lat="46.4552" lon="5.89177">
        <ele>483</ele>
        <time>2000-01-01T03:09:02.000Z</time>
      </trkpt>
      <trkpt lat="46.4552" lon="5.89124">
        <ele>483</ele>
        <time>2000-01-01T03:09:12.000Z</time>
      </trkpt>
      <trkpt lat="46.45521" lon="5.89086">
        <ele>484</ele>
        <time>2000-01-01T03:09:22.000Z</time>
      </trkpt>
      <trkpt lat="46.45521" lon="5.89034">
        <ele>479</ele>
        <time>2000-01-01T03:09:32.000Z</time>
      </trkpt>
      <trkpt lat="46.45494" lon="5.89064">
        <ele>475</ele>
        <time>2000-01-01T03:09:42.000Z</time>
      </trkpt>
      <trkpt lat="46.45466" lon="5.89093">
        <ele>472</ele>
        <time>2000-01-01T03:09:52.000Z</time>
      </trkpt>
      <trkpt lat="46.45444" lon="5.89115">
        <ele>476</ele>
        <time>2000-01-01T03:10:02.000Z</time>
      </trkpt>
      <trkpt lat="46.45415" lon="5.89146">
        <ele>477</ele>
        <time>2000-01-01T03:10:12.000Z</time>
      </trkpt>
      <trkpt lat="46.45419" lon="5.89182">
        <ele>479</ele>
        <time>2000-01-01T03:10:22.000Z</time>
      </trkpt>
      <trkpt lat="46.45424" lon="5.89223">
        <ele>487</ele>
        <time>2000-01-01T03:10:32.000Z</time>
      </trkpt>
      <trkpt lat="46.45409" lon="5.89252">
        <ele>507</ele>
        <time>2000-01-01T03:10:42.000Z</time>
      </trkpt>
      <trkpt lat="46.45391" lon="5.89283">
        <ele>507</ele>
        <time>2000-01-01T03:10:52.000Z</time>
      </trkpt>
      <trkpt lat="46.45368" lon="5.893">
        <ele>537</ele>
        <time>2000-01-01T03:11:02.000Z</time>
      </trkpt>
      <trkpt lat="46.45338" lon="5.89322">
        <ele>565</ele>
        <time>2000-01-01T03:11:12.000Z</time>
      </trkpt>
      <trkpt lat="46.45314" lon="5.89369">
        <ele>577</ele>
        <time>2000-01-01T03:11:22.000Z</time>
      </trkpt>
      <trkpt lat="46.45326" lon="5.89429">
        <ele>578</ele>
        <time>2000-01-01T03:11:32.000Z</time>
      </trkpt>
      <trkpt lat="46.45318" lon="5.89471">
        <ele>595</ele>
        <time>2000-01-01T03:11:42.000Z</time>
      </trkpt>
      <trkpt lat="46.45311" lon="5.89507">
        <ele>606</ele>
        <time>2000-01-01T03:11:52.000Z</time>
      </trkpt>
      <trkpt lat="46.45303" lon="5.89549">
        <ele>610</ele>
        <time>2000-01-01T03:12:02.000Z</time>
      </trkpt>
      <trkpt lat="46.45313" lon="5.89589">
        <ele>632</ele>
        <time>2000-01-01T03:12:12.000Z</time>
      </trkpt>
      <trkpt lat="46.45321" lon="5.8962">
        <ele>645</ele>
        <time>2000-01-01T03:12:22.000Z</time>
      </trkpt>
      <trkpt lat="46.45329" lon="5.89653">
        <ele>649</ele>
        <time>2000-01-01T03:12:32.000Z</time>
      </trkpt>
      <trkpt lat="46.45311" lon="5.89684">
        <ele>655</ele>
        <time>2000-01-01T03:12:42.000Z</time>
      </trkpt>
      <trkpt lat="46.45285" lon="5.8973">
        <ele>674</ele>
        <time>2000-01-01T03:12:52.000Z</time>
      </trkpt>
      <trkpt lat="46.45307" lon="5.89754">
        <ele>693</ele>
        <time>2000-01-01T03:13:02.000Z</time>
      </trkpt>
      <trkpt lat="46.45341" lon="5.8979">
        <ele>712</ele>
        <time>2000-01-01T03:13:12.000Z</time>
      </trkpt>
      <trkpt lat="46.45325" lon="5.89822">
        <ele>731</ele>
        <time>2000-01-01T03:13:22.000Z</time>
      </trkpt>
      <trkpt lat="46.45303" lon="5.89867">
        <ele>738</ele>
        <time>2000-01-01T03:13:32.000Z</time>
      </trkpt>
      <trkpt lat="46.45326" lon="5.89877">
        <ele>746</ele>
        <time>2000-01-01T03:13:42.000Z</time>
      </trkpt>
      <trkpt lat="46.45353" lon="5.89889">
        <ele>766</ele>
        <time>2000-01-01T03:13:52.000Z</time>
      </trkpt>
      <trkpt lat="46.45349" lon="5.89928">
        <ele>783</ele>
        <time>2000-01-01T03:14:02.000Z</time>
      </trkpt>
      <trkpt lat="46.45344" lon="5.89983">
        <ele>806</ele>
        <time>2000-01-01T03:14:12.000Z</time>
      </trkpt>
      <trkpt lat="46.4532" lon="5.90019">
        <ele>806</ele>
        <time>2000-01-01T03:14:22.000Z</time>
      </trkpt>
      <trkpt lat="46.45297" lon="5.90056">
        <ele>807</ele>
        <time>2000-01-01T03:14:32.000Z</time>
      </trkpt>
      <trkpt lat="46.45278" lon="5.90084">
        <ele>810</ele>
        <time>2000-01-01T03:14:42.000Z</time>
      </trkpt>
      <trkpt lat="46.45252" lon="5.90125">
        <ele>810</ele>
        <time>2000-01-01T03:14:52.000Z</time>
      </trkpt>
      <trkpt lat="46.45228" lon="5.90152">
        <ele>805</ele>
        <time>2000-01-01T03:15:02.000Z</time>
      </trkpt>
      <trkpt lat="46.45203" lon="5.90179">
        <ele>800</ele>
        <time>2000-01-01T03:15:12.000Z</time>
      </trkpt>
      <trkpt lat="46.45178" lon="5.90206">
        <ele>799</ele>
        <time>2000-01-01T03:15:22.000Z</time>
      </trkpt>
      <trkpt lat="46.45164" lon="5.9024">
        <ele>799</ele>
        <time>2000-01-01T03:15:32.000Z</time>
      </trkpt>
      <trkpt lat="46.45143" lon="5.90288">
        <ele>797</ele>
        <time>2000-01-01T03:15:42.000Z</time>
      </trkpt>
      <trkpt lat="46.45132" lon="5.9033">
        <ele>798</ele>
        <time>2000-01-01T03:15:52.000Z</time>
      </trkpt>
      <trkpt lat="46.45122" lon="5.90372">
        <ele>799</ele>
        <time>2000-01-01T03:16:02.000Z</time>
      </trkpt>
      <trkpt lat="46.4511" lon="5.90416">
        <ele>799</ele>
        <time>2000-01-01T03:16:12.000Z</time>
      </trkpt>
      <trkpt lat="46.45132" lon="5.9045">
        <ele>795</ele>
        <time>2000-01-01T03:16:22.000Z</time>
      </trkpt>
      <trkpt lat="46.45153" lon="5.90484">
        <ele>792</ele>
        <time>2000-01-01T03:16:32.000Z</time>
      </trkpt>
      <trkpt lat="46.45178" lon="5.90524">
        <ele>792</ele>
        <time>2000-01-01T03:16:42.000Z</time>
      </trkpt>
      <trkpt lat="46.45196" lon="5.90563">
        <ele>795</ele>
        <time>2000-01-01T03:16:52.000Z</time>
      </trkpt>
      <trkpt lat="46.45214" lon="5.90602">
        <ele>807</ele>
        <time>2000-01-01T03:17:02.000Z</time>
      </trkpt>
      <trkpt lat="46.45238" lon="5.90652">
        <ele>807</ele>
        <time>2000-01-01T03:17:12.000Z</time>
      </trkpt>
      <trkpt lat="46.45244" lon="5.90692">
        <ele>813</ele>
        <time>2000-01-01T03:17:22.000Z</time>
      </trkpt>
      <trkpt lat="46.45252" lon="5.90751">
        <ele>819</ele>
        <time>2000-01-01T03:17:32.000Z</time>
      </trkpt>
      <trkpt lat="46.45278" lon="5.9078">
        <ele>825</ele>
        <time>2000-01-01T03:17:42.000Z</time>
      </trkpt>
      <trkpt lat="46.45304" lon="5.90809">
        <ele>826</ele>
        <time>2000-01-01T03:17:52.000Z</time>
      </trkpt>
      <trkpt lat="46.45341" lon="5.9085">
        <ele>825</ele>
        <time>2000-01-01T03:18:02.000Z</time>
      </trkpt>
      <trkpt lat="46.45355" lon="5.90884">
        <ele>825</ele>
        <time>2000-01-01T03:18:12.000Z</time>
      </trkpt>
      <trkpt lat="46.45374" lon="5.90931">
        <ele>827</ele>
        <time>2000-01-01T03:18:22.000Z</time>
      </trkpt>
      <trkpt lat="46.45391" lon="5.90955">
        <ele>827</ele>
        <time>2000-01-01T03:18:32.000Z</time>
      </trkpt>
      <trkpt lat="46.45409" lon="5.90979">
        <ele>826</ele>
        <time>2000-01-01T03:18:42.000Z</time>
      </trkpt>
      <trkpt lat="46.45425" lon="5.91024">
        <ele>826</ele>
        <time>2000-01-01T03:18:52.000Z</time>
      </trkpt>
      <trkpt lat="46.45441" lon="5.9107">
        <ele>827</ele>
        <time>2000-01-01T03:19:02.000Z</time>
      </trkpt>
      <trkpt lat="46.45457" lon="5.91116">
        <ele>826</ele>
        <time>2000-01-01T03:19:12.000Z</time>
      </trkpt>
      <trkpt lat="46.45477" lon="5.91172">
        <ele>826</ele>
        <time>2000-01-01T03:19:22.000Z</time>
      </trkpt>
      <trkpt lat="46.4547" lon="5.91226">
        <ele>832</ele>
        <time>2000-01-01T03:19:32.000Z</time>
      </trkpt>
      <trkpt lat="46.45464" lon="5.91279">
        <ele>833</ele>
        <time>2000-01-01T03:19:42.000Z</time>
      </trkpt>
      <trkpt lat="46.45457" lon="5.91333">
        <ele>834</ele>
        <time>2000-01-01T03:19:52.000Z</time>
      </trkpt>
      <trkpt lat="46.4545" lon="5.91387">
        <ele>833</ele>
        <time>2000-01-01T03:20:02.000Z</time>
      </trkpt>
      <trkpt lat="46.45446" lon="5.91422">
        <ele>833</ele>
        <time>2000-01-01T03:20:12.000Z</time>
      </trkpt>
      <trkpt lat="46.45442" lon="5.91459">
        <ele>831</ele>
        <time>2000-01-01T03:20:22.000Z</time>
      </trkpt>
      <trkpt lat="46.45449" lon="5.91502">
        <ele>831</ele>
        <time>2000-01-01T03:20:32.000Z</time>
      </trkpt>
      <trkpt lat="46.45455" lon="5.91537">
        <ele>832</ele>
        <time>2000-01-01T03:20:42.000Z</time>
      </trkpt>
      <trkpt lat="46.45462" lon="5.91579">
        <ele>835</ele>
        <time>2000-01-01T03:20:52.000Z</time>
      </trkpt>
      <trkpt lat="46.45462" lon="5.9163">
        <ele>835</ele>
        <time>2000-01-01T03:21:02.000Z</time>
      </trkpt>
      <trkpt lat="46.45461" lon="5.9168">
        <ele>838</ele>
        <time>2000-01-01T03:21:12.000Z</time>
      </trkpt>
      <trkpt lat="46.4546" lon="5.91721">
        <ele>837</ele>
        <time>2000-01-01T03:21:22.000Z</time>
      </trkpt>
      <trkpt lat="46.45459" lon="5.91781">
        <ele>836</ele>
        <time>2000-01-01T03:21:32.000Z</time>
      </trkpt>
      <trkpt lat="46.45438" lon="5.91808">
        <ele>833</ele>
        <time>2000-01-01T03:21:42.000Z</time>
      </trkpt>
      <trkpt lat="46.45406" lon="5.9185">
        <ele>834</ele>
        <time>2000-01-01T03:21:52.000Z</time>
      </trkpt>
      <trkpt lat="46.45379" lon="5.91816">
        <ele>835</ele>
        <time>2000-01-01T03:22:02.000Z</time>
      </trkpt>
      <trkpt lat="46.45353" lon="5.91782">
        <ele>835</ele>
        <time>2000-01-01T03:22:12.000Z</time>
      </trkpt>
      <trkpt lat="46.45326" lon="5.91749">
        <ele>832</ele>
        <time>2000-01-01T03:22:22.000Z</time>
      </trkpt>
      <trkpt lat="46.45294" lon="5.91708">
        <ele>832</ele>
        <time>2000-01-01T03:22:32.000Z</time>
      </trkpt>
      <trkpt lat="46.45261" lon="5.91703">
        <ele>832</ele>
        <time>2000-01-01T03:22:42.000Z</time>
      </trkpt>
      <trkpt lat="46.45228" lon="5.91698">
        <ele>835</ele>
        <time>2000-01-01T03:22:52.000Z</time>
      </trkpt>
      <trkpt lat="46.45204" lon="5.91695">
        <ele>845</ele>
        <time>2000-01-01T03:23:02.000Z</time>
      </trkpt>
      <trkpt lat="46.45178" lon="5.91691">
        <ele>846</ele>
        <time>2000-01-01T03:23:12.000Z</time>
      </trkpt>
      <trkpt lat="46.45161" lon="5.9165">
        <ele>847</ele>
        <time>2000-01-01T03:23:22.000Z</time>
      </trkpt>
      <trkpt lat="46.45143" lon="5.91608">
        <ele>850</ele>
        <time>2000-01-01T03:23:32.000Z</time>
      </trkpt>
      <trkpt lat="46.45129" lon="5.91577">
        <ele>850</ele>
        <time>2000-01-01T03:23:42.000Z</time>
      </trkpt>
      <trkpt lat="46.45113" lon="5.91541">
        <ele>851</ele>
        <time>2000-01-01T03:23:52.000Z</time>
      </trkpt>
      <trkpt lat="46.45087" lon="5.91499">
        <ele>854</ele>
        <time>2000-01-01T03:24:02.000Z</time>
      </trkpt>
      <trkpt lat="46.4506" lon="5.91458">
        <ele>858</ele>
        <time>2000-01-01T03:24:12.000Z</time>
      </trkpt>
      <trkpt lat="46.45033" lon="5.91416">
        <ele>863</ele>
        <time>2000-01-01T03:24:22.000Z</time>
      </trkpt>
      <trkpt lat="46.45006" lon="5.91375">
        <ele>863</ele>
        <time>2000-01-01T03:24:32.000Z</time>
      </trkpt>
      <trkpt lat="46.4498" lon="5.91333">
        <ele>871</ele>
        <time>2000-01-01T03:24:42.000Z</time>
      </trkpt>
      <trkpt lat="46.44962" lon="5.91306">
        <ele>874</ele>
        <time>2000-01-01T03:24:52.000Z</time>
      </trkpt>
      <trkpt lat="46.44942" lon="5.91275">
        <ele>879</ele>
        <time>2000-01-01T03:25:02.000Z</time>
      </trkpt>
      <trkpt lat="46.44912" lon="5.91243">
        <ele>881</ele>
        <time>2000-01-01T03:25:12.000Z</time>
      </trkpt>
      <trkpt lat="46.44882" lon="5.91211">
        <ele>877</ele>
        <time>2000-01-01T03:25:22.000Z</time>
      </trkpt>
      <trkpt lat="46.44853" lon="5.91179">
        <ele>874</ele>
        <time>2000-01-01T03:25:32.000Z</time>
      </trkpt>
      <trkpt lat="46.4483" lon="5.91154">
        <ele>871</ele>
        <time>2000-01-01T03:25:42.000Z</time>
      </trkpt>
      <trkpt lat="46.44794" lon="5.91116">
        <ele>859</ele>
        <time>2000-01-01T03:25:52.000Z</time>
      </trkpt>
      <trkpt lat="46.44764" lon="5.91111">
        <ele>855</ele>
        <time>2000-01-01T03:26:02.000Z</time>
      </trkpt>
      <trkpt lat="46.4474" lon="5.91107">
        <ele>853</ele>
        <time>2000-01-01T03:26:12.000Z</time>
      </trkpt>
      <trkpt lat="46.44711" lon="5.91103">
        <ele>853</ele>
        <time>2000-01-01T03:26:22.000Z</time>
      </trkpt>
      <trkpt lat="46.44691" lon="5.91131">
        <ele>858</ele>
        <time>2000-01-01T03:26:32.000Z</time>
      </trkpt>
      <trkpt lat="46.44658" lon="5.91176">
        <ele>859</ele>
        <time>2000-01-01T03:26:42.000Z</time>
      </trkpt>
      <trkpt lat="46.44629" lon="5.91154">
        <ele>861</ele>
        <time>2000-01-01T03:26:52.000Z</time>
      </trkpt>
      <trkpt lat="46.44599" lon="5.91132">
        <ele>863</ele>
        <time>2000-01-01T03:27:02.000Z</time>
      </trkpt>
      <trkpt lat="46.44578" lon="5.91116">
        <ele>863</ele>
        <time>2000-01-01T03:27:12.000Z</time>
      </trkpt>
      <trkpt lat="46.44555" lon="5.91099">
        <ele>863</ele>
        <time>2000-01-01T03:27:22.000Z</time>
      </trkpt>
      <trkpt lat="46.4458" lon="5.91143">
        <ele>863</ele>
        <time>2000-01-01T03:27:32.000Z</time>
      </trkpt>
      <trkpt lat="46.44606" lon="5.91187">
        <ele>863</ele>
        <time>2000-01-01T03:27:42.000Z</time>
      </trkpt>
      <trkpt lat="46.44632" lon="5.91231">
        <ele>872</ele>
        <time>2000-01-01T03:27:52.000Z</time>
      </trkpt>
      <trkpt lat="46.44658" lon="5.91275">
        <ele>870</ele>
        <time>2000-01-01T03:28:02.000Z</time>
      </trkpt>
      <trkpt lat="46.44684" lon="5.91319">
        <ele>869</ele>
        <time>2000-01-01T03:28:12.000Z</time>
      </trkpt>
      <trkpt lat="46.44709" lon="5.91363">
        <ele>871</ele>
        <time>2000-01-01T03:28:22.000Z</time>
      </trkpt>
      <trkpt lat="46.44738" lon="5.91412">
        <ele>870</ele>
        <time>2000-01-01T03:28:32.000Z</time>
      </trkpt>
      <trkpt lat="46.44711" lon="5.91447">
        <ele>869</ele>
        <time>2000-01-01T03:28:42.000Z</time>
      </trkpt>
      <trkpt lat="46.44684" lon="5.91482">
        <ele>869</ele>
        <time>2000-01-01T03:28:52.000Z</time>
      </trkpt>
      <trkpt lat="46.44657" lon="5.91517">
        <ele>871</ele>
        <time>2000-01-01T03:29:02.000Z</time>
      </trkpt>
      <trkpt lat="46.44639" lon="5.91542">
        <ele>873</ele>
        <time>2000-01-01T03:29:12.000Z</time>
      </trkpt>
      <trkpt lat="46.44617" lon="5.91571">
        <ele>889</ele>
        <time>2000-01-01T03:29:22.000Z</time>
      </trkpt>
      <trkpt lat="46.4459" lon="5.9158">
        <ele>902</ele>
        <time>2000-01-01T03:29:32.000Z</time>
      </trkpt>
      <trkpt lat="46.44555" lon="5.91592">
        <ele>911</ele>
        <time>2000-01-01T03:29:42.000Z</time>
      </trkpt>
      <trkpt lat="46.44525" lon="5.91603">
        <ele>915</ele>
        <time>2000-01-01T03:29:52.000Z</time>
      </trkpt>
      <trkpt lat="46.44501" lon="5.91612">
        <ele>917</ele>
        <time>2000-01-01T03:30:02.000Z</time>
      </trkpt>
      <trkpt lat="46.44472" lon="5.91622">
        <ele>918</ele>
        <time>2000-01-01T03:30:12.000Z</time>
      </trkpt>
      <trkpt lat="46.4445" lon="5.91596">
        <ele>923</ele>
        <time>2000-01-01T03:30:22.000Z</time>
      </trkpt>
      <trkpt lat="46.44419" lon="5.91558">
        <ele>929</ele>
        <time>2000-01-01T03:30:32.000Z</time>
      </trkpt>
      <trkpt lat="46.44389" lon="5.91592">
        <ele>932</ele>
        <time>2000-01-01T03:30:42.000Z</time>
      </trkpt>
      <trkpt lat="46.44412" lon="5.91626">
        <ele>932</ele>
        <time>2000-01-01T03:30:52.000Z</time>
      </trkpt>
      <trkpt lat="46.44435" lon="5.9166">
        <ele>931</ele>
        <time>2000-01-01T03:31:02.000Z</time>
      </trkpt>
      <trkpt lat="46.44452" lon="5.91684">
        <ele>930</ele>
        <time>2000-01-01T03:31:12.000Z</time>
      </trkpt>
      <trkpt lat="46.44469" lon="5.91708">
        <ele>928</ele>
        <time>2000-01-01T03:31:22.000Z</time>
      </trkpt>
      <trkpt lat="46.44451" lon="5.91739">
        <ele>926</ele>
        <time>2000-01-01T03:31:32.000Z</time>
      </trkpt>
      <trkpt lat="46.44424" lon="5.91785">
        <ele>925</ele>
        <time>2000-01-01T03:31:42.000Z</time>
      </trkpt>
      <trkpt lat="46.44417" lon="5.91829">
        <ele>925</ele>
        <time>2000-01-01T03:31:52.000Z</time>
      </trkpt>
      <trkpt lat="46.44411" lon="5.91866">
        <ele>931</ele>
        <time>2000-01-01T03:32:02.000Z</time>
      </trkpt>
      <trkpt lat="46.44404" lon="5.91914">
        <ele>931</ele>
        <time>2000-01-01T03:32:12.000Z</time>
      </trkpt>
      <trkpt lat="46.44378" lon="5.91941">
        <ele>929</ele>
        <time>2000-01-01T03:32:22.000Z</time>
      </trkpt>
      <trkpt lat="46.44353" lon="5.91969">
        <ele>927</ele>
        <time>2000-01-01T03:32:32.000Z</time>
      </trkpt>
      <trkpt lat="46.44324" lon="5.92">
        <ele>923</ele>
        <time>2000-01-01T03:32:42.000Z</time>
      </trkpt>
      <trkpt lat="46.44304" lon="5.9204">
        <ele>913</ele>
        <time>2000-01-01T03:32:52.000Z</time>
      </trkpt>
      <trkpt lat="46.44284" lon="5.9208">
        <ele>913</ele>
        <time>2000-01-01T03:33:02.000Z</time>
      </trkpt>
      <trkpt lat="46.44269" lon="5.92111">
        <ele>913</ele>
        <time>2000-01-01T03:33:12.000Z</time>
      </trkpt>
      <trkpt lat="46.4425" lon="5.9215">
        <ele>916</ele>
        <time>2000-01-01T03:33:22.000Z</time>
      </trkpt>
      <trkpt lat="46.44225" lon="5.92148">
        <ele>916</ele>
        <time>2000-01-01T03:33:32.000Z</time>
      </trkpt>
      <trkpt lat="46.44194" lon="5.92146">
        <ele>916</ele>
        <time>2000-01-01T03:33:42.000Z</time>
      </trkpt>
      <trkpt lat="46.44165" lon="5.9212">
        <ele>918</ele>
        <time>2000-01-01T03:33:52.000Z</time>
      </trkpt>
      <trkpt lat="46.44136" lon="5.92094">
        <ele>920</ele>
        <time>2000-01-01T03:34:02.000Z</time>
      </trkpt>
      <trkpt lat="46.44113" lon="5.92073">
        <ele>921</ele>
        <time>2000-01-01T03:34:12.000Z</time>
      </trkpt>
      <trkpt lat="46.44084" lon="5.92047">
        <ele>925</ele>
        <time>2000-01-01T03:34:22.000Z</time>
      </trkpt>
      <trkpt lat="46.44077" lon="5.92088">
        <ele>931</ele>
        <time>2000-01-01T03:34:32.000Z</time>
      </trkpt>
      <trkpt lat="46.4407" lon="5.9212">
        <ele>937</ele>
        <time>2000-01-01T03:34:42.000Z</time>
      </trkpt>
      <trkpt lat="46.44064" lon="5.92154">
        <ele>946</ele>
        <time>2000-01-01T03:34:52.000Z</time>
      </trkpt>
      <trkpt lat="46.44033" lon="5.92146">
        <ele>953</ele>
        <time>2000-01-01T03:35:02.000Z</time>
      </trkpt>
      <trkpt lat="46.44001" lon="5.92138">
        <ele>959</ele>
        <time>2000-01-01T03:35:12.000Z</time>
      </trkpt>
      <trkpt lat="46.43966" lon="5.92129">
        <ele>959</ele>
        <time>2000-01-01T03:35:22.000Z</time>
      </trkpt>
      <trkpt lat="46.43931" lon="5.92103">
        <ele>958</ele>
        <time>2000-01-01T03:35:32.000Z</time>
      </trkpt>
      <trkpt lat="46.43905" lon="5.92116">
        <ele>962</ele>
        <time>2000-01-01T03:35:42.000Z</time>
      </trkpt>
      <trkpt lat="46.43871" lon="5.92133">
        <ele>967</ele>
        <time>2000-01-01T03:35:52.000Z</time>
      </trkpt>
      <trkpt lat="46.43877" lon="5.92175">
        <ele>966</ele>
        <time>2000-01-01T03:36:02.000Z</time>
      </trkpt>
      <trkpt lat="46.43881" lon="5.9221">
        <ele>965</ele>
        <time>2000-01-01T03:36:12.000Z</time>
      </trkpt>
      <trkpt lat="46.43886" lon="5.92249">
        <ele>962</ele>
        <time>2000-01-01T03:36:22.000Z</time>
      </trkpt>
      <trkpt lat="46.43842" lon="5.92266">
        <ele>961</ele>
        <time>2000-01-01T03:36:32.000Z</time>
      </trkpt>
      <trkpt lat="46.43846" lon="5.923">
        <ele>961</ele>
        <time>2000-01-01T03:36:42.000Z</time>
      </trkpt>
      <trkpt lat="46.43851" lon="5.92335">
        <ele>958</ele>
        <time>2000-01-01T03:36:52.000Z</time>
      </trkpt>
      <trkpt lat="46.43825" lon="5.92311">
        <ele>955</ele>
        <time>2000-01-01T03:37:02.000Z</time>
      </trkpt>
      <trkpt lat="46.43803" lon="5.92291">
        <ele>954</ele>
        <time>2000-01-01T03:37:12.000Z</time>
      </trkpt>
      <trkpt lat="46.43777" lon="5.92266">
        <ele>954</ele>
        <time>2000-01-01T03:37:22.000Z</time>
      </trkpt>
      <trkpt lat="46.43752" lon="5.92296">
        <ele>949</ele>
        <time>2000-01-01T03:37:32.000Z</time>
      </trkpt>
      <trkpt lat="46.43769" lon="5.92332">
        <ele>946</ele>
        <time>2000-01-01T03:37:42.000Z</time>
      </trkpt>
      <trkpt lat="46.43784" lon="5.92362">
        <ele>947</ele>
        <time>2000-01-01T03:37:52.000Z</time>
      </trkpt>
      <trkpt lat="46.43802" lon="5.92399">
        <ele>946</ele>
        <time>2000-01-01T03:38:02.000Z</time>
      </trkpt>
      <trkpt lat="46.43819" lon="5.92431">
        <ele>946</ele>
        <time>2000-01-01T03:38:12.000Z</time>
      </trkpt>
      <trkpt lat="46.43846" lon="5.92481">
        <ele>950</ele>
        <time>2000-01-01T03:38:22.000Z</time>
      </trkpt>
      <trkpt lat="46.43866" lon="5.9252">
        <ele>951</ele>
        <time>2000-01-01T03:38:32.000Z</time>
      </trkpt>
      <trkpt lat="46.43886" lon="5.9256">
        <ele>953</ele>
        <time>2000-01-01T03:38:42.000Z</time>
      </trkpt>
      <trkpt lat="46.43902" lon="5.9259">
        <ele>953</ele>
        <time>2000-01-01T03:38:52.000Z</time>
      </trkpt>
      <trkpt lat="46.4392" lon="5.92626">
        <ele>952</ele>
        <time>2000-01-01T03:39:02.000Z</time>
      </trkpt>
      <trkpt lat="46.43948" lon="5.92642">
        <ele>954</ele>
        <time>2000-01-01T03:39:12.000Z</time>
      </trkpt>
      <trkpt lat="46.43972" lon="5.92656">
        <ele>957</ele>
        <time>2000-01-01T03:39:22.000Z</time>
      </trkpt>
      <trkpt lat="46.43999" lon="5.92672">
        <ele>951</ele>
        <time>2000-01-01T03:39:32.000Z</time>
      </trkpt>
      <trkpt lat="46.44019" lon="5.92713">
        <ele>952</ele>
        <time>2000-01-01T03:39:42.000Z</time>
      </trkpt>
      <trkpt lat="46.44039" lon="5.92755">
        <ele>953</ele>
        <time>2000-01-01T03:39:52.000Z</time>
      </trkpt>
      <trkpt lat="46.44059" lon="5.92797">
        <ele>956</ele>
        <time>2000-01-01T03:40:02.000Z</time>
      </trkpt>
      <trkpt lat="46.44079" lon="5.92841">
        <ele>956</ele>
        <time>2000-01-01T03:40:12.000Z</time>
      </trkpt>
      <trkpt lat="46.44086" lon="5.92877">
        <ele>956</ele>
        <time>2000-01-01T03:40:22.000Z</time>
      </trkpt>
      <trkpt lat="46.44094" lon="5.92921">
        <ele>956</ele>
        <time>2000-01-01T03:40:32.000Z</time>
      </trkpt>
      <trkpt lat="46.44121" lon="5.92964">
        <ele>956</ele>
        <time>2000-01-01T03:40:42.000Z</time>
      </trkpt>
      <trkpt lat="46.44148" lon="5.93007">
        <ele>958</ele>
        <time>2000-01-01T03:40:52.000Z</time>
      </trkpt>
      <trkpt lat="46.44175" lon="5.9305">
        <ele>961</ele>
        <time>2000-01-01T03:41:02.000Z</time>
      </trkpt>
      <trkpt lat="46.44202" lon="5.93094">
        <ele>962</ele>
        <time>2000-01-01T03:41:12.000Z</time>
      </trkpt>
      <trkpt lat="46.44229" lon="5.93137">
        <ele>965</ele>
        <time>2000-01-01T03:41:22.000Z</time>
      </trkpt>
      <trkpt lat="46.44256" lon="5.9318">
        <ele>970</ele>
        <time>2000-01-01T03:41:32.000Z</time>
      </trkpt>
      <trkpt lat="46.44274" lon="5.93209">
        <ele>964</ele>
        <time>2000-01-01T03:41:42.000Z</time>
      </trkpt>
      <trkpt lat="46.44298" lon="5.93247">
        <ele>968</ele>
        <time>2000-01-01T03:41:52.000Z</time>
      </trkpt>
      <trkpt lat="46.44327" lon="5.93285">
        <ele>966</ele>
        <time>2000-01-01T03:42:02.000Z</time>
      </trkpt>
      <trkpt lat="46.44356" lon="5.93323">
        <ele>968</ele>
        <time>2000-01-01T03:42:12.000Z</time>
      </trkpt>
      <trkpt lat="46.44384" lon="5.93361">
        <ele>970</ele>
        <time>2000-01-01T03:42:22.000Z</time>
      </trkpt>
      <trkpt lat="46.44413" lon="5.93398">
        <ele>974</ele>
        <time>2000-01-01T03:42:32.000Z</time>
      </trkpt>
      <trkpt lat="46.44442" lon="5.93436">
        <ele>972</ele>
        <time>2000-01-01T03:42:42.000Z</time>
      </trkpt>
      <trkpt lat="46.44475" lon="5.93481">
        <ele>971</ele>
        <time>2000-01-01T03:42:52.000Z</time>
      </trkpt>
      <trkpt lat="46.44499" lon="5.93508">
        <ele>969</ele>
        <time>2000-01-01T03:43:02.000Z</time>
      </trkpt>
      <trkpt lat="46.44519" lon="5.93531">
        <ele>961</ele>
        <time>2000-01-01T03:43:12.000Z</time>
      </trkpt>
      <trkpt lat="46.44543" lon="5.9356">
        <ele>968</ele>
        <time>2000-01-01T03:43:22.000Z</time>
      </trkpt>
      <trkpt lat="46.44575" lon="5.9359">
        <ele>971</ele>
        <time>2000-01-01T03:43:32.000Z</time>
      </trkpt>
      <trkpt lat="46.44607" lon="5.9362">
        <ele>968</ele>
        <time>2000-01-01T03:43:42.000Z</time>
      </trkpt>
      <trkpt lat="46.44638" lon="5.93651">
        <ele>965</ele>
        <time>2000-01-01T03:43:52.000Z</time>
      </trkpt>
      <trkpt lat="46.4467" lon="5.93681">
        <ele>964</ele>
        <time>2000-01-01T03:44:02.000Z</time>
      </trkpt>
      <trkpt lat="46.4469" lon="5.93701">
        <ele>964</ele>
        <time>2000-01-01T03:44:12.000Z</time>
      </trkpt>
      <trkpt lat="46.44713" lon="5.93723">
        <ele>971</ele>
        <time>2000-01-01T03:44:22.000Z</time>
      </trkpt>
      <trkpt lat="46.44729" lon="5.9375">
        <ele>971</ele>
        <time>2000-01-01T03:44:32.000Z</time>
      </trkpt>
      <trkpt lat="46.44746" lon="5.93779">
        <ele>969</ele>
        <time>2000-01-01T03:44:42.000Z</time>
      </trkpt>
      <trkpt lat="46.44761" lon="5.93813">
        <ele>972</ele>
        <time>2000-01-01T03:44:52.000Z</time>
      </trkpt>
      <trkpt lat="46.44783" lon="5.93862">
        <ele>976</ele>
        <time>2000-01-01T03:45:02.000Z</time>
      </trkpt>
      <trkpt lat="46.44802" lon="5.93895">
        <ele>980</ele>
        <time>2000-01-01T03:45:12.000Z</time>
      </trkpt>
      <trkpt lat="46.44819" lon="5.93923">
        <ele>984</ele>
        <time>2000-01-01T03:45:22.000Z</time>
      </trkpt>
      <trkpt lat="46.44838" lon="5.93955">
        <ele>985</ele>
        <time>2000-01-01T03:45:32.000Z</time>
      </trkpt>
      <trkpt lat="46.44863" lon="5.93993">
        <ele>984</ele>
        <time>2000-01-01T03:45:42.000Z</time>
      </trkpt>
      <trkpt lat="46.44888" lon="5.9403">
        <ele>984</ele>
        <time>2000-01-01T03:45:52.000Z</time>
      </trkpt>
      <trkpt lat="46.44913" lon="5.94068">
        <ele>984</ele>
        <time>2000-01-01T03:46:02.000Z</time>
      </trkpt>
      <trkpt lat="46.4493" lon="5.94095">
        <ele>985</ele>
        <time>2000-01-01T03:46:12.000Z</time>
      </trkpt>
      <trkpt lat="46.44952" lon="5.94126">
        <ele>987</ele>
        <time>2000-01-01T03:46:22.000Z</time>
      </trkpt>
      <trkpt lat="46.44978" lon="5.9416">
        <ele>992</ele>
        <time>2000-01-01T03:46:32.000Z</time>
      </trkpt>
      <trkpt lat="46.45005" lon="5.94194">
        <ele>994</ele>
        <time>2000-01-01T03:46:42.000Z</time>
      </trkpt>
      <trkpt lat="46.45032" lon="5.94227">
        <ele>993</ele>
        <time>2000-01-01T03:46:52.000Z</time>
      </trkpt>
      <trkpt lat="46.45064" lon="5.94268">
        <ele>992</ele>
        <time>2000-01-01T03:47:02.000Z</time>
      </trkpt>
      <trkpt lat="46.45084" lon="5.94299">
        <ele>994</ele>
        <time>2000-01-01T03:47:12.000Z</time>
      </trkpt>
      <trkpt lat="46.451" lon="5.94324">
        <ele>997</ele>
        <time>2000-01-01T03:47:22.000Z</time>
      </trkpt>
      <trkpt lat="46.45117" lon="5.9435">
        <ele>997</ele>
        <time>2000-01-01T03:47:32.000Z</time>
      </trkpt>
      <trkpt lat="46.45128" lon="5.94385">
        <ele>997</ele>
        <time>2000-01-01T03:47:42.000Z</time>
      </trkpt>
      <trkpt lat="46.45142" lon="5.94431">
        <ele>997</ele>
        <time>2000-01-01T03:47:52.000Z</time>
      </trkpt>
      <trkpt lat="46.45166" lon="5.94443">
        <ele>997</ele>
        <time>2000-01-01T03:48:02.000Z</time>
      </trkpt>
      <trkpt lat="46.45195" lon="5.94457">
        <ele>998</ele>
        <time>2000-01-01T03:48:12.000Z</time>
      </trkpt>
      <trkpt lat="46.45218" lon="5.94478">
        <ele>1005</ele>
        <time>2000-01-01T03:48:22.000Z</time>
      </trkpt>
      <trkpt lat="46.45249" lon="5.94506">
        <ele>1003</ele>
        <time>2000-01-01T03:48:32.000Z</time>
      </trkpt>
      <trkpt lat="46.45287" lon="5.94483">
        <ele>1006</ele>
        <time>2000-01-01T03:48:42.000Z</time>
      </trkpt>
      <trkpt lat="46.4531" lon="5.945">
        <ele>1007</ele>
        <time>2000-01-01T03:48:52.000Z</time>
      </trkpt>
      <trkpt lat="46.4534" lon="5.94521">
        <ele>1005</ele>
        <time>2000-01-01T03:49:02.000Z</time>
      </trkpt>
      <trkpt lat="46.45372" lon="5.94544">
        <ele>1004</ele>
        <time>2000-01-01T03:49:12.000Z</time>
      </trkpt>
      <trkpt lat="46.45404" lon="5.94567">
        <ele>996</ele>
        <time>2000-01-01T03:49:22.000Z</time>
      </trkpt>
      <trkpt lat="46.45436" lon="5.94589">
        <ele>995</ele>
        <time>2000-01-01T03:49:32.000Z</time>
      </trkpt>
      <trkpt lat="46.45476" lon="5.94618">
        <ele>989</ele>
        <time>2000-01-01T03:49:42.000Z</time>
      </trkpt>
      <trkpt lat="46.45482" lon="5.94664">
        <ele>989</ele>
        <time>2000-01-01T03:49:52.000Z</time>
      </trkpt>
      <trkpt lat="46.45487" lon="5.9471">
        <ele>989</ele>
        <time>2000-01-01T03:50:02.000Z</time>
      </trkpt>
      <trkpt lat="46.45494" lon="5.94768">
        <ele>990</ele>
        <time>2000-01-01T03:50:12.000Z</time>
      </trkpt>
      <trkpt lat="46.45505" lon="5.9481">
        <ele>996</ele>
        <time>2000-01-01T03:50:22.000Z</time>
      </trkpt>
      <trkpt lat="46.45514" lon="5.94846">
        <ele>994</ele>
        <time>2000-01-01T03:50:32.000Z</time>
      </trkpt>
      <trkpt lat="46.45527" lon="5.94892">
        <ele>993</ele>
        <time>2000-01-01T03:50:42.000Z</time>
      </trkpt>
      <trkpt lat="46.45541" lon="5.94931">
        <ele>993</ele>
        <time>2000-01-01T03:50:52.000Z</time>
      </trkpt>
      <trkpt lat="46.45553" lon="5.94963">
        <ele>994</ele>
        <time>2000-01-01T03:51:02.000Z</time>
      </trkpt>
      <trkpt lat="46.45567" lon="5.95">
        <ele>997</ele>
        <time>2000-01-01T03:51:12.000Z</time>
      </trkpt>
      <trkpt lat="46.45581" lon="5.95042">
        <ele>1002</ele>
        <time>2000-01-01T03:51:22.000Z</time>
      </trkpt>
      <trkpt lat="46.45595" lon="5.95083">
        <ele>1002</ele>
        <time>2000-01-01T03:51:32.000Z</time>
      </trkpt>
      <trkpt lat="46.45612" lon="5.95135">
        <ele>1002</ele>
        <time>2000-01-01T03:51:42.000Z</time>
      </trkpt>
      <trkpt lat="46.45596" lon="5.95163">
        <ele>1003</ele>
        <time>2000-01-01T03:51:52.000Z</time>
      </trkpt>
      <trkpt lat="46.45592" lon="5.95223">
        <ele>1004</ele>
        <time>2000-01-01T03:52:02.000Z</time>
      </trkpt>
      <trkpt lat="46.45601" lon="5.95266">
        <ele>1013</ele>
        <time>2000-01-01T03:52:12.000Z</time>
      </trkpt>
      <trkpt lat="46.4561" lon="5.9531">
        <ele>1020</ele>
        <time>2000-01-01T03:52:22.000Z</time>
      </trkpt>
      <trkpt lat="46.4562" lon="5.95356">
        <ele>1020</ele>
        <time>2000-01-01T03:52:32.000Z</time>
      </trkpt>
      <trkpt lat="46.45622" lon="5.95398">
        <ele>1020</ele>
        <time>2000-01-01T03:52:42.000Z</time>
      </trkpt>
      <trkpt lat="46.45624" lon="5.95431">
        <ele>1021</ele>
        <time>2000-01-01T03:52:52.000Z</time>
      </trkpt>
      <trkpt lat="46.45626" lon="5.95465">
        <ele>1026</ele>
        <time>2000-01-01T03:53:02.000Z</time>
      </trkpt>
      <trkpt lat="46.45622" lon="5.95504">
        <ele>1028</ele>
        <time>2000-01-01T03:53:12.000Z</time>
      </trkpt>
      <trkpt lat="46.45617" lon="5.95555">
        <ele>1032</ele>
        <time>2000-01-01T03:53:22.000Z</time>
      </trkpt>
      <trkpt lat="46.45606" lon="5.95592">
        <ele>1035</ele>
        <time>2000-01-01T03:53:32.000Z</time>
      </trkpt>
      <trkpt lat="46.45592" lon="5.95643">
        <ele>1035</ele>
        <time>2000-01-01T03:53:42.000Z</time>
      </trkpt>
      <trkpt lat="46.45606" lon="5.95683">
        <ele>1036</ele>
        <time>2000-01-01T03:53:52.000Z</time>
      </trkpt>
      <trkpt lat="46.45619" lon="5.95716">
        <ele>1034</ele>
        <time>2000-01-01T03:54:02.000Z</time>
      </trkpt>
      <trkpt lat="46.45635" lon="5.95759">
        <ele>1033</ele>
        <time>2000-01-01T03:54:12.000Z</time>
      </trkpt>
      <trkpt lat="46.45642" lon="5.95803">
        <ele>1033</ele>
        <time>2000-01-01T03:54:22.000Z</time>
      </trkpt>
      <trkpt lat="46.4565" lon="5.95847">
        <ele>1033</ele>
        <time>2000-01-01T03:54:32.000Z</time>
      </trkpt>
      <trkpt lat="46.45658" lon="5.95892">
        <ele>1031</ele>
        <time>2000-01-01T03:54:42.000Z</time>
      </trkpt>
      <trkpt lat="46.45654" lon="5.95934">
        <ele>1029</ele>
        <time>2000-01-01T03:54:52.000Z</time>
      </trkpt>
      <trkpt lat="46.45648" lon="5.96">
        <ele>1028</ele>
        <time>2000-01-01T03:55:02.000Z</time>
      </trkpt>
      <trkpt lat="46.45652" lon="5.96046">
        <ele>1018</ele>
        <time>2000-01-01T03:55:12.000Z</time>
      </trkpt>
      <trkpt lat="46.45657" lon="5.96092">
        <ele>1015</ele>
        <time>2000-01-01T03:55:22.000Z</time>
      </trkpt>
      <trkpt lat="46.45663" lon="5.96152">
        <ele>1017</ele>
        <time>2000-01-01T03:55:32.000Z</time>
      </trkpt>
      <trkpt lat="46.45667" lon="5.96192">
        <ele>1020</ele>
        <time>2000-01-01T03:55:42.000Z</time>
      </trkpt>
      <trkpt lat="46.45673" lon="5.96251">
        <ele>1021</ele>
        <time>2000-01-01T03:55:52.000Z</time>
      </trkpt>
      <trkpt lat="46.45697" lon="5.96279">
        <ele>1021</ele>
        <time>2000-01-01T03:56:02.000Z</time>
      </trkpt>
      <trkpt lat="46.45717" lon="5.96303">
        <ele>1022</ele>
        <time>2000-01-01T03:56:12.000Z</time>
      </trkpt>
      <trkpt lat="46.45742" lon="5.96334">
        <ele>1022</ele>
        <time>2000-01-01T03:56:22.000Z</time>
      </trkpt>
      <trkpt lat="46.45756" lon="5.96371">
        <ele>1021</ele>
        <time>2000-01-01T03:56:32.000Z</time>
      </trkpt>
      <trkpt lat="46.45768" lon="5.96402">
        <ele>1021</ele>
        <time>2000-01-01T03:56:42.000Z</time>
      </trkpt>
      <trkpt lat="46.45779" lon="5.96433">
        <ele>1019</ele>
        <time>2000-01-01T03:56:52.000Z</time>
      </trkpt>
      <trkpt lat="46.45789" lon="5.96483">
        <ele>1018</ele>
        <time>2000-01-01T03:57:02.000Z</time>
      </trkpt>
      <trkpt lat="46.45799" lon="5.96533">
        <ele>1018</ele>
        <time>2000-01-01T03:57:12.000Z</time>
      </trkpt>
      <trkpt lat="46.45809" lon="5.96584">
        <ele>1020</ele>
        <time>2000-01-01T03:57:22.000Z</time>
      </trkpt>
      <trkpt lat="46.45816" lon="5.96618">
        <ele>1023</ele>
        <time>2000-01-01T03:57:32.000Z</time>
      </trkpt>
      <trkpt lat="46.45824" lon="5.96656">
        <ele>1025</ele>
        <time>2000-01-01T03:57:42.000Z</time>
      </trkpt>
      <trkpt lat="46.45802" lon="5.96706">
        <ele>1025</ele>
        <time>2000-01-01T03:57:52.000Z</time>
      </trkpt>
      <trkpt lat="46.45811" lon="5.96745">
        <ele>1027</ele>
        <time>2000-01-01T03:58:02.000Z</time>
      </trkpt>
      <trkpt lat="46.45825" lon="5.96809">
        <ele>1026</ele>
        <time>2000-01-01T03:58:12.000Z</time>
      </trkpt>
      <trkpt lat="46.45813" lon="5.96838">
        <ele>1026</ele>
        <time>2000-01-01T03:58:22.000Z</time>
      </trkpt>
      <trkpt lat="46.45802" lon="5.96869">
        <ele>1027</ele>
        <time>2000-01-01T03:58:32.000Z</time>
      </trkpt>
      <trkpt lat="46.4582" lon="5.96894">
        <ele>1028</ele>
        <time>2000-01-01T03:58:42.000Z</time>
      </trkpt>
      <trkpt lat="46.45841" lon="5.96924">
        <ele>1033</ele>
        <time>2000-01-01T03:58:52.000Z</time>
      </trkpt>
      <trkpt lat="46.45856" lon="5.96972">
        <ele>1034</ele>
        <time>2000-01-01T03:59:02.000Z</time>
      </trkpt>
      <trkpt lat="46.45836" lon="5.97001">
        <ele>1035</ele>
        <time>2000-01-01T03:59:12.000Z</time>
      </trkpt>
      <trkpt lat="46.4582" lon="5.97025">
        <ele>1036</ele>
        <time>2000-01-01T03:59:22.000Z</time>
      </trkpt>
      <trkpt lat="46.45803" lon="5.97049">
        <ele>1036</ele>
        <time>2000-01-01T03:59:32.000Z</time>
      </trkpt>
      <trkpt lat="46.45778" lon="5.9704">
        <ele>1042</ele>
        <time>2000-01-01T03:59:42.000Z</time>
      </trkpt>
      <trkpt lat="46.45758" lon="5.97073">
        <ele>1048</ele>
        <time>2000-01-01T03:59:52.000Z</time>
      </trkpt>
      <trkpt lat="46.45741" lon="5.97101">
        <ele>1053</ele>
        <time>2000-01-01T04:00:02.000Z</time>
      </trkpt>
      <trkpt lat="46.4572" lon="5.97135">
        <ele>1070</ele>
        <time>2000-01-01T04:00:12.000Z</time>
      </trkpt>
      <trkpt lat="46.45698" lon="5.97114">
        <ele>1075</ele>
        <time>2000-01-01T04:00:22.000Z</time>
      </trkpt>
      <trkpt lat="46.45669" lon="5.97088">
        <ele>1079</ele>
        <time>2000-01-01T04:00:32.000Z</time>
      </trkpt>
      <trkpt lat="46.45638" lon="5.97088">
        <ele>1081</ele>
        <time>2000-01-01T04:00:42.000Z</time>
      </trkpt>
      <trkpt lat="46.45611" lon="5.97088">
        <ele>1080</ele>
        <time>2000-01-01T04:00:52.000Z</time>
      </trkpt>
      <trkpt lat="46.45577" lon="5.97088">
        <ele>1079</ele>
        <time>2000-01-01T04:01:02.000Z</time>
      </trkpt>
      <trkpt lat="46.45547" lon="5.97089">
        <ele>1076</ele>
        <time>2000-01-01T04:01:12.000Z</time>
      </trkpt>
      <trkpt lat="46.45523" lon="5.9709">
        <ele>1076</ele>
        <time>2000-01-01T04:01:22.000Z</time>
      </trkpt>
      <trkpt lat="46.45496" lon="5.97092">
        <ele>1080</ele>
        <time>2000-01-01T04:01:32.000Z</time>
      </trkpt>
      <trkpt lat="46.45453" lon="5.97103">
        <ele>1085</ele>
        <time>2000-01-01T04:01:42.000Z</time>
      </trkpt>
      <trkpt lat="46.45425" lon="5.97091">
        <ele>1092</ele>
        <time>2000-01-01T04:01:52.000Z</time>
      </trkpt>
      <trkpt lat="46.45402" lon="5.97082">
        <ele>1092</ele>
        <time>2000-01-01T04:02:02.000Z</time>
      </trkpt>
      <trkpt lat="46.45377" lon="5.97073">
        <ele>1093</ele>
        <time>2000-01-01T04:02:12.000Z</time>
      </trkpt>
      <trkpt lat="46.45343" lon="5.97077">
        <ele>1091</ele>
        <time>2000-01-01T04:02:22.000Z</time>
      </trkpt>
      <trkpt lat="46.45374" lon="5.97122">
        <ele>1091</ele>
        <time>2000-01-01T04:02:32.000Z</time>
      </trkpt>
      <trkpt lat="46.45367" lon="5.97159">
        <ele>1091</ele>
        <time>2000-01-01T04:02:42.000Z</time>
      </trkpt>
      <trkpt lat="46.45357" lon="5.97208">
        <ele>1095</ele>
        <time>2000-01-01T04:02:52.000Z</time>
      </trkpt>
      <trkpt lat="46.45341" lon="5.97238">
        <ele>1101</ele>
        <time>2000-01-01T04:03:02.000Z</time>
      </trkpt>
      <trkpt lat="46.4532" lon="5.97279">
        <ele>1115</ele>
        <time>2000-01-01T04:03:12.000Z</time>
      </trkpt>
      <trkpt lat="46.45306" lon="5.97306">
        <ele>1119</ele>
        <time>2000-01-01T04:03:22.000Z</time>
      </trkpt>
      <trkpt lat="46.45292" lon="5.97334">
        <ele>1123</ele>
        <time>2000-01-01T04:03:32.000Z</time>
      </trkpt>
      <trkpt lat="46.4528" lon="5.97365">
        <ele>1129</ele>
        <time>2000-01-01T04:03:42.000Z</time>
      </trkpt>
      <trkpt lat="46.45266" lon="5.97399">
        <ele>1135</ele>
        <time>2000-01-01T04:03:52.000Z</time>
      </trkpt>
      <trkpt lat="46.45268" lon="5.97442">
        <ele>1140</ele>
        <time>2000-01-01T04:04:02.000Z</time>
      </trkpt>
      <trkpt lat="46.45263" lon="5.97478">
        <ele>1142</ele>
        <time>2000-01-01T04:04:12.000Z</time>
      </trkpt>
      <trkpt lat="46.45244" lon="5.97507">
        <ele>1144</ele>
        <time>2000-01-01T04:04:22.000Z</time>
      </trkpt>
      <trkpt lat="46.45213" lon="5.97551">
        <ele>1149</ele>
        <time>2000-01-01T04:04:32.000Z</time>
      </trkpt>
      <trkpt lat="46.45188" lon="5.97547">
        <ele>1155</ele>
        <time>2000-01-01T04:04:42.000Z</time>
      </trkpt>
      <trkpt lat="46.45157" lon="5.97542">
        <ele>1152</ele>
        <time>2000-01-01T04:04:52.000Z</time>
      </trkpt>
      <trkpt lat="46.45139" lon="5.97515">
        <ele>1149</ele>
        <time>2000-01-01T04:05:02.000Z</time>
      </trkpt>
      <trkpt lat="46.45116" lon="5.97478">
        <ele>1141</ele>
        <time>2000-01-01T04:05:12.000Z</time>
      </trkpt>
      <trkpt lat="46.45076" lon="5.97463">
        <ele>1140</ele>
        <time>2000-01-01T04:05:22.000Z</time>
      </trkpt>
      <trkpt lat="46.45036" lon="5.9745">
        <ele>1138</ele>
        <time>2000-01-01T04:05:32.000Z</time>
      </trkpt>
      <trkpt lat="46.45014" lon="5.97465">
        <ele>1136</ele>
        <time>2000-01-01T04:05:42.000Z</time>
      </trkpt>
      <trkpt lat="46.44991" lon="5.9748">
        <ele>1136</ele>
        <time>2000-01-01T04:05:52.000Z</time>
      </trkpt>
      <trkpt lat="46.44967" lon="5.97482">
        <ele>1145</ele>
        <time>2000-01-01T04:06:02.000Z</time>
      </trkpt>
      <trkpt lat="46.44941" lon="5.97485">
        <ele>1146</ele>
        <time>2000-01-01T04:06:12.000Z</time>
      </trkpt>
      <trkpt lat="46.449" lon="5.97502">
        <ele>1148</ele>
        <time>2000-01-01T04:06:22.000Z</time>
      </trkpt>
      <trkpt lat="46.44878" lon="5.9756">
        <ele>1151</ele>
        <time>2000-01-01T04:06:32.000Z</time>
      </trkpt>
      <trkpt lat="46.44878" lon="5.97597">
        <ele>1149</ele>
        <time>2000-01-01T04:06:42.000Z</time>
      </trkpt>
      <trkpt lat="46.44879" lon="5.97643">
        <ele>1147</ele>
        <time>2000-01-01T04:06:52.000Z</time>
      </trkpt>
      <trkpt lat="46.44862" lon="5.9767">
        <ele>1144</ele>
        <time>2000-01-01T04:07:02.000Z</time>
      </trkpt>
      <trkpt lat="46.44842" lon="5.97701">
        <ele>1143</ele>
        <time>2000-01-01T04:07:12.000Z</time>
      </trkpt>
      <trkpt lat="46.44808" lon="5.9774">
        <ele>1143</ele>
        <time>2000-01-01T04:07:22.000Z</time>
      </trkpt>
      <trkpt lat="46.44809" lon="5.97778">
        <ele>1141</ele>
        <time>2000-01-01T04:07:32.000Z</time>
      </trkpt>
      <trkpt lat="46.4481" lon="5.97828">
        <ele>1139</ele>
        <time>2000-01-01T04:07:42.000Z</time>
      </trkpt>
      <trkpt lat="46.44832" lon="5.97882">
        <ele>1137</ele>
        <time>2000-01-01T04:07:52.000Z</time>
      </trkpt>
      <trkpt lat="46.44823" lon="5.97918">
        <ele>1137</ele>
        <time>2000-01-01T04:08:02.000Z</time>
      </trkpt>
      <trkpt lat="46.44811" lon="5.97967">
        <ele>1137</ele>
        <time>2000-01-01T04:08:12.000Z</time>
      </trkpt>
      <trkpt lat="46.44822" lon="5.98005">
        <ele>1138</ele>
        <time>2000-01-01T04:08:22.000Z</time>
      </trkpt>
      <trkpt lat="46.44839" lon="5.98062">
        <ele>1141</ele>
        <time>2000-01-01T04:08:32.000Z</time>
      </trkpt>
      <trkpt lat="46.44841" lon="5.98111">
        <ele>1145</ele>
        <time>2000-01-01T04:08:42.000Z</time>
      </trkpt>
      <trkpt lat="46.44811" lon="5.9813">
        <ele>1147</ele>
        <time>2000-01-01T04:08:52.000Z</time>
      </trkpt>
      <trkpt lat="46.44777" lon="5.98109">
        <ele>1149</ele>
        <time>2000-01-01T04:09:02.000Z</time>
      </trkpt>
      <trkpt lat="46.44742" lon="5.98126">
        <ele>1150</ele>
        <time>2000-01-01T04:09:12.000Z</time>
      </trkpt>
      <trkpt lat="46.44734" lon="5.98159">
        <ele>1155</ele>
        <time>2000-01-01T04:09:22.000Z</time>
      </trkpt>
      <trkpt lat="46.44727" lon="5.98195">
        <ele>1168</ele>
        <time>2000-01-01T04:09:32.000Z</time>
      </trkpt>
      <trkpt lat="46.44703" lon="5.98198">
        <ele>1170</ele>
        <time>2000-01-01T04:09:42.000Z</time>
      </trkpt>
      <trkpt lat="46.44677" lon="5.98201">
        <ele>1176</ele>
        <time>2000-01-01T04:09:52.000Z</time>
      </trkpt>
      <trkpt lat="46.44654" lon="5.98248">
        <ele>1183</ele>
        <time>2000-01-01T04:10:02.000Z</time>
      </trkpt>
      <trkpt lat="46.44668" lon="5.98283">
        <ele>1194</ele>
        <time>2000-01-01T04:10:12.000Z</time>
      </trkpt>
      <trkpt lat="46.4469" lon="5.98336">
        <ele>1191</ele>
        <time>2000-01-01T04:10:22.000Z</time>
      </trkpt>
      <trkpt lat="46.447" lon="5.98379">
        <ele>1193</ele>
        <time>2000-01-01T04:10:32.000Z</time>
      </trkpt>
      <trkpt lat="46.44715" lon="5.98418">
        <ele>1195</ele>
        <time>2000-01-01T04:10:42.000Z</time>
      </trkpt>
      <trkpt lat="46.44727" lon="5.9845">
        <ele>1200</ele>
        <time>2000-01-01T04:10:52.000Z</time>
      </trkpt>
      <trkpt lat="46.44743" lon="5.98491">
        <ele>1204</ele>
        <time>2000-01-01T04:11:02.000Z</time>
      </trkpt>
      <trkpt lat="46.44752" lon="5.98536">
        <ele>1204</ele>
        <time>2000-01-01T04:11:12.000Z</time>
      </trkpt>
      <trkpt lat="46.44761" lon="5.9858">
        <ele>1213</ele>
        <time>2000-01-01T04:11:22.000Z</time>
      </trkpt>
      <trkpt lat="46.44771" lon="5.98635">
        <ele>1216</ele>
        <time>2000-01-01T04:11:32.000Z</time>
      </trkpt>
      <trkpt lat="46.44791" lon="5.9867">
        <ele>1219</ele>
        <time>2000-01-01T04:11:42.000Z</time>
      </trkpt>
      <trkpt lat="46.4481" lon="5.98704">
        <ele>1218</ele>
        <time>2000-01-01T04:11:52.000Z</time>
      </trkpt>
      <trkpt lat="46.4483" lon="5.9874">
        <ele>1217</ele>
        <time>2000-01-01T04:12:02.000Z</time>
      </trkpt>
      <trkpt lat="46.44844" lon="5.98785">
        <ele>1213</ele>
        <time>2000-01-01T04:12:12.000Z</time>
      </trkpt>
      <trkpt lat="46.44878" lon="5.98796">
        <ele>1213</ele>
        <time>2000-01-01T04:12:22.000Z</time>
      </trkpt>
      <trkpt lat="46.44912" lon="5.98808">
        <ele>1213</ele>
        <time>2000-01-01T04:12:32.000Z</time>
      </trkpt>
      <trkpt lat="46.44946" lon="5.9882">
        <ele>1212</ele>
        <time>2000-01-01T04:12:42.000Z</time>
      </trkpt>
      <trkpt lat="46.44983" lon="5.98832">
        <ele>1213</ele>
        <time>2000-01-01T04:12:52.000Z</time>
      </trkpt>
      <trkpt lat="46.44998" lon="5.98866">
        <ele>1211</ele>
        <time>2000-01-01T04:13:02.000Z</time>
      </trkpt>
      <trkpt lat="46.45021" lon="5.98916">
        <ele>1209</ele>
        <time>2000-01-01T04:13:12.000Z</time>
      </trkpt>
      <trkpt lat="46.4502" lon="5.98963">
        <ele>1207</ele>
        <time>2000-01-01T04:13:22.000Z</time>
      </trkpt>
      <trkpt lat="46.45019" lon="5.99011">
        <ele>1207</ele>
        <time>2000-01-01T04:13:32.000Z</time>
      </trkpt>
      <trkpt lat="46.45019" lon="5.99045">
        <ele>1208</ele>
        <time>2000-01-01T04:13:42.000Z</time>
      </trkpt>
      <trkpt lat="46.45018" lon="5.99079">
        <ele>1218</ele>
        <time>2000-01-01T04:13:52.000Z</time>
      </trkpt>
      <trkpt lat="46.45036" lon="5.991">
        <ele>1218</ele>
        <time>2000-01-01T04:14:02.000Z</time>
      </trkpt>
      <trkpt lat="46.45055" lon="5.99122">
        <ele>1217</ele>
        <time>2000-01-01T04:14:12.000Z</time>
      </trkpt>
      <trkpt lat="46.45078" lon="5.99143">
        <ele>1219</ele>
        <time>2000-01-01T04:14:22.000Z</time>
      </trkpt>
      <trkpt lat="46.45113" lon="5.99175">
        <ele>1222</ele>
        <time>2000-01-01T04:14:32.000Z</time>
      </trkpt>
      <trkpt lat="46.45117" lon="5.99214">
        <ele>1227</ele>
        <time>2000-01-01T04:14:42.000Z</time>
      </trkpt>
      <trkpt lat="46.45123" lon="5.9927">
        <ele>1225</ele>
        <time>2000-01-01T04:14:52.000Z</time>
      </trkpt>
      <trkpt lat="46.45157" lon="5.99315">
        <ele>1233</ele>
        <time>2000-01-01T04:15:02.000Z</time>
      </trkpt>
      <trkpt lat="46.45164" lon="5.9935">
        <ele>1242</ele>
        <time>2000-01-01T04:15:12.000Z</time>
      </trkpt>
      <trkpt lat="46.45173" lon="5.99394">
        <ele>1243</ele>
        <time>2000-01-01T04:15:22.000Z</time>
      </trkpt>
      <trkpt lat="46.45198" lon="5.99411">
        <ele>1257</ele>
        <time>2000-01-01T04:15:32.000Z</time>
      </trkpt>
      <trkpt lat="46.45232" lon="5.99435">
        <ele>1255</ele>
        <time>2000-01-01T04:15:42.000Z</time>
      </trkpt>
      <trkpt lat="46.45252" lon="5.99465">
        <ele>1259</ele>
        <time>2000-01-01T04:15:52.000Z</time>
      </trkpt>
      <trkpt lat="46.45283" lon="5.99512">
        <ele>1263</ele>
        <time>2000-01-01T04:16:02.000Z</time>
      </trkpt>
      <trkpt lat="46.45316" lon="5.99528">
        <ele>1260</ele>
        <time>2000-01-01T04:16:12.000Z</time>
      </trkpt>
      <trkpt lat="46.4535" lon="5.99544">
        <ele>1257</ele>
        <time>2000-01-01T04:16:22.000Z</time>
      </trkpt>
      <trkpt lat="46.45383" lon="5.9956">
        <ele>1256</ele>
        <time>2000-01-01T04:16:32.000Z</time>
      </trkpt>
      <trkpt lat="46.45423" lon="5.99579">
        <ele>1256</ele>
        <time>2000-01-01T04:16:42.000Z</time>
      </trkpt>
      <trkpt lat="46.45459" lon="5.99613">
        <ele>1257</ele>
        <time>2000-01-01T04:16:52.000Z</time>
      </trkpt>
      <trkpt lat="46.45483" lon="5.99631">
        <ele>1258</ele>
        <time>2000-01-01T04:17:02.000Z</time>
      </trkpt>
      <trkpt lat="46.45519" lon="5.99658">
        <ele>1260</ele>
        <time>2000-01-01T04:17:12.000Z</time>
      </trkpt>
      <trkpt lat="46.45553" lon="5.99686">
        <ele>1261</ele>
        <time>2000-01-01T04:17:22.000Z</time>
      </trkpt>
      <trkpt lat="46.45577" lon="5.99686">
        <ele>1262</ele>
        <time>2000-01-01T04:17:32.000Z</time>
      </trkpt>
      <trkpt lat="46.45582" lon="5.9973">
        <ele>1264</ele>
        <time>2000-01-01T04:17:42.000Z</time>
      </trkpt>
      <trkpt lat="46.45586" lon="5.99766">
        <ele>1264</ele>
        <time>2000-01-01T04:17:52.000Z</time>
      </trkpt>
      <trkpt lat="46.45592" lon="5.99813">
        <ele>1265</ele>
        <time>2000-01-01T04:18:02.000Z</time>
      </trkpt>
      <trkpt lat="46.45613" lon="5.99827">
        <ele>1266</ele>
        <time>2000-01-01T04:18:12.000Z</time>
      </trkpt>
      <trkpt lat="46.45636" lon="5.99843">
        <ele>1274</ele>
        <time>2000-01-01T04:18:22.000Z</time>
      </trkpt>
      <trkpt lat="46.45669" lon="5.99845">
        <ele>1270</ele>
        <time>2000-01-01T04:18:32.000Z</time>
      </trkpt>
      <trkpt lat="46.45703" lon="5.99846">
        <ele>1267</ele>
        <time>2000-01-01T04:18:42.000Z</time>
      </trkpt>
      <trkpt lat="46.45727" lon="5.99848">
        <ele>1263</ele>
        <time>2000-01-01T04:18:52.000Z</time>
      </trkpt>
      <trkpt lat="46.45754" lon="5.99849">
        <ele>1259</ele>
        <time>2000-01-01T04:19:02.000Z</time>
      </trkpt>
      <trkpt lat="46.45745" lon="5.99907">
        <ele>1253</ele>
        <time>2000-01-01T04:19:12.000Z</time>
      </trkpt>
      <trkpt lat="46.45775" lon="5.99908">
        <ele>1248</ele>
        <time>2000-01-01T04:19:22.000Z</time>
      </trkpt>
      <trkpt lat="46.45798" lon="5.99909">
        <ele>1248</ele>
        <time>2000-01-01T04:19:32.000Z</time>
      </trkpt>
      <trkpt lat="46.45824" lon="5.99909">
        <ele>1266</ele>
        <time>2000-01-01T04:19:42.000Z</time>
      </trkpt>
      <trkpt lat="46.45852" lon="5.99938">
        <ele>1272</ele>
        <time>2000-01-01T04:19:52.000Z</time>
      </trkpt>
      <trkpt lat="46.45879" lon="5.99966">
        <ele>1279</ele>
        <time>2000-01-01T04:20:02.000Z</time>
      </trkpt>
      <trkpt lat="46.45901" lon="5.99988">
        <ele>1285</ele>
        <time>2000-01-01T04:20:12.000Z</time>
      </trkpt>
      <trkpt lat="46.45929" lon="6.00017">
        <ele>1281</ele>
        <time>2000-01-01T04:20:22.000Z</time>
      </trkpt>
      <trkpt lat="46.45972" lon="6.00012">
        <ele>1278</ele>
        <time>2000-01-01T04:20:32.000Z</time>
      </trkpt>
      <trkpt lat="46.4598" lon="6.00047">
        <ele>1275</ele>
        <time>2000-01-01T04:20:42.000Z</time>
      </trkpt>
      <trkpt lat="46.45991" lon="6.00087">
        <ele>1275</ele>
        <time>2000-01-01T04:20:52.000Z</time>
      </trkpt>
      <trkpt lat="46.46035" lon="6.0007">
        <ele>1278</ele>
        <time>2000-01-01T04:21:02.000Z</time>
      </trkpt>
      <trkpt lat="46.46059" lon="6.00088">
        <ele>1278</ele>
        <time>2000-01-01T04:21:12.000Z</time>
      </trkpt>
      <trkpt lat="46.46091" lon="6.00113">
        <ele>1284</ele>
        <time>2000-01-01T04:21:22.000Z</time>
      </trkpt>
      <trkpt lat="46.46113" lon="6.0013">
        <ele>1287</ele>
        <time>2000-01-01T04:21:32.000Z</time>
      </trkpt>
      <trkpt lat="46.46137" lon="6.0015">
        <ele>1291</ele>
        <time>2000-01-01T04:21:42.000Z</time>
      </trkpt>
      <trkpt lat="46.46139" lon="6.00184">
        <ele>1293</ele>
        <time>2000-01-01T04:21:52.000Z</time>
      </trkpt>
      <trkpt lat="46.4614" lon="6.0022">
        <ele>1288</ele>
        <time>2000-01-01T04:22:02.000Z</time>
      </trkpt>
      <trkpt lat="46.4617" lon="6.00244">
        <ele>1288</ele>
        <time>2000-01-01T04:22:12.000Z</time>
      </trkpt>
      <trkpt lat="46.46185" lon="6.00218">
        <ele>1286</ele>
        <time>2000-01-01T04:22:22.000Z</time>
      </trkpt>
      <trkpt lat="46.46201" lon="6.0019">
        <ele>1285</ele>
        <time>2000-01-01T04:22:32.000Z</time>
      </trkpt>
      <trkpt lat="46.46225" lon="6.00192">
        <ele>1281</ele>
        <time>2000-01-01T04:22:42.000Z</time>
      </trkpt>
      <trkpt lat="46.46252" lon="6.00195">
        <ele>1281</ele>
        <time>2000-01-01T04:22:52.000Z</time>
      </trkpt>
      <trkpt lat="46.46228" lon="6.00193">
        <ele>1281</ele>
        <time>2000-01-01T04:23:02.000Z</time>
      </trkpt>
      <trkpt lat="46.46201" lon="6.0019">
        <ele>1285</ele>
        <time>2000-01-01T04:23:12.000Z</time>
      </trkpt>
      <trkpt lat="46.46185" lon="6.00217">
        <ele>1284</ele>
        <time>2000-01-01T04:23:22.000Z</time>
      </trkpt>
      <trkpt lat="46.4617" lon="6.00244">
        <ele>1289</ele>
        <time>2000-01-01T04:23:32.000Z</time>
      </trkpt>
      <trkpt lat="46.4614" lon="6.0022">
        <ele>1291</ele>
        <time>2000-01-01T04:23:42.000Z</time>
      </trkpt>
      <trkpt lat="46.46139" lon="6.00186">
        <ele>1291</ele>
        <time>2000-01-01T04:23:52.000Z</time>
      </trkpt>
      <trkpt lat="46.46137" lon="6.0015">
        <ele>1291</ele>
        <time>2000-01-01T04:24:02.000Z</time>
      </trkpt>
      <trkpt lat="46.46113" lon="6.0013">
        <ele>1287</ele>
        <time>2000-01-01T04:24:12.000Z</time>
      </trkpt>
      <trkpt lat="46.46076" lon="6.00101">
        <ele>1284</ele>
        <time>2000-01-01T04:24:22.000Z</time>
      </trkpt>
      <trkpt lat="46.46035" lon="6.0007">
        <ele>1278</ele>
        <time>2000-01-01T04:24:32.000Z</time>
      </trkpt>
      <trkpt lat="46.45991" lon="6.00087">
        <ele>1275</ele>
        <time>2000-01-01T04:24:42.000Z</time>
      </trkpt>
      <trkpt lat="46.45982" lon="6.00053">
        <ele>1276</ele>
        <time>2000-01-01T04:24:52.000Z</time>
      </trkpt>
      <trkpt lat="46.45972" lon="6.00012">
        <ele>1278</ele>
        <time>2000-01-01T04:25:02.000Z</time>
      </trkpt>
      <trkpt lat="46.45929" lon="6.00017">
        <ele>1292</ele>
        <time>2000-01-01T04:25:12.000Z</time>
      </trkpt>
      <trkpt lat="46.45901" lon="5.99988">
        <ele>1291</ele>
        <time>2000-01-01T04:25:22.000Z</time>
      </trkpt>
      <trkpt lat="46.45873" lon="5.9996">
        <ele>1291</ele>
        <time>2000-01-01T04:25:32.000Z</time>
      </trkpt>
      <trkpt lat="46.45851" lon="5.99938">
        <ele>1291</ele>
        <time>2000-01-01T04:25:42.000Z</time>
      </trkpt>
      <trkpt lat="46.45824" lon="5.99909">
        <ele>1266</ele>
        <time>2000-01-01T04:25:52.000Z</time>
      </trkpt>
      <trkpt lat="46.45795" lon="5.99908">
        <ele>1248</ele>
        <time>2000-01-01T04:26:02.000Z</time>
      </trkpt>
      <trkpt lat="46.45771" lon="5.99908">
        <ele>1248</ele>
        <time>2000-01-01T04:26:12.000Z</time>
      </trkpt>
      <trkpt lat="46.45745" lon="5.99907">
        <ele>1253</ele>
        <time>2000-01-01T04:26:22.000Z</time>
      </trkpt>
      <trkpt lat="46.45754" lon="5.99849">
        <ele>1255</ele>
        <time>2000-01-01T04:26:32.000Z</time>
      </trkpt>
      <trkpt lat="46.45721" lon="5.99847">
        <ele>1258</ele>
        <time>2000-01-01T04:26:42.000Z</time>
      </trkpt>
      <trkpt lat="46.45688" lon="5.99846">
        <ele>1276</ele>
        <time>2000-01-01T04:26:52.000Z</time>
      </trkpt>
      <trkpt lat="46.45663" lon="5.99844">
        <ele>1276</ele>
        <time>2000-01-01T04:27:02.000Z</time>
      </trkpt>
      <trkpt lat="46.45636" lon="5.99843">
        <ele>1274</ele>
        <time>2000-01-01T04:27:12.000Z</time>
      </trkpt>
      <trkpt lat="46.45614" lon="5.99828">
        <ele>1266</ele>
        <time>2000-01-01T04:27:22.000Z</time>
      </trkpt>
      <trkpt lat="46.45592" lon="5.99813">
        <ele>1265</ele>
        <time>2000-01-01T04:27:32.000Z</time>
      </trkpt>
      <trkpt lat="46.45573" lon="5.99837">
        <ele>1264</ele>
        <time>2000-01-01T04:27:42.000Z</time>
      </trkpt>
      <trkpt lat="46.45552" lon="5.99866">
        <ele>1266</ele>
        <time>2000-01-01T04:27:52.000Z</time>
      </trkpt>
      <trkpt lat="46.45522" lon="5.99872">
        <ele>1266</ele>
        <time>2000-01-01T04:28:02.000Z</time>
      </trkpt>
      <trkpt lat="46.45498" lon="5.99876">
        <ele>1263</ele>
        <time>2000-01-01T04:28:12.000Z</time>
      </trkpt>
      <trkpt lat="46.4547" lon="5.99881">
        <ele>1261</ele>
        <time>2000-01-01T04:28:22.000Z</time>
      </trkpt>
      <trkpt lat="46.45445" lon="5.99903">
        <ele>1259</ele>
        <time>2000-01-01T04:28:32.000Z</time>
      </trkpt>
      <trkpt lat="46.45425" lon="5.99922">
        <ele>1263</ele>
        <time>2000-01-01T04:28:42.000Z</time>
      </trkpt>
      <trkpt lat="46.45402" lon="5.99941">
        <ele>1268</ele>
        <time>2000-01-01T04:28:52.000Z</time>
      </trkpt>
      <trkpt lat="46.4538" lon="5.99959">
        <ele>1264</ele>
        <time>2000-01-01T04:29:02.000Z</time>
      </trkpt>
      <trkpt lat="46.45351" lon="5.99982">
        <ele>1261</ele>
        <time>2000-01-01T04:29:12.000Z</time>
      </trkpt>
      <trkpt lat="46.45349" lon="6.00038">
        <ele>1261</ele>
        <time>2000-01-01T04:29:22.000Z</time>
      </trkpt>
      <trkpt lat="46.45372" lon="6.00051">
        <ele>1256</ele>
        <time>2000-01-01T04:29:32.000Z</time>
      </trkpt>
      <trkpt lat="46.45399" lon="6.00066">
        <ele>1254</ele>
        <time>2000-01-01T04:29:42.000Z</time>
      </trkpt>
      <trkpt lat="46.45409" lon="6.00098">
        <ele>1253</ele>
        <time>2000-01-01T04:29:52.000Z</time>
      </trkpt>
      <trkpt lat="46.4542" lon="6.00135">
        <ele>1247</ele>
        <time>2000-01-01T04:30:02.000Z</time>
      </trkpt>
      <trkpt lat="46.45435" lon="6.00162">
        <ele>1242</ele>
        <time>2000-01-01T04:30:12.000Z</time>
      </trkpt>
      <trkpt lat="46.45451" lon="6.0019">
        <ele>1237</ele>
        <time>2000-01-01T04:30:22.000Z</time>
      </trkpt>
      <trkpt lat="46.45487" lon="6.00218">
        <ele>1228</ele>
        <time>2000-01-01T04:30:32.000Z</time>
      </trkpt>
      <trkpt lat="46.455" lon="6.00189">
        <ele>1224</ele>
        <time>2000-01-01T04:30:42.000Z</time>
      </trkpt>
      <trkpt lat="46.45513" lon="6.00158">
        <ele>1221</ele>
        <time>2000-01-01T04:30:52.000Z</time>
      </trkpt>
      <trkpt lat="46.45506" lon="6.00098">
        <ele>1217</ele>
        <time>2000-01-01T04:31:02.000Z</time>
      </trkpt>
      <trkpt lat="46.45528" lon="6.00083">
        <ele>1201</ele>
        <time>2000-01-01T04:31:12.000Z</time>
      </trkpt>
      <trkpt lat="46.45553" lon="6.00066">
        <ele>1188</ele>
        <time>2000-01-01T04:31:22.000Z</time>
      </trkpt>
      <trkpt lat="46.45577" lon="6.00078">
        <ele>1180</ele>
        <time>2000-01-01T04:31:32.000Z</time>
      </trkpt>
      <trkpt lat="46.45606" lon="6.00092">
        <ele>1176</ele>
        <time>2000-01-01T04:31:42.000Z</time>
      </trkpt>
      <trkpt lat="46.45623" lon="6.00128">
        <ele>1172</ele>
        <time>2000-01-01T04:31:52.000Z</time>
      </trkpt>
      <trkpt lat="46.45636" lon="6.00157">
        <ele>1171</ele>
        <time>2000-01-01T04:32:02.000Z</time>
      </trkpt>
      <trkpt lat="46.45651" lon="6.0019">
        <ele>1167</ele>
        <time>2000-01-01T04:32:12.000Z</time>
      </trkpt>
      <trkpt lat="46.45667" lon="6.00229">
        <ele>1165</ele>
        <time>2000-01-01T04:32:22.000Z</time>
      </trkpt>
      <trkpt lat="46.45684" lon="6.00268">
        <ele>1160</ele>
        <time>2000-01-01T04:32:32.000Z</time>
      </trkpt>
      <trkpt lat="46.45702" lon="6.00311">
        <ele>1157</ele>
        <time>2000-01-01T04:32:42.000Z</time>
      </trkpt>
      <trkpt lat="46.45719" lon="6.00339">
        <ele>1156</ele>
        <time>2000-01-01T04:32:52.000Z</time>
      </trkpt>
      <trkpt lat="46.45738" lon="6.00373">
        <ele>1156</ele>
        <time>2000-01-01T04:33:02.000Z</time>
      </trkpt>
      <trkpt lat="46.45752" lon="6.00402">
        <ele>1150</ele>
        <time>2000-01-01T04:33:12.000Z</time>
      </trkpt>
      <trkpt lat="46.45768" lon="6.00435">
        <ele>1144</ele>
        <time>2000-01-01T04:33:22.000Z</time>
      </trkpt>
      <trkpt lat="46.4578" lon="6.00465">
        <ele>1139</ele>
        <time>2000-01-01T04:33:32.000Z</time>
      </trkpt>
      <trkpt lat="46.45794" lon="6.00499">
        <ele>1139</ele>
        <time>2000-01-01T04:33:42.000Z</time>
      </trkpt>
      <trkpt lat="46.4581" lon="6.00539">
        <ele>1139</ele>
        <time>2000-01-01T04:33:52.000Z</time>
      </trkpt>
      <trkpt lat="46.45825" lon="6.00579">
        <ele>1140</ele>
        <time>2000-01-01T04:34:02.000Z</time>
      </trkpt>
      <trkpt lat="46.45843" lon="6.00624">
        <ele>1139</ele>
        <time>2000-01-01T04:34:12.000Z</time>
      </trkpt>
      <trkpt lat="46.45863" lon="6.00647">
        <ele>1138</ele>
        <time>2000-01-01T04:34:22.000Z</time>
      </trkpt>
      <trkpt lat="46.45889" lon="6.00675">
        <ele>1139</ele>
        <time>2000-01-01T04:34:32.000Z</time>
      </trkpt>
      <trkpt lat="46.45905" lon="6.00704">
        <ele>1136</ele>
        <time>2000-01-01T04:34:42.000Z</time>
      </trkpt>
      <trkpt lat="46.45924" lon="6.0074">
        <ele>1140</ele>
        <time>2000-01-01T04:34:52.000Z</time>
      </trkpt>
      <trkpt lat="46.45938" lon="6.00769">
        <ele>1137</ele>
        <time>2000-01-01T04:35:02.000Z</time>
      </trkpt>
      <trkpt lat="46.45954" lon="6.00802">
        <ele>1135</ele>
        <time>2000-01-01T04:35:12.000Z</time>
      </trkpt>
      <trkpt lat="46.4597" lon="6.00835">
        <ele>1131</ele>
        <time>2000-01-01T04:35:22.000Z</time>
      </trkpt>
      <trkpt lat="46.45997" lon="6.00888">
        <ele>1127</ele>
        <time>2000-01-01T04:35:32.000Z</time>
      </trkpt>
      <trkpt lat="46.46004" lon="6.00926">
        <ele>1125</ele>
        <time>2000-01-01T04:35:42.000Z</time>
      </trkpt>
      <trkpt lat="46.46038" lon="6.00939">
        <ele>1116</ele>
        <time>2000-01-01T04:35:52.000Z</time>
      </trkpt>
      <trkpt lat="46.46059" lon="6.00991">
        <ele>1102</ele>
        <time>2000-01-01T04:36:02.000Z</time>
      </trkpt>
      <trkpt lat="46.46039" lon="6.01035">
        <ele>1088</ele>
        <time>2000-01-01T04:36:12.000Z</time>
      </trkpt>
      <trkpt lat="46.4602" lon="6.01079">
        <ele>1088</ele>
        <time>2000-01-01T04:36:22.000Z</time>
      </trkpt>
      <trkpt lat="46.46" lon="6.01124">
        <ele>1089</ele>
        <time>2000-01-01T04:36:32.000Z</time>
      </trkpt>
      <trkpt lat="46.45986" lon="6.01155">
        <ele>1088</ele>
        <time>2000-01-01T04:36:42.000Z</time>
      </trkpt>
      <trkpt lat="46.45969" lon="6.01195">
        <ele>1088</ele>
        <time>2000-01-01T04:36:52.000Z</time>
      </trkpt>
      <trkpt lat="46.4599" lon="6.01234">
        <ele>1093</ele>
        <time>2000-01-01T04:37:02.000Z</time>
      </trkpt>
      <trkpt lat="46.46011" lon="6.01273">
        <ele>1091</ele>
        <time>2000-01-01T04:37:12.000Z</time>
      </trkpt>
      <trkpt lat="46.46028" lon="6.01304">
        <ele>1091</ele>
        <time>2000-01-01T04:37:22.000Z</time>
      </trkpt>
      <trkpt lat="46.46051" lon="6.01347">
        <ele>1091</ele>
        <time>2000-01-01T04:37:32.000Z</time>
      </trkpt>
      <trkpt lat="46.46072" lon="6.01391">
        <ele>1096</ele>
        <time>2000-01-01T04:37:42.000Z</time>
      </trkpt>
      <trkpt lat="46.46093" lon="6.01435">
        <ele>1096</ele>
        <time>2000-01-01T04:37:52.000Z</time>
      </trkpt>
      <trkpt lat="46.46114" lon="6.01479">
        <ele>1096</ele>
        <time>2000-01-01T04:38:02.000Z</time>
      </trkpt>
      <trkpt lat="46.46129" lon="6.01512">
        <ele>1098</ele>
        <time>2000-01-01T04:38:12.000Z</time>
      </trkpt>
      <trkpt lat="46.46152" lon="6.01559">
        <ele>1101</ele>
        <time>2000-01-01T04:38:22.000Z</time>
      </trkpt>
      <trkpt lat="46.46162" lon="6.01591">
        <ele>1107</ele>
        <time>2000-01-01T04:38:32.000Z</time>
      </trkpt>
      <trkpt lat="46.46173" lon="6.01626">
        <ele>1109</ele>
        <time>2000-01-01T04:38:42.000Z</time>
      </trkpt>
      <trkpt lat="46.46204" lon="6.01658">
        <ele>1112</ele>
        <time>2000-01-01T04:38:52.000Z</time>
      </trkpt>
      <trkpt lat="46.46206" lon="6.01692">
        <ele>1111</ele>
        <time>2000-01-01T04:39:02.000Z</time>
      </trkpt>
      <trkpt lat="46.46208" lon="6.01727">
        <ele>1111</ele>
        <time>2000-01-01T04:39:12.000Z</time>
      </trkpt>
      <trkpt lat="46.46198" lon="6.01776">
        <ele>1109</ele>
        <time>2000-01-01T04:39:22.000Z</time>
      </trkpt>
      <trkpt lat="46.46232" lon="6.01802">
        <ele>1109</ele>
        <time>2000-01-01T04:39:32.000Z</time>
      </trkpt>
      <trkpt lat="46.46246" lon="6.01855">
        <ele>1109</ele>
        <time>2000-01-01T04:39:42.000Z</time>
      </trkpt>
      <trkpt lat="46.46273" lon="6.01851">
        <ele>1109</ele>
        <time>2000-01-01T04:39:52.000Z</time>
      </trkpt>
      <trkpt lat="46.46309" lon="6.01845">
        <ele>1113</ele>
        <time>2000-01-01T04:40:02.000Z</time>
      </trkpt>
      <trkpt lat="46.46325" lon="6.01907">
        <ele>1117</ele>
        <time>2000-01-01T04:40:12.000Z</time>
      </trkpt>
      <trkpt lat="46.46314" lon="6.01937">
        <ele>1122</ele>
        <time>2000-01-01T04:40:22.000Z</time>
      </trkpt>
      <trkpt lat="46.46303" lon="6.01969">
        <ele>1123</ele>
        <time>2000-01-01T04:40:32.000Z</time>
      </trkpt>
      <trkpt lat="46.46298" lon="6.02003">
        <ele>1126</ele>
        <time>2000-01-01T04:40:42.000Z</time>
      </trkpt>
      <trkpt lat="46.46292" lon="6.0204">
        <ele>1128</ele>
        <time>2000-01-01T04:40:52.000Z</time>
      </trkpt>
      <trkpt lat="46.46287" lon="6.02083">
        <ele>1131</ele>
        <time>2000-01-01T04:41:02.000Z</time>
      </trkpt>
      <trkpt lat="46.46283" lon="6.02118">
        <ele>1127</ele>
        <time>2000-01-01T04:41:12.000Z</time>
      </trkpt>
      <trkpt lat="46.46277" lon="6.0216">
        <ele>1123</ele>
        <time>2000-01-01T04:41:22.000Z</time>
      </trkpt>
      <trkpt lat="46.4627" lon="6.02197">
        <ele>1117</ele>
        <time>2000-01-01T04:41:32.000Z</time>
      </trkpt>
      <trkpt lat="46.4626" lon="6.02246">
        <ele>1108</ele>
        <time>2000-01-01T04:41:42.000Z</time>
      </trkpt>
      <trkpt lat="46.4625" lon="6.02278">
        <ele>1108</ele>
        <time>2000-01-01T04:41:52.000Z</time>
      </trkpt>
      <trkpt lat="46.46241" lon="6.0231">
        <ele>1108</ele>
        <time>2000-01-01T04:42:02.000Z</time>
      </trkpt>
      <trkpt lat="46.46246" lon="6.02343">
        <ele>1108</ele>
        <time>2000-01-01T04:42:12.000Z</time>
      </trkpt>
      <trkpt lat="46.46252" lon="6.02377">
        <ele>1110</ele>
        <time>2000-01-01T04:42:22.000Z</time>
      </trkpt>
      <trkpt lat="46.46232" lon="6.02431">
        <ele>1110</ele>
        <time>2000-01-01T04:42:32.000Z</time>
      </trkpt>
      <trkpt lat="46.46233" lon="6.02478">
        <ele>1110</ele>
        <time>2000-01-01T04:42:42.000Z</time>
      </trkpt>
      <trkpt lat="46.46214" lon="6.02498">
        <ele>1112</ele>
        <time>2000-01-01T04:42:52.000Z</time>
      </trkpt>
      <trkpt lat="46.46193" lon="6.02518">
        <ele>1125</ele>
        <time>2000-01-01T04:43:02.000Z</time>
      </trkpt>
      <trkpt lat="46.46181" lon="6.02572">
        <ele>1140</ele>
        <time>2000-01-01T04:43:12.000Z</time>
      </trkpt>
      <trkpt lat="46.46181" lon="6.02639">
        <ele>1150</ele>
        <time>2000-01-01T04:43:22.000Z</time>
      </trkpt>
      <trkpt lat="46.46181" lon="6.02676">
        <ele>1145</ele>
        <time>2000-01-01T04:43:32.000Z</time>
      </trkpt>
      <trkpt lat="46.4618" lon="6.02725">
        <ele>1141</ele>
        <time>2000-01-01T04:43:42.000Z</time>
      </trkpt>
      <trkpt lat="46.46179" lon="6.02765">
        <ele>1136</ele>
        <time>2000-01-01T04:43:52.000Z</time>
      </trkpt>
      <trkpt lat="46.46178" lon="6.02827">
        <ele>1129</ele>
        <time>2000-01-01T04:44:02.000Z</time>
      </trkpt>
      <trkpt lat="46.46181" lon="6.02862">
        <ele>1126</ele>
        <time>2000-01-01T04:44:12.000Z</time>
      </trkpt>
      <trkpt lat="46.46183" lon="6.02898">
        <ele>1125</ele>
        <time>2000-01-01T04:44:22.000Z</time>
      </trkpt>
      <trkpt lat="46.46166" lon="6.02931">
        <ele>1128</ele>
        <time>2000-01-01T04:44:32.000Z</time>
      </trkpt>
      <trkpt lat="46.46142" lon="6.0298">
        <ele>1132</ele>
        <time>2000-01-01T04:44:42.000Z</time>
      </trkpt>
      <trkpt lat="46.46164" lon="6.03005">
        <ele>1134</ele>
        <time>2000-01-01T04:44:52.000Z</time>
      </trkpt>
      <trkpt lat="46.46198" lon="6.03044">
        <ele>1135</ele>
        <time>2000-01-01T04:45:02.000Z</time>
      </trkpt>
      <trkpt lat="46.46219" lon="6.03073">
        <ele>1136</ele>
        <time>2000-01-01T04:45:12.000Z</time>
      </trkpt>
      <trkpt lat="46.46237" lon="6.03097">
        <ele>1136</ele>
        <time>2000-01-01T04:45:22.000Z</time>
      </trkpt>
      <trkpt lat="46.46257" lon="6.03124">
        <ele>1131</ele>
        <time>2000-01-01T04:45:32.000Z</time>
      </trkpt>
      <trkpt lat="46.46288" lon="6.03122">
        <ele>1131</ele>
        <time>2000-01-01T04:45:42.000Z</time>
      </trkpt>
      <trkpt lat="46.4631" lon="6.03153">
        <ele>1131</ele>
        <time>2000-01-01T04:45:52.000Z</time>
      </trkpt>
      <trkpt lat="46.46332" lon="6.03184">
        <ele>1130</ele>
        <time>2000-01-01T04:46:02.000Z</time>
      </trkpt>
      <trkpt lat="46.46354" lon="6.03216">
        <ele>1130</ele>
        <time>2000-01-01T04:46:12.000Z</time>
      </trkpt>
      <trkpt lat="46.4638" lon="6.03226">
        <ele>1126</ele>
        <time>2000-01-01T04:46:22.000Z</time>
      </trkpt>
      <trkpt lat="46.46415" lon="6.03239">
        <ele>1121</ele>
        <time>2000-01-01T04:46:32.000Z</time>
      </trkpt>
      <trkpt lat="46.46442" lon="6.03274">
        <ele>1108</ele>
        <time>2000-01-01T04:46:42.000Z</time>
      </trkpt>
      <trkpt lat="46.46468" lon="6.03277">
        <ele>1106</ele>
        <time>2000-01-01T04:46:52.000Z</time>
      </trkpt>
      <trkpt lat="46.46501" lon="6.0328">
        <ele>1106</ele>
        <time>2000-01-01T04:47:02.000Z</time>
      </trkpt>
      <trkpt lat="46.4653" lon="6.0333">
        <ele>1107</ele>
        <time>2000-01-01T04:47:12.000Z</time>
      </trkpt>
      <trkpt lat="46.46523" lon="6.03365">
        <ele>1107</ele>
        <time>2000-01-01T04:47:22.000Z</time>
      </trkpt>
      <trkpt lat="46.46514" lon="6.03407">
        <ele>1108</ele>
        <time>2000-01-01T04:47:32.000Z</time>
      </trkpt>
      <trkpt lat="46.46532" lon="6.03442">
        <ele>1109</ele>
        <time>2000-01-01T04:47:42.000Z</time>
      </trkpt>
      <trkpt lat="46.46547" lon="6.03473">
        <ele>1109</ele>
        <time>2000-01-01T04:47:52.000Z</time>
      </trkpt>
      <trkpt lat="46.46566" lon="6.0351">
        <ele>1112</ele>
        <time>2000-01-01T04:48:02.000Z</time>
      </trkpt>
      <trkpt lat="46.46585" lon="6.03541">
        <ele>1114</ele>
        <time>2000-01-01T04:48:12.000Z</time>
      </trkpt>
      <trkpt lat="46.466" lon="6.03566">
        <ele>1114</ele>
        <time>2000-01-01T04:48:22.000Z</time>
      </trkpt>
      <trkpt lat="46.46616" lon="6.03591">
        <ele>1115</ele>
        <time>2000-01-01T04:48:32.000Z</time>
      </trkpt>
      <trkpt lat="46.46634" lon="6.03626">
        <ele>1113</ele>
        <time>2000-01-01T04:48:42.000Z</time>
      </trkpt>
      <trkpt lat="46.46648" lon="6.03654">
        <ele>1111</ele>
        <time>2000-01-01T04:48:52.000Z</time>
      </trkpt>
      <trkpt lat="46.46665" lon="6.03686">
        <ele>1108</ele>
        <time>2000-01-01T04:49:02.000Z</time>
      </trkpt>
      <trkpt lat="46.46697" lon="6.03708">
        <ele>1103</ele>
        <time>2000-01-01T04:49:12.000Z</time>
      </trkpt>
      <trkpt lat="46.46729" lon="6.0373">
        <ele>1100</ele>
        <time>2000-01-01T04:49:22.000Z</time>
      </trkpt>
      <trkpt lat="46.46761" lon="6.03752">
        <ele>1094</ele>
        <time>2000-01-01T04:49:32.000Z</time>
      </trkpt>
      <trkpt lat="46.46799" lon="6.03778">
        <ele>1101</ele>
        <time>2000-01-01T04:49:42.000Z</time>
      </trkpt>
      <trkpt lat="46.46825" lon="6.03794">
        <ele>1108</ele>
        <time>2000-01-01T04:49:52.000Z</time>
      </trkpt>
      <trkpt lat="46.46863" lon="6.03819">
        <ele>1108</ele>
        <time>2000-01-01T04:50:02.000Z</time>
      </trkpt>
      <trkpt lat="46.46896" lon="6.03829">
        <ele>1093</ele>
        <time>2000-01-01T04:50:12.000Z</time>
      </trkpt>
      <trkpt lat="46.4693" lon="6.03839">
        <ele>1088</ele>
        <time>2000-01-01T04:50:22.000Z</time>
      </trkpt>
      <trkpt lat="46.46956" lon="6.03847">
        <ele>1076</ele>
        <time>2000-01-01T04:50:32.000Z</time>
      </trkpt>
      <trkpt lat="46.46991" lon="6.03858">
        <ele>1067</ele>
        <time>2000-01-01T04:50:42.000Z</time>
      </trkpt>
      <trkpt lat="46.47027" lon="6.03873">
        <ele>1057</ele>
        <time>2000-01-01T04:50:52.000Z</time>
      </trkpt>
      <trkpt lat="46.47064" lon="6.03888">
        <ele>1044</ele>
        <time>2000-01-01T04:51:02.000Z</time>
      </trkpt>
      <trkpt lat="46.471" lon="6.03904">
        <ele>1034</ele>
        <time>2000-01-01T04:51:12.000Z</time>
      </trkpt>
      <trkpt lat="46.47136" lon="6.03919">
        <ele>1030</ele>
        <time>2000-01-01T04:51:22.000Z</time>
      </trkpt>
      <trkpt lat="46.47158" lon="6.03929">
        <ele>1030</ele>
        <time>2000-01-01T04:51:32.000Z</time>
      </trkpt>
      <trkpt lat="46.47182" lon="6.03939">
        <ele>1025</ele>
        <time>2000-01-01T04:51:42.000Z</time>
      </trkpt>
      <trkpt lat="46.47154" lon="6.03961">
        <ele>1022</ele>
        <time>2000-01-01T04:51:52.000Z</time>
      </trkpt>
      <trkpt lat="46.47126" lon="6.03982">
        <ele>1022</ele>
        <time>2000-01-01T04:52:02.000Z</time>
      </trkpt>
      <trkpt lat="46.47093" lon="6.04008">
        <ele>1021</ele>
        <time>2000-01-01T04:52:12.000Z</time>
      </trkpt>
      <trkpt lat="46.4707" lon="6.04044">
        <ele>1021</ele>
        <time>2000-01-01T04:52:22.000Z</time>
      </trkpt>
      <trkpt lat="46.47048" lon="6.04081">
        <ele>1027</ele>
        <time>2000-01-01T04:52:32.000Z</time>
      </trkpt>
      <trkpt lat="46.47035" lon="6.04124">
        <ele>1034</ele>
        <time>2000-01-01T04:52:42.000Z</time>
      </trkpt>
      <trkpt lat="46.47014" lon="6.04136">
        <ele>1041</ele>
        <time>2000-01-01T04:52:52.000Z</time>
      </trkpt>
      <trkpt lat="46.4701" lon="6.04108">
        <ele>1038</ele>
        <time>2000-01-01T04:53:02.000Z</time>
      </trkpt>
      <trkpt lat="46.4702" lon="6.04085">
        <ele>1042</ele>
        <time>2000-01-01T04:53:12.000Z</time>
      </trkpt>
      <trkpt lat="46.47007" lon="6.04059">
        <ele>1043</ele>
        <time>2000-01-01T04:53:22.000Z</time>
      </trkpt>
      <trkpt lat="46.46986" lon="6.04087">
        <ele>1044</ele>
        <time>2000-01-01T04:53:32.000Z</time>
      </trkpt>
      <trkpt lat="46.4696" lon="6.04104">
        <ele>1044</ele>
        <time>2000-01-01T04:53:42.000Z</time>
      </trkpt>
      <trkpt lat="46.46957" lon="6.04149">
        <ele>1044</ele>
        <time>2000-01-01T04:53:52.000Z</time>
      </trkpt>
      <trkpt lat="46.46952" lon="6.04186">
        <ele>1044</ele>
        <time>2000-01-01T04:54:02.000Z</time>
      </trkpt>
      <trkpt lat="46.46957" lon="6.04214">
        <ele>1044</ele>
        <time>2000-01-01T04:54:12.000Z</time>
      </trkpt>
      <trkpt lat="46.46961" lon="6.04257">
        <ele>1045</ele>
        <time>2000-01-01T04:54:22.000Z</time>
      </trkpt>
      <trkpt lat="46.46955" lon="6.04321">
        <ele>1058</ele>
        <time>2000-01-01T04:54:32.000Z</time>
      </trkpt>
      <trkpt lat="46.46926" lon="6.04372">
        <ele>1059</ele>
        <time>2000-01-01T04:54:42.000Z</time>
      </trkpt>
      <trkpt lat="46.46914" lon="6.04401">
        <ele>1061</ele>
        <time>2000-01-01T04:54:52.000Z</time>
      </trkpt>
      <trkpt lat="46.46902" lon="6.0443">
        <ele>1065</ele>
        <time>2000-01-01T04:55:02.000Z</time>
      </trkpt>
      <trkpt lat="46.46868" lon="6.04458">
        <ele>1068</ele>
        <time>2000-01-01T04:55:12.000Z</time>
      </trkpt>
      <trkpt lat="46.46847" lon="6.04499">
        <ele>1064</ele>
        <time>2000-01-01T04:55:22.000Z</time>
      </trkpt>
      <trkpt lat="46.46813" lon="6.04531">
        <ele>1061</ele>
        <time>2000-01-01T04:55:32.000Z</time>
      </trkpt>
      <trkpt lat="46.46776" lon="6.04542">
        <ele>1060</ele>
        <time>2000-01-01T04:55:42.000Z</time>
      </trkpt>
      <trkpt lat="46.46753" lon="6.04566">
        <ele>1060</ele>
        <time>2000-01-01T04:55:52.000Z</time>
      </trkpt>
      <trkpt lat="46.46742" lon="6.04611">
        <ele>1046</ele>
        <time>2000-01-01T04:56:02.000Z</time>
      </trkpt>
      <trkpt lat="46.46723" lon="6.04645">
        <ele>1044</ele>
        <time>2000-01-01T04:56:12.000Z</time>
      </trkpt>
      <trkpt lat="46.46707" lon="6.04671">
        <ele>1043</ele>
        <time>2000-01-01T04:56:22.000Z</time>
      </trkpt>
      <trkpt lat="46.46694" lon="6.04718">
        <ele>1043</ele>
        <time>2000-01-01T04:56:32.000Z</time>
      </trkpt>
      <trkpt lat="46.46674" lon="6.04761">
        <ele>1047</ele>
        <time>2000-01-01T04:56:42.000Z</time>
      </trkpt>
      <trkpt lat="46.46651" lon="6.04793">
        <ele>1056</ele>
        <time>2000-01-01T04:56:52.000Z</time>
      </trkpt>
      <trkpt lat="46.46628" lon="6.04825">
        <ele>1055</ele>
        <time>2000-01-01T04:57:02.000Z</time>
      </trkpt>
      <trkpt lat="46.46601" lon="6.04862">
        <ele>1054</ele>
        <time>2000-01-01T04:57:12.000Z</time>
      </trkpt>
      <trkpt lat="46.46578" lon="6.04883">
        <ele>1052</ele>
        <time>2000-01-01T04:57:22.000Z</time>
      </trkpt>
      <trkpt lat="46.46545" lon="6.04913">
        <ele>1047</ele>
        <time>2000-01-01T04:57:32.000Z</time>
      </trkpt>
      <trkpt lat="46.46522" lon="6.04934">
        <ele>1047</ele>
        <time>2000-01-01T04:57:42.000Z</time>
      </trkpt>
      <trkpt lat="46.46489" lon="6.04965">
        <ele>1025</ele>
        <time>2000-01-01T04:57:52.000Z</time>
      </trkpt>
      <trkpt lat="46.46473" lon="6.04995">
        <ele>1024</ele>
        <time>2000-01-01T04:58:02.000Z</time>
      </trkpt>
      <trkpt lat="46.46452" lon="6.05033">
        <ele>1023</ele>
        <time>2000-01-01T04:58:12.000Z</time>
      </trkpt>
      <trkpt lat="46.46475" lon="6.05048">
        <ele>1020</ele>
        <time>2000-01-01T04:58:22.000Z</time>
      </trkpt>
      <trkpt lat="46.46501" lon="6.05066">
        <ele>1018</ele>
        <time>2000-01-01T04:58:32.000Z</time>
      </trkpt>
      <trkpt lat="46.46521" lon="6.05124">
        <ele>1018</ele>
        <time>2000-01-01T04:58:42.000Z</time>
      </trkpt>
      <trkpt lat="46.46514" lon="6.05171">
        <ele>1015</ele>
        <time>2000-01-01T04:58:52.000Z</time>
      </trkpt>
      <trkpt lat="46.46549" lon="6.05196">
        <ele>1016</ele>
        <time>2000-01-01T04:59:02.000Z</time>
      </trkpt>
      <trkpt lat="46.46537" lon="6.05226">
        <ele>1018</ele>
        <time>2000-01-01T04:59:12.000Z</time>
      </trkpt>
      <trkpt lat="46.46524" lon="6.05259">
        <ele>1027</ele>
        <time>2000-01-01T04:59:22.000Z</time>
      </trkpt>
      <trkpt lat="46.46542" lon="6.05304">
        <ele>1037</ele>
        <time>2000-01-01T04:59:32.000Z</time>
      </trkpt>
      <trkpt lat="46.46529" lon="6.05344">
        <ele>1039</ele>
        <time>2000-01-01T04:59:42.000Z</time>
      </trkpt>
      <trkpt lat="46.4649" lon="6.05336">
        <ele>1039</ele>
        <time>2000-01-01T04:59:52.000Z</time>
      </trkpt>
      <trkpt lat="46.46482" lon="6.05369">
        <ele>1044</ele>
        <time>2000-01-01T05:00:02.000Z</time>
      </trkpt>
      <trkpt lat="46.46474" lon="6.05405">
        <ele>1047</ele>
        <time>2000-01-01T05:00:12.000Z</time>
      </trkpt>
      <trkpt lat="46.46449" lon="6.05431">
        <ele>1050</ele>
        <time>2000-01-01T05:00:22.000Z</time>
      </trkpt>
      <trkpt lat="46.46424" lon="6.05458">
        <ele>1045</ele>
        <time>2000-01-01T05:00:32.000Z</time>
      </trkpt>
      <trkpt lat="46.46397" lon="6.05486">
        <ele>1047</ele>
        <time>2000-01-01T05:00:42.000Z</time>
      </trkpt>
      <trkpt lat="46.4641" lon="6.05528">
        <ele>1050</ele>
        <time>2000-01-01T05:00:52.000Z</time>
      </trkpt>
      <trkpt lat="46.46423" lon="6.05569">
        <ele>1049</ele>
        <time>2000-01-01T05:01:02.000Z</time>
      </trkpt>
      <trkpt lat="46.46437" lon="6.05615">
        <ele>1048</ele>
        <time>2000-01-01T05:01:12.000Z</time>
      </trkpt>
      <trkpt lat="46.46417" lon="6.05649">
        <ele>1043</ele>
        <time>2000-01-01T05:01:22.000Z</time>
      </trkpt>
      <trkpt lat="46.464" lon="6.05678">
        <ele>1041</ele>
        <time>2000-01-01T05:01:32.000Z</time>
      </trkpt>
      <trkpt lat="46.46378" lon="6.05716">
        <ele>1049</ele>
        <time>2000-01-01T05:01:42.000Z</time>
      </trkpt>
      <trkpt lat="46.46382" lon="6.05751">
        <ele>1053</ele>
        <time>2000-01-01T05:01:52.000Z</time>
      </trkpt>
      <trkpt lat="46.46387" lon="6.05793">
        <ele>1051</ele>
        <time>2000-01-01T05:02:02.000Z</time>
      </trkpt>
      <trkpt lat="46.46365" lon="6.05815">
        <ele>1053</ele>
        <time>2000-01-01T05:02:12.000Z</time>
      </trkpt>
      <trkpt lat="46.46337" lon="6.05844">
        <ele>1055</ele>
        <time>2000-01-01T05:02:22.000Z</time>
      </trkpt>
      <trkpt lat="46.46332" lon="6.0588">
        <ele>1060</ele>
        <time>2000-01-01T05:02:32.000Z</time>
      </trkpt>
      <trkpt lat="46.46326" lon="6.0592">
        <ele>1071</ele>
        <time>2000-01-01T05:02:42.000Z</time>
      </trkpt>
      <trkpt lat="46.46309" lon="6.05956">
        <ele>1069</ele>
        <time>2000-01-01T05:02:52.000Z</time>
      </trkpt>
      <trkpt lat="46.46279" lon="6.05932">
        <ele>1069</ele>
        <time>2000-01-01T05:03:02.000Z</time>
      </trkpt>
      <trkpt lat="46.46261" lon="6.05952">
        <ele>1069</ele>
        <time>2000-01-01T05:03:12.000Z</time>
      </trkpt>
      <trkpt lat="46.4625" lon="6.05982">
        <ele>1069</ele>
        <time>2000-01-01T05:03:22.000Z</time>
      </trkpt>
      <trkpt lat="46.46238" lon="6.06014">
        <ele>1063</ele>
        <time>2000-01-01T05:03:32.000Z</time>
      </trkpt>
      <trkpt lat="46.4621" lon="6.06026">
        <ele>1063</ele>
        <time>2000-01-01T05:03:42.000Z</time>
      </trkpt>
      <trkpt lat="46.46187" lon="6.06036">
        <ele>1064</ele>
        <time>2000-01-01T05:03:52.000Z</time>
      </trkpt>
      <trkpt lat="46.46164" lon="6.06046">
        <ele>1064</ele>
        <time>2000-01-01T05:04:02.000Z</time>
      </trkpt>
      <trkpt lat="46.46137" lon="6.06012">
        <ele>1065</ele>
        <time>2000-01-01T05:04:12.000Z</time>
      </trkpt>
      <trkpt lat="46.46129" lon="6.05979">
        <ele>1066</ele>
        <time>2000-01-01T05:04:22.000Z</time>
      </trkpt>
      <trkpt lat="46.46121" lon="6.05945">
        <ele>1069</ele>
        <time>2000-01-01T05:04:32.000Z</time>
      </trkpt>
      <trkpt lat="46.46114" lon="6.05909">
        <ele>1075</ele>
        <time>2000-01-01T05:04:42.000Z</time>
      </trkpt>
      <trkpt lat="46.46105" lon="6.05862">
        <ele>1077</ele>
        <time>2000-01-01T05:04:52.000Z</time>
      </trkpt>
      <trkpt lat="46.46091" lon="6.0583">
        <ele>1078</ele>
        <time>2000-01-01T05:05:02.000Z</time>
      </trkpt>
      <trkpt lat="46.46075" lon="6.05791">
        <ele>1079</ele>
        <time>2000-01-01T05:05:12.000Z</time>
      </trkpt>
      <trkpt lat="46.46059" lon="6.05819">
        <ele>1084</ele>
        <time>2000-01-01T05:05:22.000Z</time>
      </trkpt>
      <trkpt lat="46.46041" lon="6.05853">
        <ele>1087</ele>
        <time>2000-01-01T05:05:32.000Z</time>
      </trkpt>
      <trkpt lat="46.46022" lon="6.0588">
        <ele>1087</ele>
        <time>2000-01-01T05:05:42.000Z</time>
      </trkpt>
      <trkpt lat="46.45995" lon="6.05915">
        <ele>1085</ele>
        <time>2000-01-01T05:05:52.000Z</time>
      </trkpt>
      <trkpt lat="46.45978" lon="6.05949">
        <ele>1085</ele>
        <time>2000-01-01T05:06:02.000Z</time>
      </trkpt>
      <trkpt lat="46.45964" lon="6.05977">
        <ele>1085</ele>
        <time>2000-01-01T05:06:12.000Z</time>
      </trkpt>
      <trkpt lat="46.45949" lon="6.06005">
        <ele>1091</ele>
        <time>2000-01-01T05:06:22.000Z</time>
      </trkpt>
      <trkpt lat="46.45937" lon="6.06045">
        <ele>1091</ele>
        <time>2000-01-01T05:06:32.000Z</time>
      </trkpt>
      <trkpt lat="46.45926" lon="6.06078">
        <ele>1091</ele>
        <time>2000-01-01T05:06:42.000Z</time>
      </trkpt>
      <trkpt lat="46.45914" lon="6.06117">
        <ele>1093</ele>
        <time>2000-01-01T05:06:52.000Z</time>
      </trkpt>
      <trkpt lat="46.45892" lon="6.06135">
        <ele>1095</ele>
        <time>2000-01-01T05:07:02.000Z</time>
      </trkpt>
      <trkpt lat="46.45865" lon="6.06158">
        <ele>1099</ele>
        <time>2000-01-01T05:07:12.000Z</time>
      </trkpt>
      <trkpt lat="46.45843" lon="6.06179">
        <ele>1102</ele>
        <time>2000-01-01T05:07:22.000Z</time>
      </trkpt>
      <trkpt lat="46.45813" lon="6.06207">
        <ele>1103</ele>
        <time>2000-01-01T05:07:32.000Z</time>
      </trkpt>
      <trkpt lat="46.45796" lon="6.0623">
        <ele>1106</ele>
        <time>2000-01-01T05:07:42.000Z</time>
      </trkpt>
      <trkpt lat="46.45778" lon="6.06254">
        <ele>1111</ele>
        <time>2000-01-01T05:07:52.000Z</time>
      </trkpt>
      <trkpt lat="46.45766" lon="6.06286">
        <ele>1120</ele>
        <time>2000-01-01T05:08:02.000Z</time>
      </trkpt>
      <trkpt lat="46.45751" lon="6.06323">
        <ele>1119</ele>
        <time>2000-01-01T05:08:12.000Z</time>
      </trkpt>
      <trkpt lat="46.45728" lon="6.06339">
        <ele>1119</ele>
        <time>2000-01-01T05:08:22.000Z</time>
      </trkpt>
      <trkpt lat="46.45701" lon="6.06357">
        <ele>1124</ele>
        <time>2000-01-01T05:08:32.000Z</time>
      </trkpt>
      <trkpt lat="46.45679" lon="6.0637">
        <ele>1126</ele>
        <time>2000-01-01T05:08:42.000Z</time>
      </trkpt>
      <trkpt lat="46.45657" lon="6.06383">
        <ele>1127</ele>
        <time>2000-01-01T05:08:52.000Z</time>
      </trkpt>
      <trkpt lat="46.45662" lon="6.06418">
        <ele>1127</ele>
        <time>2000-01-01T05:09:02.000Z</time>
      </trkpt>
      <trkpt lat="46.45667" lon="6.06458">
        <ele>1127</ele>
        <time>2000-01-01T05:09:12.000Z</time>
      </trkpt>
      <trkpt lat="46.45636" lon="6.06465">
        <ele>1130</ele>
        <time>2000-01-01T05:09:22.000Z</time>
      </trkpt>
      <trkpt lat="46.45614" lon="6.06411">
        <ele>1131</ele>
        <time>2000-01-01T05:09:32.000Z</time>
      </trkpt>
      <trkpt lat="46.45575" lon="6.06377">
        <ele>1130</ele>
        <time>2000-01-01T05:09:42.000Z</time>
      </trkpt>
      <trkpt lat="46.45551" lon="6.06393">
        <ele>1130</ele>
        <time>2000-01-01T05:09:52.000Z</time>
      </trkpt>
      <trkpt lat="46.45518" lon="6.06415">
        <ele>1137</ele>
        <time>2000-01-01T05:10:02.000Z</time>
      </trkpt>
      <trkpt lat="46.45481" lon="6.06437">
        <ele>1142</ele>
        <time>2000-01-01T05:10:12.000Z</time>
      </trkpt>
      <trkpt lat="46.45455" lon="6.06433">
        <ele>1156</ele>
        <time>2000-01-01T05:10:22.000Z</time>
      </trkpt>
      <trkpt lat="46.45425" lon="6.06428">
        <ele>1165</ele>
        <time>2000-01-01T05:10:32.000Z</time>
      </trkpt>
      <trkpt lat="46.45401" lon="6.06436">
        <ele>1163</ele>
        <time>2000-01-01T05:10:42.000Z</time>
      </trkpt>
      <trkpt lat="46.45376" lon="6.06445">
        <ele>1162</ele>
        <time>2000-01-01T05:10:52.000Z</time>
      </trkpt>
      <trkpt lat="46.45349" lon="6.0649">
        <ele>1161</ele>
        <time>2000-01-01T05:11:02.000Z</time>
      </trkpt>
      <trkpt lat="46.45326" lon="6.0648">
        <ele>1161</ele>
        <time>2000-01-01T05:11:12.000Z</time>
      </trkpt>
      <trkpt lat="46.453" lon="6.06469">
        <ele>1172</ele>
        <time>2000-01-01T05:11:22.000Z</time>
      </trkpt>
      <trkpt lat="46.45272" lon="6.06422">
        <ele>1190</ele>
        <time>2000-01-01T05:11:32.000Z</time>
      </trkpt>
      <trkpt lat="46.45282" lon="6.06384">
        <ele>1193</ele>
        <time>2000-01-01T05:11:42.000Z</time>
      </trkpt>
      <trkpt lat="46.45296" lon="6.06327">
        <ele>1205</ele>
        <time>2000-01-01T05:11:52.000Z</time>
      </trkpt>
      <trkpt lat="46.45301" lon="6.06288">
        <ele>1215</ele>
        <time>2000-01-01T05:12:02.000Z</time>
      </trkpt>
      <trkpt lat="46.45309" lon="6.06233">
        <ele>1231</ele>
        <time>2000-01-01T05:12:12.000Z</time>
      </trkpt>
      <trkpt lat="46.45308" lon="6.06166">
        <ele>1240</ele>
        <time>2000-01-01T05:12:22.000Z</time>
      </trkpt>
      <trkpt lat="46.45301" lon="6.06129">
        <ele>1240</ele>
        <time>2000-01-01T05:12:32.000Z</time>
      </trkpt>
      <trkpt lat="46.45292" lon="6.06076">
        <ele>1245</ele>
        <time>2000-01-01T05:12:42.000Z</time>
      </trkpt>
      <trkpt lat="46.45264" lon="6.06076">
        <ele>1250</ele>
        <time>2000-01-01T05:12:52.000Z</time>
      </trkpt>
      <trkpt lat="46.45227" lon="6.06076">
        <ele>1256</ele>
        <time>2000-01-01T05:13:02.000Z</time>
      </trkpt>
      <trkpt lat="46.45204" lon="6.06094">
        <ele>1263</ele>
        <time>2000-01-01T05:13:12.000Z</time>
      </trkpt>
      <trkpt lat="46.45178" lon="6.06115">
        <ele>1265</ele>
        <time>2000-01-01T05:13:22.000Z</time>
      </trkpt>
      <trkpt lat="46.45172" lon="6.06153">
        <ele>1268</ele>
        <time>2000-01-01T05:13:32.000Z</time>
      </trkpt>
      <trkpt lat="46.45164" lon="6.06205">
        <ele>1271</ele>
        <time>2000-01-01T05:13:42.000Z</time>
      </trkpt>
      <trkpt lat="46.45144" lon="6.06229">
        <ele>1271</ele>
        <time>2000-01-01T05:13:52.000Z</time>
      </trkpt>
      <trkpt lat="46.45119" lon="6.06259">
        <ele>1271</ele>
        <time>2000-01-01T05:14:02.000Z</time>
      </trkpt>
      <trkpt lat="46.4509" lon="6.06301">
        <ele>1279</ele>
        <time>2000-01-01T05:14:12.000Z</time>
      </trkpt>
      <trkpt lat="46.45066" lon="6.0632">
        <ele>1285</ele>
        <time>2000-01-01T05:14:22.000Z</time>
      </trkpt>
      <trkpt lat="46.4503" lon="6.06347">
        <ele>1291</ele>
        <time>2000-01-01T05:14:32.000Z</time>
      </trkpt>
      <trkpt lat="46.45004" lon="6.06361">
        <ele>1295</ele>
        <time>2000-01-01T05:14:42.000Z</time>
      </trkpt>
      <trkpt lat="46.44966" lon="6.06383">
        <ele>1308</ele>
        <time>2000-01-01T05:14:52.000Z</time>
      </trkpt>
      <trkpt lat="46.44952" lon="6.06413">
        <ele>1310</ele>
        <time>2000-01-01T05:15:02.000Z</time>
      </trkpt>
      <trkpt lat="46.44923" lon="6.06417">
        <ele>1313</ele>
        <time>2000-01-01T05:15:12.000Z</time>
      </trkpt>
      <trkpt lat="46.44915" lon="6.06385">
        <ele>1316</ele>
        <time>2000-01-01T05:15:22.000Z</time>
      </trkpt>
      <trkpt lat="46.44896" lon="6.06409">
        <ele>1324</ele>
        <time>2000-01-01T05:15:32.000Z</time>
      </trkpt>
      <trkpt lat="46.44876" lon="6.06435">
        <ele>1335</ele>
        <time>2000-01-01T05:15:42.000Z</time>
      </trkpt>
      <trkpt lat="46.4485" lon="6.06445">
        <ele>1335</ele>
        <time>2000-01-01T05:15:52.000Z</time>
      </trkpt>
      <trkpt lat="46.44815" lon="6.0646">
        <ele>1349</ele>
        <time>2000-01-01T05:16:02.000Z</time>
      </trkpt>
      <trkpt lat="46.44791" lon="6.06481">
        <ele>1362</ele>
        <time>2000-01-01T05:16:12.000Z</time>
      </trkpt>
      <trkpt lat="46.44753" lon="6.06512">
        <ele>1366</ele>
        <time>2000-01-01T05:16:22.000Z</time>
      </trkpt>
      <trkpt lat="46.44737" lon="6.06545">
        <ele>1370</ele>
        <time>2000-01-01T05:16:32.000Z</time>
      </trkpt>
      <trkpt lat="46.44713" lon="6.06593">
        <ele>1382</ele>
        <time>2000-01-01T05:16:42.000Z</time>
      </trkpt>
      <trkpt lat="46.44677" lon="6.06632">
        <ele>1389</ele>
        <time>2000-01-01T05:16:52.000Z</time>
      </trkpt>
      <trkpt lat="46.44669" lon="6.06668">
        <ele>1397</ele>
        <time>2000-01-01T05:17:02.000Z</time>
      </trkpt>
      <trkpt lat="46.44659" lon="6.06716">
        <ele>1399</ele>
        <time>2000-01-01T05:17:12.000Z</time>
      </trkpt>
      <trkpt lat="46.44645" lon="6.06753">
        <ele>1399</ele>
        <time>2000-01-01T05:17:22.000Z</time>
      </trkpt>
      <trkpt lat="46.44633" lon="6.06784">
        <ele>1399</ele>
        <time>2000-01-01T05:17:32.000Z</time>
      </trkpt>
      <trkpt lat="46.4462" lon="6.06819">
        <ele>1405</ele>
        <time>2000-01-01T05:17:42.000Z</time>
      </trkpt>
      <trkpt lat="46.44603" lon="6.06849">
        <ele>1412</ele>
        <time>2000-01-01T05:17:52.000Z</time>
      </trkpt>
      <trkpt lat="46.4458" lon="6.06889">
        <ele>1416</ele>
        <time>2000-01-01T05:18:02.000Z</time>
      </trkpt>
      <trkpt lat="46.44555" lon="6.06895">
        <ele>1415</ele>
        <time>2000-01-01T05:18:12.000Z</time>
      </trkpt>
      <trkpt lat="46.44523" lon="6.06902">
        <ele>1415</ele>
        <time>2000-01-01T05:18:22.000Z</time>
      </trkpt>
      <trkpt lat="46.44509" lon="6.06864">
        <ele>1413</ele>
        <time>2000-01-01T05:18:32.000Z</time>
      </trkpt>
      <trkpt lat="46.44504" lon="6.06831">
        <ele>1412</ele>
        <time>2000-01-01T05:18:42.000Z</time>
      </trkpt>
      <trkpt lat="46.44475" lon="6.06819">
        <ele>1413</ele>
        <time>2000-01-01T05:18:52.000Z</time>
      </trkpt>
      <trkpt lat="46.44453" lon="6.06838">
        <ele>1409</ele>
        <time>2000-01-01T05:19:02.000Z</time>
      </trkpt>
      <trkpt lat="46.44425" lon="6.06862">
        <ele>1405</ele>
        <time>2000-01-01T05:19:12.000Z</time>
      </trkpt>
      <trkpt lat="46.44391" lon="6.06859">
        <ele>1404</ele>
        <time>2000-01-01T05:19:22.000Z</time>
      </trkpt>
      <trkpt lat="46.44351" lon="6.06889">
        <ele>1404</ele>
        <time>2000-01-01T05:19:32.000Z</time>
      </trkpt>
      <trkpt lat="46.44339" lon="6.06925">
        <ele>1401</ele>
        <time>2000-01-01T05:19:42.000Z</time>
      </trkpt>
      <trkpt lat="46.44322" lon="6.06975">
        <ele>1387</ele>
        <time>2000-01-01T05:19:52.000Z</time>
      </trkpt>
      <trkpt lat="46.44301" lon="6.07022">
        <ele>1385</ele>
        <time>2000-01-01T05:20:02.000Z</time>
      </trkpt>
      <trkpt lat="46.44263" lon="6.07033">
        <ele>1384</ele>
        <time>2000-01-01T05:20:12.000Z</time>
      </trkpt>
      <trkpt lat="46.4424" lon="6.07052">
        <ele>1383</ele>
        <time>2000-01-01T05:20:22.000Z</time>
      </trkpt>
      <trkpt lat="46.44212" lon="6.07076">
        <ele>1383</ele>
        <time>2000-01-01T05:20:32.000Z</time>
      </trkpt>
      <trkpt lat="46.44213" lon="6.07117">
        <ele>1383</ele>
        <time>2000-01-01T05:20:42.000Z</time>
      </trkpt>
      <trkpt lat="46.44214" lon="6.07181">
        <ele>1381</ele>
        <time>2000-01-01T05:20:52.000Z</time>
      </trkpt>
      <trkpt lat="46.44205" lon="6.07221">
        <ele>1379</ele>
        <time>2000-01-01T05:21:02.000Z</time>
      </trkpt>
      <trkpt lat="46.44192" lon="6.07284">
        <ele>1375</ele>
        <time>2000-01-01T05:21:12.000Z</time>
      </trkpt>
      <trkpt lat="46.44186" lon="6.07319">
        <ele>1374</ele>
        <time>2000-01-01T05:21:22.000Z</time>
      </trkpt>
      <trkpt lat="46.4418" lon="6.07359">
        <ele>1369</ele>
        <time>2000-01-01T05:21:32.000Z</time>
      </trkpt>
      <trkpt lat="46.44199" lon="6.07383">
        <ele>1367</ele>
        <time>2000-01-01T05:21:42.000Z</time>
      </trkpt>
      <trkpt lat="46.44221" lon="6.07411">
        <ele>1360</ele>
        <time>2000-01-01T05:21:52.000Z</time>
      </trkpt>
      <trkpt lat="46.44248" lon="6.07456">
        <ele>1355</ele>
        <time>2000-01-01T05:22:02.000Z</time>
      </trkpt>
      <trkpt lat="46.44234" lon="6.07485">
        <ele>1349</ele>
        <time>2000-01-01T05:22:12.000Z</time>
      </trkpt>
      <trkpt lat="46.4422" lon="6.07516">
        <ele>1343</ele>
        <time>2000-01-01T05:22:22.000Z</time>
      </trkpt>
      <trkpt lat="46.44193" lon="6.07526">
        <ele>1329</ele>
        <time>2000-01-01T05:22:32.000Z</time>
      </trkpt>
      <trkpt lat="46.44155" lon="6.0754">
        <ele>1309</ele>
        <time>2000-01-01T05:22:42.000Z</time>
      </trkpt>
      <trkpt lat="46.4413" lon="6.07548">
        <ele>1309</ele>
        <time>2000-01-01T05:22:52.000Z</time>
      </trkpt>
      <trkpt lat="46.44103" lon="6.07557">
        <ele>1308</ele>
        <time>2000-01-01T05:23:02.000Z</time>
      </trkpt>
      <trkpt lat="46.44078" lon="6.07568">
        <ele>1307</ele>
        <time>2000-01-01T05:23:12.000Z</time>
      </trkpt>
      <trkpt lat="46.44047" lon="6.07583">
        <ele>1305</ele>
        <time>2000-01-01T05:23:22.000Z</time>
      </trkpt>
      <trkpt lat="46.44023" lon="6.07588">
        <ele>1305</ele>
        <time>2000-01-01T05:23:32.000Z</time>
      </trkpt>
      <trkpt lat="46.43998" lon="6.07593">
        <ele>1305</ele>
        <time>2000-01-01T05:23:42.000Z</time>
      </trkpt>
      <trkpt lat="46.43968" lon="6.07613">
        <ele>1305</ele>
        <time>2000-01-01T05:23:52.000Z</time>
      </trkpt>
      <trkpt lat="46.43963" lon="6.07646">
        <ele>1305</ele>
        <time>2000-01-01T05:24:02.000Z</time>
      </trkpt>
      <trkpt lat="46.43958" lon="6.07681">
        <ele>1302</ele>
        <time>2000-01-01T05:24:12.000Z</time>
      </trkpt>
      <trkpt lat="46.43951" lon="6.07717">
        <ele>1301</ele>
        <time>2000-01-01T05:24:22.000Z</time>
      </trkpt>
      <trkpt lat="46.43943" lon="6.07761">
        <ele>1301</ele>
        <time>2000-01-01T05:24:32.000Z</time>
      </trkpt>
      <trkpt lat="46.43952" lon="6.07792">
        <ele>1310</ele>
        <time>2000-01-01T05:24:42.000Z</time>
      </trkpt>
      <trkpt lat="46.43961" lon="6.07825">
        <ele>1312</ele>
        <time>2000-01-01T05:24:52.000Z</time>
      </trkpt>
      <trkpt lat="46.43947" lon="6.07854">
        <ele>1301</ele>
        <time>2000-01-01T05:25:02.000Z</time>
      </trkpt>
      <trkpt lat="46.43931" lon="6.07885">
        <ele>1290</ele>
        <time>2000-01-01T05:25:12.000Z</time>
      </trkpt>
      <trkpt lat="46.43921" lon="6.07917">
        <ele>1285</ele>
        <time>2000-01-01T05:25:22.000Z</time>
      </trkpt>
      <trkpt lat="46.43911" lon="6.07952">
        <ele>1279</ele>
        <time>2000-01-01T05:25:32.000Z</time>
      </trkpt>
      <trkpt lat="46.43894" lon="6.07978">
        <ele>1274</ele>
        <time>2000-01-01T05:25:42.000Z</time>
      </trkpt>
      <trkpt lat="46.43875" lon="6.08007">
        <ele>1273</ele>
        <time>2000-01-01T05:25:52.000Z</time>
      </trkpt>
      <trkpt lat="46.43896" lon="6.08055">
        <ele>1273</ele>
        <time>2000-01-01T05:26:02.000Z</time>
      </trkpt>
      <trkpt lat="46.43918" lon="6.08087">
        <ele>1273</ele>
        <time>2000-01-01T05:26:12.000Z</time>
      </trkpt>
      <trkpt lat="46.43921" lon="6.08147">
        <ele>1268</ele>
        <time>2000-01-01T05:26:22.000Z</time>
      </trkpt>
      <trkpt lat="46.43942" lon="6.08178">
        <ele>1267</ele>
        <time>2000-01-01T05:26:32.000Z</time>
      </trkpt>
      <trkpt lat="46.4396" lon="6.08205">
        <ele>1266</ele>
        <time>2000-01-01T05:26:42.000Z</time>
      </trkpt>
      <trkpt lat="46.43983" lon="6.08239">
        <ele>1258</ele>
        <time>2000-01-01T05:26:52.000Z</time>
      </trkpt>
      <trkpt lat="46.4399" lon="6.08283">
        <ele>1249</ele>
        <time>2000-01-01T05:27:02.000Z</time>
      </trkpt>
      <trkpt lat="46.43998" lon="6.08327">
        <ele>1246</ele>
        <time>2000-01-01T05:27:12.000Z</time>
      </trkpt>
      <trkpt lat="46.44005" lon="6.08372">
        <ele>1246</ele>
        <time>2000-01-01T05:27:22.000Z</time>
      </trkpt>
      <trkpt lat="46.44021" lon="6.08399">
        <ele>1254</ele>
        <time>2000-01-01T05:27:32.000Z</time>
      </trkpt>
      <trkpt lat="46.44038" lon="6.08428">
        <ele>1254</ele>
        <time>2000-01-01T05:27:42.000Z</time>
      </trkpt>
      <trkpt lat="46.44065" lon="6.08428">
        <ele>1255</ele>
        <time>2000-01-01T05:27:52.000Z</time>
      </trkpt>
      <trkpt lat="46.44106" lon="6.08428">
        <ele>1266</ele>
        <time>2000-01-01T05:28:02.000Z</time>
      </trkpt>
      <trkpt lat="46.44131" lon="6.08436">
        <ele>1284</ele>
        <time>2000-01-01T05:28:12.000Z</time>
      </trkpt>
      <trkpt lat="46.44161" lon="6.08445">
        <ele>1279</ele>
        <time>2000-01-01T05:28:22.000Z</time>
      </trkpt>
      <trkpt lat="46.44195" lon="6.08469">
        <ele>1275</ele>
        <time>2000-01-01T05:28:32.000Z</time>
      </trkpt>
      <trkpt lat="46.44213" lon="6.08491">
        <ele>1267</ele>
        <time>2000-01-01T05:28:42.000Z</time>
      </trkpt>
      <trkpt lat="46.44231" lon="6.08514">
        <ele>1267</ele>
        <time>2000-01-01T05:28:52.000Z</time>
      </trkpt>
      <trkpt lat="46.44247" lon="6.08544">
        <ele>1265</ele>
        <time>2000-01-01T05:29:02.000Z</time>
      </trkpt>
      <trkpt lat="46.44267" lon="6.08582">
        <ele>1258</ele>
        <time>2000-01-01T05:29:12.000Z</time>
      </trkpt>
      <trkpt lat="46.44283" lon="6.08607">
        <ele>1252</ele>
        <time>2000-01-01T05:29:22.000Z</time>
      </trkpt>
      <trkpt lat="46.44301" lon="6.08634">
        <ele>1250</ele>
        <time>2000-01-01T05:29:32.000Z</time>
      </trkpt>
      <trkpt lat="46.44317" lon="6.08662">
        <ele>1249</ele>
        <time>2000-01-01T05:29:42.000Z</time>
      </trkpt>
      <trkpt lat="46.44336" lon="6.08696">
        <ele>1249</ele>
        <time>2000-01-01T05:29:52.000Z</time>
      </trkpt>
      <trkpt lat="46.44366" lon="6.08741">
        <ele>1242</ele>
        <time>2000-01-01T05:30:02.000Z</time>
      </trkpt>
      <trkpt lat="46.44396" lon="6.08771">
        <ele>1234</ele>
        <time>2000-01-01T05:30:12.000Z</time>
      </trkpt>
      <trkpt lat="46.44413" lon="6.08742">
        <ele>1234</ele>
        <time>2000-01-01T05:30:22.000Z</time>
      </trkpt>
      <trkpt lat="46.44436" lon="6.08705">
        <ele>1233</ele>
        <time>2000-01-01T05:30:32.000Z</time>
      </trkpt>
      <trkpt lat="46.44452" lon="6.08678">
        <ele>1232</ele>
        <time>2000-01-01T05:30:42.000Z</time>
      </trkpt>
      <trkpt lat="46.44471" lon="6.08647">
        <ele>1229</ele>
        <time>2000-01-01T05:30:52.000Z</time>
      </trkpt>
      <trkpt lat="46.44486" lon="6.0861">
        <ele>1229</ele>
        <time>2000-01-01T05:31:02.000Z</time>
      </trkpt>
      <trkpt lat="46.44498" lon="6.08579">
        <ele>1229</ele>
        <time>2000-01-01T05:31:12.000Z</time>
      </trkpt>
      <trkpt lat="46.44511" lon="6.08546">
        <ele>1227</ele>
        <time>2000-01-01T05:31:22.000Z</time>
      </trkpt>
      <trkpt lat="46.4452" lon="6.08508">
        <ele>1225</ele>
        <time>2000-01-01T05:31:32.000Z</time>
      </trkpt>
      <trkpt lat="46.44533" lon="6.08449">
        <ele>1220</ele>
        <time>2000-01-01T05:31:42.000Z</time>
      </trkpt>
      <trkpt lat="46.44546" lon="6.08419">
        <ele>1218</ele>
        <time>2000-01-01T05:31:52.000Z</time>
      </trkpt>
      <trkpt lat="46.4456" lon="6.08385">
        <ele>1217</ele>
        <time>2000-01-01T05:32:02.000Z</time>
      </trkpt>
      <trkpt lat="46.44567" lon="6.08342">
        <ele>1214</ele>
        <time>2000-01-01T05:32:12.000Z</time>
      </trkpt>
      <trkpt lat="46.44573" lon="6.08306">
        <ele>1211</ele>
        <time>2000-01-01T05:32:22.000Z</time>
      </trkpt>
      <trkpt lat="46.4458" lon="6.08261">
        <ele>1210</ele>
        <time>2000-01-01T05:32:32.000Z</time>
      </trkpt>
      <trkpt lat="46.44588" lon="6.08222">
        <ele>1211</ele>
        <time>2000-01-01T05:32:42.000Z</time>
      </trkpt>
      <trkpt lat="46.44598" lon="6.08164">
        <ele>1211</ele>
        <time>2000-01-01T05:32:52.000Z</time>
      </trkpt>
      <trkpt lat="46.44624" lon="6.08162">
        <ele>1211</ele>
        <time>2000-01-01T05:33:02.000Z</time>
      </trkpt>
      <trkpt lat="46.44657" lon="6.0816">
        <ele>1216</ele>
        <time>2000-01-01T05:33:12.000Z</time>
      </trkpt>
    </trkseg>
  </trk>
</gpx>